<?xml version="1.0" encoding="UTF-8" standalone="no" ?>
<gpx xmlns="http://www.topografix.com/GPX/1/1" xmlns:xsi="http://www.w3.org/2001/XMLSchema-instance" xsi:schemaLocation="http://www.topografix.com/GPX/1/1 http://www.topografix.com/GPX/1/1/gpx.xsd" version="1.1" creator="VisuGPX - https://www.visugpx.com">
  <metadata>
    <name>Sainte BAUME</name>
    <desc><![CDATA[Difficulté moyenne,très beau panorama sur les crêtes.]]></desc>
  </metadata>
  <trk>
    <name><![CDATA[Sainte BAUME_1]]></name>
    <trkseg>
      <trkpt lat="43.30239" lon="5.75526">
        <ele>505.700012</ele>
        <time>2013-03-13T07:42:26Z</time>
      </trkpt>
      <trkpt lat="43.30239" lon="5.75526">
        <ele>505.700012</ele>
        <time>2013-03-13T07:42:27Z</time>
      </trkpt>
      <trkpt lat="43.30233" lon="5.75516">
        <ele>514.4</ele>
        <time>2013-03-13T07:45:49Z</time>
      </trkpt>
      <trkpt lat="43.30228" lon="5.75495">
        <ele>509.7</ele>
        <time>2013-03-13T07:46:06Z</time>
      </trkpt>
      <trkpt lat="43.30224" lon="5.75484">
        <ele>507.8</ele>
        <time>2013-03-13T07:46:14Z</time>
      </trkpt>
      <trkpt lat="43.30221" lon="5.75473">
        <ele>506.1</ele>
        <time>2013-03-13T07:46:22Z</time>
      </trkpt>
      <trkpt lat="43.30218" lon="5.75464">
        <ele>506.2</ele>
        <time>2013-03-13T07:46:28Z</time>
      </trkpt>
      <trkpt lat="43.30215" lon="5.75453">
        <ele>508.2</ele>
        <time>2013-03-13T07:46:34Z</time>
      </trkpt>
      <trkpt lat="43.3021" lon="5.75443">
        <ele>508</ele>
        <time>2013-03-13T07:46:40Z</time>
      </trkpt>
      <trkpt lat="43.30206" lon="5.75433">
        <ele>508.2</ele>
        <time>2013-03-13T07:46:47Z</time>
      </trkpt>
      <trkpt lat="43.30202" lon="5.75423">
        <ele>508.6</ele>
        <time>2013-03-13T07:46:54Z</time>
      </trkpt>
      <trkpt lat="43.30201" lon="5.75422">
        <ele>508.5</ele>
        <time>2013-03-13T07:46:55Z</time>
      </trkpt>
      <trkpt lat="43.30193" lon="5.75403">
        <ele>508.2</ele>
        <time>2013-03-13T07:47:09Z</time>
      </trkpt>
      <trkpt lat="43.30189" lon="5.75393">
        <ele>508</ele>
        <time>2013-03-13T07:47:16Z</time>
      </trkpt>
      <trkpt lat="43.30185" lon="5.75383">
        <ele>509.3</ele>
        <time>2013-03-13T07:47:24Z</time>
      </trkpt>
      <trkpt lat="43.30181" lon="5.75373">
        <ele>509.7</ele>
        <time>2013-03-13T07:47:31Z</time>
      </trkpt>
      <trkpt lat="43.30188" lon="5.75366">
        <ele>510.1</ele>
        <time>2013-03-13T07:47:45Z</time>
      </trkpt>
      <trkpt lat="43.30195" lon="5.75361">
        <ele>510.5</ele>
        <time>2013-03-13T07:47:54Z</time>
      </trkpt>
      <trkpt lat="43.30202" lon="5.75354">
        <ele>510.2</ele>
        <time>2013-03-13T07:48:02Z</time>
      </trkpt>
      <trkpt lat="43.30202" lon="5.75354">
        <ele>510</ele>
        <time>2013-03-13T07:48:03Z</time>
      </trkpt>
      <trkpt lat="43.30217" lon="5.75346">
        <ele>506</ele>
        <time>2013-03-13T07:48:18Z</time>
      </trkpt>
      <trkpt lat="43.30226" lon="5.75343">
        <ele>505.2</ele>
        <time>2013-03-13T07:48:25Z</time>
      </trkpt>
      <trkpt lat="43.30234" lon="5.75338">
        <ele>504.2</ele>
        <time>2013-03-13T07:48:33Z</time>
      </trkpt>
      <trkpt lat="43.3024" lon="5.7533">
        <ele>510.5</ele>
        <time>2013-03-13T07:48:40Z</time>
      </trkpt>
      <trkpt lat="43.30247" lon="5.75324">
        <ele>512.7</ele>
        <time>2013-03-13T07:48:47Z</time>
      </trkpt>
      <trkpt lat="43.30254" lon="5.75316">
        <ele>510.8</ele>
        <time>2013-03-13T07:48:56Z</time>
      </trkpt>
      <trkpt lat="43.30255" lon="5.75304">
        <ele>504.2</ele>
        <time>2013-03-13T07:49:08Z</time>
      </trkpt>
      <trkpt lat="43.30255" lon="5.75303">
        <ele>504.2</ele>
        <time>2013-03-13T07:49:09Z</time>
      </trkpt>
      <trkpt lat="43.30249" lon="5.75284">
        <ele>501</ele>
        <time>2013-03-13T07:49:26Z</time>
      </trkpt>
      <trkpt lat="43.30244" lon="5.75275">
        <ele>501.3</ele>
        <time>2013-03-13T07:49:32Z</time>
      </trkpt>
      <trkpt lat="43.30239" lon="5.75266">
        <ele>502</ele>
        <time>2013-03-13T07:49:39Z</time>
      </trkpt>
      <trkpt lat="43.30234" lon="5.75258">
        <ele>503.1</ele>
        <time>2013-03-13T07:49:46Z</time>
      </trkpt>
      <trkpt lat="43.30232" lon="5.75247">
        <ele>499.5</ele>
        <time>2013-03-13T07:49:54Z</time>
      </trkpt>
      <trkpt lat="43.30231" lon="5.75237">
        <ele>501.1</ele>
        <time>2013-03-13T07:50:00Z</time>
      </trkpt>
      <trkpt lat="43.30231" lon="5.75226">
        <ele>499.5</ele>
        <time>2013-03-13T07:50:07Z</time>
      </trkpt>
      <trkpt lat="43.30231" lon="5.75214">
        <ele>496.3</ele>
        <time>2013-03-13T07:50:17Z</time>
      </trkpt>
      <trkpt lat="43.30231" lon="5.75212">
        <ele>496.8</ele>
        <time>2013-03-13T07:50:18Z</time>
      </trkpt>
      <trkpt lat="43.30225" lon="5.75193">
        <ele>494.3</ele>
        <time>2013-03-13T07:50:33Z</time>
      </trkpt>
      <trkpt lat="43.30234" lon="5.75195">
        <ele>515.7</ele>
        <time>2013-03-13T07:51:02Z</time>
      </trkpt>
      <trkpt lat="43.30239" lon="5.75204">
        <ele>520</ele>
        <time>2013-03-13T07:51:13Z</time>
      </trkpt>
      <trkpt lat="43.30242" lon="5.75216">
        <ele>524.4</ele>
        <time>2013-03-13T07:51:20Z</time>
      </trkpt>
      <trkpt lat="43.30242" lon="5.75217">
        <ele>524.4</ele>
        <time>2013-03-13T07:51:21Z</time>
      </trkpt>
      <trkpt lat="43.30257" lon="5.75226">
        <ele>523</ele>
        <time>2013-03-13T07:51:39Z</time>
      </trkpt>
      <trkpt lat="43.30264" lon="5.7523">
        <ele>524.2</ele>
        <time>2013-03-13T07:51:49Z</time>
      </trkpt>
      <trkpt lat="43.30271" lon="5.75233">
        <ele>526.2</ele>
        <time>2013-03-13T07:51:55Z</time>
      </trkpt>
      <trkpt lat="43.3028" lon="5.75234">
        <ele>530.2</ele>
        <time>2013-03-13T07:52:06Z</time>
      </trkpt>
      <trkpt lat="43.30288" lon="5.75237">
        <ele>529.5</ele>
        <time>2013-03-13T07:52:13Z</time>
      </trkpt>
      <trkpt lat="43.30297" lon="5.75236">
        <ele>529.5</ele>
        <time>2013-03-13T07:52:22Z</time>
      </trkpt>
      <trkpt lat="43.30298" lon="5.75236">
        <ele>529.7</ele>
        <time>2013-03-13T07:52:23Z</time>
      </trkpt>
      <trkpt lat="43.30313" lon="5.75229">
        <ele>534.7</ele>
        <time>2013-03-13T07:52:42Z</time>
      </trkpt>
      <trkpt lat="43.30317" lon="5.75218">
        <ele>534.9</ele>
        <time>2013-03-13T07:52:53Z</time>
      </trkpt>
      <trkpt lat="43.30314" lon="5.75207">
        <ele>537.9</ele>
        <time>2013-03-13T07:53:02Z</time>
      </trkpt>
      <trkpt lat="43.30308" lon="5.75199">
        <ele>537</ele>
        <time>2013-03-13T07:53:12Z</time>
      </trkpt>
      <trkpt lat="43.30308" lon="5.75187">
        <ele>537.7</ele>
        <time>2013-03-13T07:53:23Z</time>
      </trkpt>
      <trkpt lat="43.30309" lon="5.75186">
        <ele>537.7</ele>
        <time>2013-03-13T07:53:24Z</time>
      </trkpt>
      <trkpt lat="43.30307" lon="5.75164">
        <ele>541</ele>
        <time>2013-03-13T07:53:42Z</time>
      </trkpt>
      <trkpt lat="43.30311" lon="5.75153">
        <ele>536.5</ele>
        <time>2013-03-13T07:53:51Z</time>
      </trkpt>
      <trkpt lat="43.30312" lon="5.75141">
        <ele>531.4</ele>
        <time>2013-03-13T07:54:01Z</time>
      </trkpt>
      <trkpt lat="43.30314" lon="5.75129">
        <ele>530.2</ele>
        <time>2013-03-13T07:54:09Z</time>
      </trkpt>
      <trkpt lat="43.3031" lon="5.75118">
        <ele>538.2</ele>
        <time>2013-03-13T07:54:15Z</time>
      </trkpt>
      <trkpt lat="43.30307" lon="5.75106">
        <ele>539.7</ele>
        <time>2013-03-13T07:54:24Z</time>
      </trkpt>
      <trkpt lat="43.30307" lon="5.75105">
        <ele>539.7</ele>
        <time>2013-03-13T07:54:25Z</time>
      </trkpt>
      <trkpt lat="43.30305" lon="5.75082">
        <ele>530.7</ele>
        <time>2013-03-13T07:54:41Z</time>
      </trkpt>
      <trkpt lat="43.30307" lon="5.75071">
        <ele>528.5</ele>
        <time>2013-03-13T07:54:50Z</time>
      </trkpt>
      <trkpt lat="43.30308" lon="5.7506">
        <ele>526.2</ele>
        <time>2013-03-13T07:54:59Z</time>
      </trkpt>
      <trkpt lat="43.30312" lon="5.75049">
        <ele>524.7</ele>
        <time>2013-03-13T07:55:07Z</time>
      </trkpt>
      <trkpt lat="43.30315" lon="5.75039">
        <ele>520</ele>
        <time>2013-03-13T07:55:15Z</time>
      </trkpt>
      <trkpt lat="43.30318" lon="5.75028">
        <ele>518.4</ele>
        <time>2013-03-13T07:55:24Z</time>
      </trkpt>
      <trkpt lat="43.30322" lon="5.75018">
        <ele>516.4</ele>
        <time>2013-03-13T07:55:32Z</time>
      </trkpt>
      <trkpt lat="43.30322" lon="5.75017">
        <ele>516.4</ele>
        <time>2013-03-13T07:55:33Z</time>
      </trkpt>
      <trkpt lat="43.30328" lon="5.74997">
        <ele>518.7</ele>
        <time>2013-03-13T07:55:47Z</time>
      </trkpt>
      <trkpt lat="43.30334" lon="5.74988">
        <ele>543.7</ele>
        <time>2013-03-13T07:56:19Z</time>
      </trkpt>
      <trkpt lat="43.30343" lon="5.74986">
        <ele>541</ele>
        <time>2013-03-13T07:56:27Z</time>
      </trkpt>
      <trkpt lat="43.30351" lon="5.74983">
        <ele>538.7</ele>
        <time>2013-03-13T07:56:34Z</time>
      </trkpt>
      <trkpt lat="43.30352" lon="5.74982">
        <ele>538.7</ele>
        <time>2013-03-13T07:56:35Z</time>
      </trkpt>
      <trkpt lat="43.30365" lon="5.74972">
        <ele>539.9</ele>
        <time>2013-03-13T07:56:48Z</time>
      </trkpt>
      <trkpt lat="43.30371" lon="5.74965">
        <ele>539.5</ele>
        <time>2013-03-13T07:56:56Z</time>
      </trkpt>
      <trkpt lat="43.30377" lon="5.74957">
        <ele>541.4</ele>
        <time>2013-03-13T07:57:06Z</time>
      </trkpt>
      <trkpt lat="43.30383" lon="5.74948">
        <ele>540.4</ele>
        <time>2013-03-13T07:57:14Z</time>
      </trkpt>
      <trkpt lat="43.30388" lon="5.74939">
        <ele>537.7</ele>
        <time>2013-03-13T07:57:26Z</time>
      </trkpt>
      <trkpt lat="43.30391" lon="5.74927">
        <ele>536.2</ele>
        <time>2013-03-13T07:57:37Z</time>
      </trkpt>
      <trkpt lat="43.30391" lon="5.74927">
        <ele>536.5</ele>
        <time>2013-03-13T07:57:38Z</time>
      </trkpt>
      <trkpt lat="43.30391" lon="5.74905">
        <ele>534.5</ele>
        <time>2013-03-13T07:57:57Z</time>
      </trkpt>
      <trkpt lat="43.30392" lon="5.74894">
        <ele>536.2</ele>
        <time>2013-03-13T07:58:04Z</time>
      </trkpt>
      <trkpt lat="43.30396" lon="5.74883">
        <ele>535.4</ele>
        <time>2013-03-13T07:58:14Z</time>
      </trkpt>
      <trkpt lat="43.304" lon="5.74873">
        <ele>535</ele>
        <time>2013-03-13T07:58:23Z</time>
      </trkpt>
      <trkpt lat="43.30403" lon="5.74862">
        <ele>538.7</ele>
        <time>2013-03-13T07:58:32Z</time>
      </trkpt>
      <trkpt lat="43.30405" lon="5.74851">
        <ele>544.2</ele>
        <time>2013-03-13T07:58:39Z</time>
      </trkpt>
      <trkpt lat="43.30405" lon="5.74849">
        <ele>546.5</ele>
        <time>2013-03-13T07:58:40Z</time>
      </trkpt>
      <trkpt lat="43.30407" lon="5.74828">
        <ele>552.5</ele>
        <time>2013-03-13T07:58:56Z</time>
      </trkpt>
      <trkpt lat="43.30408" lon="5.74816">
        <ele>552.5</ele>
        <time>2013-03-13T07:59:05Z</time>
      </trkpt>
      <trkpt lat="43.3041" lon="5.74805">
        <ele>551.5</ele>
        <time>2013-03-13T07:59:17Z</time>
      </trkpt>
      <trkpt lat="43.30411" lon="5.74792">
        <ele>544.5</ele>
        <time>2013-03-13T07:59:33Z</time>
      </trkpt>
      <trkpt lat="43.3041" lon="5.74781">
        <ele>548.9</ele>
        <time>2013-03-13T07:59:41Z</time>
      </trkpt>
      <trkpt lat="43.30411" lon="5.7478">
        <ele>549.4</ele>
        <time>2013-03-13T07:59:42Z</time>
      </trkpt>
      <trkpt lat="43.30416" lon="5.7476">
        <ele>554.4</ele>
        <time>2013-03-13T08:00:01Z</time>
      </trkpt>
      <trkpt lat="43.30418" lon="5.74749">
        <ele>561.4</ele>
        <time>2013-03-13T08:00:10Z</time>
      </trkpt>
      <trkpt lat="43.30422" lon="5.74738">
        <ele>564.2</ele>
        <time>2013-03-13T08:00:21Z</time>
      </trkpt>
      <trkpt lat="43.30426" lon="5.74728">
        <ele>561</ele>
        <time>2013-03-13T08:00:29Z</time>
      </trkpt>
      <trkpt lat="43.30431" lon="5.74718">
        <ele>555.7</ele>
        <time>2013-03-13T08:00:38Z</time>
      </trkpt>
      <trkpt lat="43.30433" lon="5.74707">
        <ele>552.2</ele>
        <time>2013-03-13T08:00:46Z</time>
      </trkpt>
      <trkpt lat="43.30433" lon="5.74705">
        <ele>551.9</ele>
        <time>2013-03-13T08:00:47Z</time>
      </trkpt>
      <trkpt lat="43.30435" lon="5.74684">
        <ele>559</ele>
        <time>2013-03-13T08:00:58Z</time>
      </trkpt>
      <trkpt lat="43.30438" lon="5.74673">
        <ele>559.5</ele>
        <time>2013-03-13T08:01:05Z</time>
      </trkpt>
      <trkpt lat="43.30439" lon="5.74662">
        <ele>559.5</ele>
        <time>2013-03-13T08:01:11Z</time>
      </trkpt>
      <trkpt lat="43.30441" lon="5.74652">
        <ele>560.5</ele>
        <time>2013-03-13T08:01:17Z</time>
      </trkpt>
      <trkpt lat="43.30444" lon="5.74641">
        <ele>558.5</ele>
        <time>2013-03-13T08:01:26Z</time>
      </trkpt>
      <trkpt lat="43.30448" lon="5.7463">
        <ele>557.2</ele>
        <time>2013-03-13T08:01:34Z</time>
      </trkpt>
      <trkpt lat="43.3045" lon="5.74619">
        <ele>556</ele>
        <time>2013-03-13T08:01:41Z</time>
      </trkpt>
      <trkpt lat="43.30452" lon="5.74607">
        <ele>554.7</ele>
        <time>2013-03-13T08:01:48Z</time>
      </trkpt>
      <trkpt lat="43.30452" lon="5.74606">
        <ele>554.5</ele>
        <time>2013-03-13T08:01:49Z</time>
      </trkpt>
      <trkpt lat="43.30451" lon="5.74584">
        <ele>549.4</ele>
        <time>2013-03-13T08:02:05Z</time>
      </trkpt>
      <trkpt lat="43.3045" lon="5.74573">
        <ele>547.2</ele>
        <time>2013-03-13T08:02:13Z</time>
      </trkpt>
      <trkpt lat="43.30448" lon="5.74562">
        <ele>544.2</ele>
        <time>2013-03-13T08:02:20Z</time>
      </trkpt>
      <trkpt lat="43.30445" lon="5.74551">
        <ele>545.7</ele>
        <time>2013-03-13T08:02:26Z</time>
      </trkpt>
      <trkpt lat="43.30443" lon="5.74541">
        <ele>544.2</ele>
        <time>2013-03-13T08:02:32Z</time>
      </trkpt>
      <trkpt lat="43.30441" lon="5.74531">
        <ele>545</ele>
        <time>2013-03-13T08:02:38Z</time>
      </trkpt>
      <trkpt lat="43.30439" lon="5.7452">
        <ele>544.4</ele>
        <time>2013-03-13T08:02:45Z</time>
      </trkpt>
      <trkpt lat="43.30436" lon="5.74509">
        <ele>543.7</ele>
        <time>2013-03-13T08:02:51Z</time>
      </trkpt>
      <trkpt lat="43.30435" lon="5.74508">
        <ele>543.9</ele>
        <time>2013-03-13T08:02:52Z</time>
      </trkpt>
      <trkpt lat="43.30431" lon="5.74487">
        <ele>546</ele>
        <time>2013-03-13T08:03:06Z</time>
      </trkpt>
      <trkpt lat="43.30428" lon="5.74476">
        <ele>542.5</ele>
        <time>2013-03-13T08:03:21Z</time>
      </trkpt>
      <trkpt lat="43.30422" lon="5.74467">
        <ele>552</ele>
        <time>2013-03-13T08:03:27Z</time>
      </trkpt>
      <trkpt lat="43.30419" lon="5.74456">
        <ele>553.2</ele>
        <time>2013-03-13T08:03:40Z</time>
      </trkpt>
      <trkpt lat="43.30417" lon="5.74444">
        <ele>551.5</ele>
        <time>2013-03-13T08:03:54Z</time>
      </trkpt>
      <trkpt lat="43.30417" lon="5.74443">
        <ele>551.2</ele>
        <time>2013-03-13T08:03:55Z</time>
      </trkpt>
      <trkpt lat="43.30414" lon="5.7442">
        <ele>545</ele>
        <time>2013-03-13T08:04:20Z</time>
      </trkpt>
      <trkpt lat="43.30411" lon="5.74409">
        <ele>543</ele>
        <time>2013-03-13T08:04:28Z</time>
      </trkpt>
      <trkpt lat="43.30408" lon="5.74398">
        <ele>540.7</ele>
        <time>2013-03-13T08:04:36Z</time>
      </trkpt>
      <trkpt lat="43.30407" lon="5.74388">
        <ele>540</ele>
        <time>2013-03-13T08:04:43Z</time>
      </trkpt>
      <trkpt lat="43.30406" lon="5.74376">
        <ele>539</ele>
        <time>2013-03-13T08:04:51Z</time>
      </trkpt>
      <trkpt lat="43.30408" lon="5.74365">
        <ele>542</ele>
        <time>2013-03-13T08:04:58Z</time>
      </trkpt>
      <trkpt lat="43.30408" lon="5.74363">
        <ele>544.7</ele>
        <time>2013-03-13T08:04:59Z</time>
      </trkpt>
      <trkpt lat="43.30416" lon="5.74346">
        <ele>554.2</ele>
        <time>2013-03-13T08:05:13Z</time>
      </trkpt>
      <trkpt lat="43.30422" lon="5.74338">
        <ele>556.2</ele>
        <time>2013-03-13T08:05:21Z</time>
      </trkpt>
      <trkpt lat="43.30429" lon="5.74332">
        <ele>554.5</ele>
        <time>2013-03-13T08:05:27Z</time>
      </trkpt>
      <trkpt lat="43.30436" lon="5.74325">
        <ele>555.2</ele>
        <time>2013-03-13T08:05:34Z</time>
      </trkpt>
      <trkpt lat="43.30443" lon="5.74319">
        <ele>556.5</ele>
        <time>2013-03-13T08:05:42Z</time>
      </trkpt>
      <trkpt lat="43.30451" lon="5.74316">
        <ele>557.9</ele>
        <time>2013-03-13T08:05:48Z</time>
      </trkpt>
      <trkpt lat="43.30459" lon="5.74312">
        <ele>559.4</ele>
        <time>2013-03-13T08:05:59Z</time>
      </trkpt>
      <trkpt lat="43.3046" lon="5.74311">
        <ele>559.7</ele>
        <time>2013-03-13T08:06:00Z</time>
      </trkpt>
      <trkpt lat="43.30474" lon="5.74302">
        <ele>561.5</ele>
        <time>2013-03-13T08:06:13Z</time>
      </trkpt>
      <trkpt lat="43.30482" lon="5.74297">
        <ele>563</ele>
        <time>2013-03-13T08:06:22Z</time>
      </trkpt>
      <trkpt lat="43.30489" lon="5.74291">
        <ele>563</ele>
        <time>2013-03-13T08:06:35Z</time>
      </trkpt>
      <trkpt lat="43.30492" lon="5.7428">
        <ele>564.7</ele>
        <time>2013-03-13T08:06:44Z</time>
      </trkpt>
      <trkpt lat="43.30495" lon="5.74269">
        <ele>567.4</ele>
        <time>2013-03-13T08:07:06Z</time>
      </trkpt>
      <trkpt lat="43.30495" lon="5.74268">
        <ele>569</ele>
        <time>2013-03-13T08:07:07Z</time>
      </trkpt>
      <trkpt lat="43.30501" lon="5.74261">
        <ele>570.5</ele>
        <time>2013-03-13T08:10:21Z</time>
      </trkpt>
      <trkpt lat="43.3051" lon="5.74241">
        <ele>571.7</ele>
        <time>2013-03-13T08:10:40Z</time>
      </trkpt>
      <trkpt lat="43.30515" lon="5.74232">
        <ele>571.5</ele>
        <time>2013-03-13T08:10:50Z</time>
      </trkpt>
      <trkpt lat="43.3052" lon="5.74223">
        <ele>570.9</ele>
        <time>2013-03-13T08:10:59Z</time>
      </trkpt>
      <trkpt lat="43.30524" lon="5.74211">
        <ele>568</ele>
        <time>2013-03-13T08:11:08Z</time>
      </trkpt>
      <trkpt lat="43.30528" lon="5.74202">
        <ele>569.7</ele>
        <time>2013-03-13T08:11:17Z</time>
      </trkpt>
      <trkpt lat="43.30534" lon="5.74193">
        <ele>568.5</ele>
        <time>2013-03-13T08:11:28Z</time>
      </trkpt>
      <trkpt lat="43.30535" lon="5.74192">
        <ele>568.4</ele>
        <time>2013-03-13T08:11:29Z</time>
      </trkpt>
      <trkpt lat="43.30546" lon="5.74177">
        <ele>576</ele>
        <time>2013-03-13T08:11:47Z</time>
      </trkpt>
      <trkpt lat="43.30547" lon="5.74166">
        <ele>574</ele>
        <time>2013-03-13T08:11:55Z</time>
      </trkpt>
      <trkpt lat="43.30548" lon="5.74154">
        <ele>572.2</ele>
        <time>2013-03-13T08:12:04Z</time>
      </trkpt>
      <trkpt lat="43.30551" lon="5.74144">
        <ele>571.9</ele>
        <time>2013-03-13T08:12:13Z</time>
      </trkpt>
      <trkpt lat="43.30554" lon="5.74133">
        <ele>568.7</ele>
        <time>2013-03-13T08:12:22Z</time>
      </trkpt>
      <trkpt lat="43.30556" lon="5.74122">
        <ele>568</ele>
        <time>2013-03-13T08:12:30Z</time>
      </trkpt>
      <trkpt lat="43.30556" lon="5.74121">
        <ele>566.7</ele>
        <time>2013-03-13T08:12:31Z</time>
      </trkpt>
      <trkpt lat="43.30559" lon="5.74099">
        <ele>563.4</ele>
        <time>2013-03-13T08:12:47Z</time>
      </trkpt>
      <trkpt lat="43.30559" lon="5.74087">
        <ele>566.4</ele>
        <time>2013-03-13T08:12:55Z</time>
      </trkpt>
      <trkpt lat="43.30561" lon="5.74076">
        <ele>567.5</ele>
        <time>2013-03-13T08:13:03Z</time>
      </trkpt>
      <trkpt lat="43.30563" lon="5.74064">
        <ele>567.7</ele>
        <time>2013-03-13T08:13:12Z</time>
      </trkpt>
      <trkpt lat="43.30561" lon="5.74052">
        <ele>571.2</ele>
        <time>2013-03-13T08:13:19Z</time>
      </trkpt>
      <trkpt lat="43.30561" lon="5.74042">
        <ele>572.5</ele>
        <time>2013-03-13T08:13:26Z</time>
      </trkpt>
      <trkpt lat="43.3056" lon="5.7403">
        <ele>574.4</ele>
        <time>2013-03-13T08:13:34Z</time>
      </trkpt>
      <trkpt lat="43.30561" lon="5.74029">
        <ele>573.7</ele>
        <time>2013-03-13T08:13:35Z</time>
      </trkpt>
      <trkpt lat="43.30562" lon="5.74008">
        <ele>569.4</ele>
        <time>2013-03-13T08:13:51Z</time>
      </trkpt>
      <trkpt lat="43.30558" lon="5.73998">
        <ele>569.9</ele>
        <time>2013-03-13T08:13:56Z</time>
      </trkpt>
      <trkpt lat="43.30557" lon="5.73987">
        <ele>573.7</ele>
        <time>2013-03-13T08:14:02Z</time>
      </trkpt>
      <trkpt lat="43.30557" lon="5.73976">
        <ele>577</ele>
        <time>2013-03-13T08:14:09Z</time>
      </trkpt>
      <trkpt lat="43.30556" lon="5.73964">
        <ele>580.2</ele>
        <time>2013-03-13T08:14:16Z</time>
      </trkpt>
      <trkpt lat="43.30554" lon="5.73953">
        <ele>581.2</ele>
        <time>2013-03-13T08:14:24Z</time>
      </trkpt>
      <trkpt lat="43.30552" lon="5.73941">
        <ele>581</ele>
        <time>2013-03-13T08:14:33Z</time>
      </trkpt>
      <trkpt lat="43.30553" lon="5.73929">
        <ele>582.2</ele>
        <time>2013-03-13T08:14:42Z</time>
      </trkpt>
      <trkpt lat="43.30553" lon="5.73928">
        <ele>581.7</ele>
        <time>2013-03-13T08:14:43Z</time>
      </trkpt>
      <trkpt lat="43.30555" lon="5.73905">
        <ele>578.2</ele>
        <time>2013-03-13T08:15:02Z</time>
      </trkpt>
      <trkpt lat="43.3056" lon="5.73895">
        <ele>576.9</ele>
        <time>2013-03-13T08:15:12Z</time>
      </trkpt>
      <trkpt lat="43.30566" lon="5.73886">
        <ele>583.5</ele>
        <time>2013-03-13T08:15:24Z</time>
      </trkpt>
      <trkpt lat="43.30572" lon="5.73881">
        <ele>589.2</ele>
        <time>2013-03-13T08:15:32Z</time>
      </trkpt>
      <trkpt lat="43.30579" lon="5.73874">
        <ele>589.5</ele>
        <time>2013-03-13T08:15:41Z</time>
      </trkpt>
      <trkpt lat="43.30581" lon="5.73862">
        <ele>587.9</ele>
        <time>2013-03-13T08:15:51Z</time>
      </trkpt>
      <trkpt lat="43.3058" lon="5.73861">
        <ele>588</ele>
        <time>2013-03-13T08:15:52Z</time>
      </trkpt>
      <trkpt lat="43.3058" lon="5.7384">
        <ele>587.7</ele>
        <time>2013-03-13T08:16:10Z</time>
      </trkpt>
      <trkpt lat="43.30576" lon="5.7383">
        <ele>586.7</ele>
        <time>2013-03-13T08:16:18Z</time>
      </trkpt>
      <trkpt lat="43.30574" lon="5.73819">
        <ele>586.2</ele>
        <time>2013-03-13T08:16:26Z</time>
      </trkpt>
      <trkpt lat="43.30573" lon="5.73806">
        <ele>584.2</ele>
        <time>2013-03-13T08:16:36Z</time>
      </trkpt>
      <trkpt lat="43.3057" lon="5.73795">
        <ele>584.2</ele>
        <time>2013-03-13T08:16:45Z</time>
      </trkpt>
      <trkpt lat="43.30568" lon="5.73783">
        <ele>587.2</ele>
        <time>2013-03-13T08:16:54Z</time>
      </trkpt>
      <trkpt lat="43.30568" lon="5.73782">
        <ele>587.7</ele>
        <time>2013-03-13T08:16:55Z</time>
      </trkpt>
      <trkpt lat="43.30565" lon="5.7376">
        <ele>591.7</ele>
        <time>2013-03-13T08:17:14Z</time>
      </trkpt>
      <trkpt lat="43.30565" lon="5.73749">
        <ele>599.5</ele>
        <time>2013-03-13T08:17:21Z</time>
      </trkpt>
      <trkpt lat="43.30565" lon="5.73737">
        <ele>603.5</ele>
        <time>2013-03-13T08:17:31Z</time>
      </trkpt>
      <trkpt lat="43.30569" lon="5.73727">
        <ele>605.4</ele>
        <time>2013-03-13T08:17:41Z</time>
      </trkpt>
      <trkpt lat="43.30576" lon="5.73718">
        <ele>606.7</ele>
        <time>2013-03-13T08:17:51Z</time>
      </trkpt>
      <trkpt lat="43.30583" lon="5.73711">
        <ele>608.9</ele>
        <time>2013-03-13T08:18:02Z</time>
      </trkpt>
      <trkpt lat="43.30583" lon="5.73711">
        <ele>609</ele>
        <time>2013-03-13T08:18:03Z</time>
      </trkpt>
      <trkpt lat="43.30594" lon="5.73695">
        <ele>608.5</ele>
        <time>2013-03-13T08:18:20Z</time>
      </trkpt>
      <trkpt lat="43.30594" lon="5.73683">
        <ele>603.9</ele>
        <time>2013-03-13T08:18:30Z</time>
      </trkpt>
      <trkpt lat="43.30594" lon="5.73672">
        <ele>609</ele>
        <time>2013-03-13T08:18:39Z</time>
      </trkpt>
      <trkpt lat="43.30597" lon="5.7366">
        <ele>610.5</ele>
        <time>2013-03-13T08:18:49Z</time>
      </trkpt>
      <trkpt lat="43.30596" lon="5.7365">
        <ele>611.5</ele>
        <time>2013-03-13T08:19:00Z</time>
      </trkpt>
      <trkpt lat="43.30592" lon="5.73639">
        <ele>612.2</ele>
        <time>2013-03-13T08:19:07Z</time>
      </trkpt>
      <trkpt lat="43.30592" lon="5.73638">
        <ele>611.4</ele>
        <time>2013-03-13T08:19:08Z</time>
      </trkpt>
      <trkpt lat="43.30586" lon="5.73619">
        <ele>610.4</ele>
        <time>2013-03-13T08:19:23Z</time>
      </trkpt>
      <trkpt lat="43.30583" lon="5.73607">
        <ele>608.7</ele>
        <time>2013-03-13T08:19:34Z</time>
      </trkpt>
      <trkpt lat="43.30577" lon="5.73598">
        <ele>608.2</ele>
        <time>2013-03-13T08:19:43Z</time>
      </trkpt>
      <trkpt lat="43.30576" lon="5.73586">
        <ele>605.7</ele>
        <time>2013-03-13T08:19:52Z</time>
      </trkpt>
      <trkpt lat="43.30571" lon="5.73576">
        <ele>605.2</ele>
        <time>2013-03-13T08:19:58Z</time>
      </trkpt>
      <trkpt lat="43.30568" lon="5.73566">
        <ele>608.7</ele>
        <time>2013-03-13T08:20:06Z</time>
      </trkpt>
      <trkpt lat="43.3056" lon="5.73563">
        <ele>622.7</ele>
        <time>2013-03-13T08:25:24Z</time>
      </trkpt>
      <trkpt lat="43.3056" lon="5.73563">
        <ele>622.5</ele>
        <time>2013-03-13T08:25:25Z</time>
      </trkpt>
      <trkpt lat="43.30559" lon="5.7355">
        <ele>624.2</ele>
        <time>2013-03-13T08:27:16Z</time>
      </trkpt>
      <trkpt lat="43.30556" lon="5.73527">
        <ele>618.7</ele>
        <time>2013-03-13T08:27:37Z</time>
      </trkpt>
      <trkpt lat="43.30557" lon="5.73515">
        <ele>616.9</ele>
        <time>2013-03-13T08:27:47Z</time>
      </trkpt>
      <trkpt lat="43.30552" lon="5.73505">
        <ele>614.2</ele>
        <time>2013-03-13T08:27:53Z</time>
      </trkpt>
      <trkpt lat="43.30549" lon="5.73494">
        <ele>608.7</ele>
        <time>2013-03-13T08:28:02Z</time>
      </trkpt>
      <trkpt lat="43.30546" lon="5.73483">
        <ele>607.9</ele>
        <time>2013-03-13T08:28:10Z</time>
      </trkpt>
      <trkpt lat="43.30545" lon="5.73471">
        <ele>613.5</ele>
        <time>2013-03-13T08:28:18Z</time>
      </trkpt>
      <trkpt lat="43.30544" lon="5.7347">
        <ele>614</ele>
        <time>2013-03-13T08:28:19Z</time>
      </trkpt>
      <trkpt lat="43.30541" lon="5.7345">
        <ele>612.4</ele>
        <time>2013-03-13T08:28:34Z</time>
      </trkpt>
      <trkpt lat="43.30538" lon="5.73439">
        <ele>614</ele>
        <time>2013-03-13T08:28:40Z</time>
      </trkpt>
      <trkpt lat="43.30537" lon="5.73427">
        <ele>615.5</ele>
        <time>2013-03-13T08:28:47Z</time>
      </trkpt>
      <trkpt lat="43.30538" lon="5.73415">
        <ele>613.7</ele>
        <time>2013-03-13T08:28:54Z</time>
      </trkpt>
      <trkpt lat="43.3054" lon="5.73404">
        <ele>611</ele>
        <time>2013-03-13T08:29:01Z</time>
      </trkpt>
      <trkpt lat="43.30541" lon="5.73393">
        <ele>613</ele>
        <time>2013-03-13T08:29:09Z</time>
      </trkpt>
      <trkpt lat="43.30544" lon="5.73382">
        <ele>612.9</ele>
        <time>2013-03-13T08:29:17Z</time>
      </trkpt>
      <trkpt lat="43.30547" lon="5.73371">
        <ele>606</ele>
        <time>2013-03-13T08:29:25Z</time>
      </trkpt>
      <trkpt lat="43.30547" lon="5.73369">
        <ele>606.7</ele>
        <time>2013-03-13T08:29:26Z</time>
      </trkpt>
      <trkpt lat="43.30556" lon="5.73352">
        <ele>609.7</ele>
        <time>2013-03-13T08:29:42Z</time>
      </trkpt>
      <trkpt lat="43.30563" lon="5.73346">
        <ele>614.2</ele>
        <time>2013-03-13T08:29:49Z</time>
      </trkpt>
      <trkpt lat="43.30571" lon="5.73341">
        <ele>616.7</ele>
        <time>2013-03-13T08:29:56Z</time>
      </trkpt>
      <trkpt lat="43.30577" lon="5.73334">
        <ele>617.7</ele>
        <time>2013-03-13T08:30:03Z</time>
      </trkpt>
      <trkpt lat="43.30584" lon="5.73329">
        <ele>618.2</ele>
        <time>2013-03-13T08:30:09Z</time>
      </trkpt>
      <trkpt lat="43.30591" lon="5.73322">
        <ele>617.7</ele>
        <time>2013-03-13T08:30:17Z</time>
      </trkpt>
      <trkpt lat="43.30598" lon="5.73314">
        <ele>618.7</ele>
        <time>2013-03-13T08:30:26Z</time>
      </trkpt>
      <trkpt lat="43.30599" lon="5.73313">
        <ele>618.5</ele>
        <time>2013-03-13T08:30:27Z</time>
      </trkpt>
      <trkpt lat="43.30602" lon="5.73291">
        <ele>618</ele>
        <time>2013-03-13T08:30:42Z</time>
      </trkpt>
      <trkpt lat="43.30603" lon="5.73279">
        <ele>608.7</ele>
        <time>2013-03-13T08:30:50Z</time>
      </trkpt>
      <trkpt lat="43.30605" lon="5.73268">
        <ele>608.5</ele>
        <time>2013-03-13T08:30:58Z</time>
      </trkpt>
      <trkpt lat="43.30605" lon="5.73256">
        <ele>613.2</ele>
        <time>2013-03-13T08:31:07Z</time>
      </trkpt>
      <trkpt lat="43.30603" lon="5.73245">
        <ele>612.2</ele>
        <time>2013-03-13T08:31:16Z</time>
      </trkpt>
      <trkpt lat="43.306" lon="5.73235">
        <ele>613.5</ele>
        <time>2013-03-13T08:31:25Z</time>
      </trkpt>
      <trkpt lat="43.306" lon="5.73223">
        <ele>615.2</ele>
        <time>2013-03-13T08:31:34Z</time>
      </trkpt>
      <trkpt lat="43.306" lon="5.73221">
        <ele>615.5</ele>
        <time>2013-03-13T08:31:35Z</time>
      </trkpt>
      <trkpt lat="43.30595" lon="5.732">
        <ele>612.7</ele>
        <time>2013-03-13T08:31:51Z</time>
      </trkpt>
      <trkpt lat="43.30595" lon="5.73188">
        <ele>615.9</ele>
        <time>2013-03-13T08:32:00Z</time>
      </trkpt>
      <trkpt lat="43.30594" lon="5.73177">
        <ele>614.4</ele>
        <time>2013-03-13T08:32:07Z</time>
      </trkpt>
      <trkpt lat="43.30592" lon="5.73166">
        <ele>614</ele>
        <time>2013-03-13T08:32:16Z</time>
      </trkpt>
      <trkpt lat="43.30593" lon="5.73154">
        <ele>610.2</ele>
        <time>2013-03-13T08:32:26Z</time>
      </trkpt>
      <trkpt lat="43.30591" lon="5.73143">
        <ele>611.9</ele>
        <time>2013-03-13T08:32:32Z</time>
      </trkpt>
      <trkpt lat="43.3059" lon="5.73131">
        <ele>616.5</ele>
        <time>2013-03-13T08:32:40Z</time>
      </trkpt>
      <trkpt lat="43.3059" lon="5.7313">
        <ele>616.5</ele>
        <time>2013-03-13T08:32:41Z</time>
      </trkpt>
      <trkpt lat="43.30595" lon="5.7311">
        <ele>619.9</ele>
        <time>2013-03-13T08:32:54Z</time>
      </trkpt>
      <trkpt lat="43.30593" lon="5.731">
        <ele>617.5</ele>
        <time>2013-03-13T08:33:01Z</time>
      </trkpt>
      <trkpt lat="43.30589" lon="5.73089">
        <ele>620</ele>
        <time>2013-03-13T08:33:08Z</time>
      </trkpt>
      <trkpt lat="43.30585" lon="5.73079">
        <ele>623.2</ele>
        <time>2013-03-13T08:33:16Z</time>
      </trkpt>
      <trkpt lat="43.30584" lon="5.73067">
        <ele>624.7</ele>
        <time>2013-03-13T08:33:27Z</time>
      </trkpt>
      <trkpt lat="43.30591" lon="5.73061">
        <ele>630</ele>
        <time>2013-03-13T08:33:43Z</time>
      </trkpt>
      <trkpt lat="43.30592" lon="5.73061">
        <ele>630</ele>
        <time>2013-03-13T08:33:44Z</time>
      </trkpt>
      <trkpt lat="43.30608" lon="5.73055">
        <ele>632.7</ele>
        <time>2013-03-13T08:34:03Z</time>
      </trkpt>
      <trkpt lat="43.30617" lon="5.73053">
        <ele>635.7</ele>
        <time>2013-03-13T08:34:12Z</time>
      </trkpt>
      <trkpt lat="43.30625" lon="5.7305">
        <ele>637.9</ele>
        <time>2013-03-13T08:34:24Z</time>
      </trkpt>
      <trkpt lat="43.30634" lon="5.73046">
        <ele>640.2</ele>
        <time>2013-03-13T08:34:38Z</time>
      </trkpt>
      <trkpt lat="43.30641" lon="5.73042">
        <ele>643.5</ele>
        <time>2013-03-13T08:34:48Z</time>
      </trkpt>
      <trkpt lat="43.30642" lon="5.73041">
        <ele>643.7</ele>
        <time>2013-03-13T08:34:49Z</time>
      </trkpt>
      <trkpt lat="43.30658" lon="5.73039">
        <ele>646.4</ele>
        <time>2013-03-13T08:35:08Z</time>
      </trkpt>
      <trkpt lat="43.30665" lon="5.73033">
        <ele>643.7</ele>
        <time>2013-03-13T08:35:19Z</time>
      </trkpt>
      <trkpt lat="43.30673" lon="5.73031">
        <ele>644.9</ele>
        <time>2013-03-13T08:35:29Z</time>
      </trkpt>
      <trkpt lat="43.30682" lon="5.7303">
        <ele>644.5</ele>
        <time>2013-03-13T08:35:40Z</time>
      </trkpt>
      <trkpt lat="43.3069" lon="5.73027">
        <ele>646.2</ele>
        <time>2013-03-13T08:35:49Z</time>
      </trkpt>
      <trkpt lat="43.30691" lon="5.73026">
        <ele>646.7</ele>
        <time>2013-03-13T08:35:50Z</time>
      </trkpt>
      <trkpt lat="43.30708" lon="5.73022">
        <ele>651.2</ele>
        <time>2013-03-13T08:36:09Z</time>
      </trkpt>
      <trkpt lat="43.30715" lon="5.73018">
        <ele>650.7</ele>
        <time>2013-03-13T08:36:19Z</time>
      </trkpt>
      <trkpt lat="43.30723" lon="5.73015">
        <ele>651.2</ele>
        <time>2013-03-13T08:36:26Z</time>
      </trkpt>
      <trkpt lat="43.30731" lon="5.73011">
        <ele>652.5</ele>
        <time>2013-03-13T08:36:33Z</time>
      </trkpt>
      <trkpt lat="43.30739" lon="5.73007">
        <ele>652.7</ele>
        <time>2013-03-13T08:36:40Z</time>
      </trkpt>
      <trkpt lat="43.30747" lon="5.73004">
        <ele>653</ele>
        <time>2013-03-13T08:36:48Z</time>
      </trkpt>
      <trkpt lat="43.30755" lon="5.73004">
        <ele>653.7</ele>
        <time>2013-03-13T08:36:56Z</time>
      </trkpt>
      <trkpt lat="43.30756" lon="5.73004">
        <ele>653.7</ele>
        <time>2013-03-13T08:36:57Z</time>
      </trkpt>
      <trkpt lat="43.30771" lon="5.72999">
        <ele>652.7</ele>
        <time>2013-03-13T08:37:14Z</time>
      </trkpt>
      <trkpt lat="43.30779" lon="5.72993">
        <ele>651</ele>
        <time>2013-03-13T08:37:22Z</time>
      </trkpt>
      <trkpt lat="43.30787" lon="5.72988">
        <ele>653.5</ele>
        <time>2013-03-13T08:37:32Z</time>
      </trkpt>
      <trkpt lat="43.30795" lon="5.72985">
        <ele>657</ele>
        <time>2013-03-13T08:37:42Z</time>
      </trkpt>
      <trkpt lat="43.30802" lon="5.7298">
        <ele>659</ele>
        <time>2013-03-13T08:37:51Z</time>
      </trkpt>
      <trkpt lat="43.30809" lon="5.72974">
        <ele>660.4</ele>
        <time>2013-03-13T08:37:58Z</time>
      </trkpt>
      <trkpt lat="43.3081" lon="5.72973">
        <ele>660.7</ele>
        <time>2013-03-13T08:37:59Z</time>
      </trkpt>
      <trkpt lat="43.30823" lon="5.72961">
        <ele>658.2</ele>
        <time>2013-03-13T08:38:19Z</time>
      </trkpt>
      <trkpt lat="43.30829" lon="5.72953">
        <ele>661</ele>
        <time>2013-03-13T08:38:31Z</time>
      </trkpt>
      <trkpt lat="43.30836" lon="5.72946">
        <ele>661.5</ele>
        <time>2013-03-13T08:38:42Z</time>
      </trkpt>
      <trkpt lat="43.30844" lon="5.72941">
        <ele>666.5</ele>
        <time>2013-03-13T08:38:54Z</time>
      </trkpt>
      <trkpt lat="43.3085" lon="5.72934">
        <ele>671.2</ele>
        <time>2013-03-13T08:39:06Z</time>
      </trkpt>
      <trkpt lat="43.30851" lon="5.72933">
        <ele>670.9</ele>
        <time>2013-03-13T08:39:07Z</time>
      </trkpt>
      <trkpt lat="43.30859" lon="5.72928">
        <ele>676.7</ele>
        <time>2013-03-13T08:40:27Z</time>
      </trkpt>
      <trkpt lat="43.3085" lon="5.72925">
        <ele>675.9</ele>
        <time>2013-03-13T08:45:09Z</time>
      </trkpt>
      <trkpt lat="43.30832" lon="5.72925">
        <ele>671.2</ele>
        <time>2013-03-13T08:45:40Z</time>
      </trkpt>
      <trkpt lat="43.30824" lon="5.72926">
        <ele>671</ele>
        <time>2013-03-13T08:45:51Z</time>
      </trkpt>
      <trkpt lat="43.30815" lon="5.72927">
        <ele>671.5</ele>
        <time>2013-03-13T08:46:02Z</time>
      </trkpt>
      <trkpt lat="43.30807" lon="5.72925">
        <ele>669.5</ele>
        <time>2013-03-13T08:46:13Z</time>
      </trkpt>
      <trkpt lat="43.30806" lon="5.72925">
        <ele>669.7</ele>
        <time>2013-03-13T08:46:14Z</time>
      </trkpt>
      <trkpt lat="43.3079" lon="5.72923">
        <ele>671.4</ele>
        <time>2013-03-13T08:46:29Z</time>
      </trkpt>
      <trkpt lat="43.30781" lon="5.7292">
        <ele>672.5</ele>
        <time>2013-03-13T08:46:39Z</time>
      </trkpt>
      <trkpt lat="43.30773" lon="5.72915">
        <ele>674.5</ele>
        <time>2013-03-13T08:46:49Z</time>
      </trkpt>
      <trkpt lat="43.30766" lon="5.72908">
        <ele>678.5</ele>
        <time>2013-03-13T08:47:02Z</time>
      </trkpt>
      <trkpt lat="43.3076" lon="5.729">
        <ele>682.2</ele>
        <time>2013-03-13T08:47:12Z</time>
      </trkpt>
      <trkpt lat="43.30756" lon="5.72889">
        <ele>685.2</ele>
        <time>2013-03-13T08:47:22Z</time>
      </trkpt>
      <trkpt lat="43.30755" lon="5.72888">
        <ele>685.5</ele>
        <time>2013-03-13T08:47:23Z</time>
      </trkpt>
      <trkpt lat="43.30747" lon="5.7287">
        <ele>686.7</ele>
        <time>2013-03-13T08:47:38Z</time>
      </trkpt>
      <trkpt lat="43.30742" lon="5.72862">
        <ele>689.5</ele>
        <time>2013-03-13T08:47:47Z</time>
      </trkpt>
      <trkpt lat="43.30738" lon="5.72851">
        <ele>691.7</ele>
        <time>2013-03-13T08:47:56Z</time>
      </trkpt>
      <trkpt lat="43.30734" lon="5.72841">
        <ele>692.5</ele>
        <time>2013-03-13T08:48:05Z</time>
      </trkpt>
      <trkpt lat="43.30729" lon="5.72832">
        <ele>691.9</ele>
        <time>2013-03-13T08:48:14Z</time>
      </trkpt>
      <trkpt lat="43.30724" lon="5.72823">
        <ele>691</ele>
        <time>2013-03-13T08:48:22Z</time>
      </trkpt>
      <trkpt lat="43.30721" lon="5.72811">
        <ele>692.7</ele>
        <time>2013-03-13T08:48:32Z</time>
      </trkpt>
      <trkpt lat="43.30721" lon="5.7281">
        <ele>693.2</ele>
        <time>2013-03-13T08:48:33Z</time>
      </trkpt>
      <trkpt lat="43.30716" lon="5.72789">
        <ele>692.9</ele>
        <time>2013-03-13T08:48:51Z</time>
      </trkpt>
      <trkpt lat="43.30713" lon="5.72778">
        <ele>693.2</ele>
        <time>2013-03-13T08:49:00Z</time>
      </trkpt>
      <trkpt lat="43.30714" lon="5.72766">
        <ele>696.2</ele>
        <time>2013-03-13T08:49:12Z</time>
      </trkpt>
      <trkpt lat="43.30711" lon="5.72756">
        <ele>698.5</ele>
        <time>2013-03-13T08:49:20Z</time>
      </trkpt>
      <trkpt lat="43.30711" lon="5.72744">
        <ele>699.2</ele>
        <time>2013-03-13T08:49:31Z</time>
      </trkpt>
      <trkpt lat="43.3071" lon="5.72732">
        <ele>702.2</ele>
        <time>2013-03-13T08:49:42Z</time>
      </trkpt>
      <trkpt lat="43.3071" lon="5.72731">
        <ele>702.7</ele>
        <time>2013-03-13T08:49:43Z</time>
      </trkpt>
      <trkpt lat="43.30708" lon="5.7271">
        <ele>702.4</ele>
        <time>2013-03-13T08:50:02Z</time>
      </trkpt>
      <trkpt lat="43.30709" lon="5.72698">
        <ele>701.7</ele>
        <time>2013-03-13T08:50:12Z</time>
      </trkpt>
      <trkpt lat="43.30707" lon="5.72688">
        <ele>704.2</ele>
        <time>2013-03-13T08:50:19Z</time>
      </trkpt>
      <trkpt lat="43.30706" lon="5.72676">
        <ele>704.7</ele>
        <time>2013-03-13T08:50:28Z</time>
      </trkpt>
      <trkpt lat="43.30701" lon="5.72665">
        <ele>705.2</ele>
        <time>2013-03-13T08:50:37Z</time>
      </trkpt>
      <trkpt lat="43.30697" lon="5.72655">
        <ele>707</ele>
        <time>2013-03-13T08:50:45Z</time>
      </trkpt>
      <trkpt lat="43.30697" lon="5.72654">
        <ele>707.4</ele>
        <time>2013-03-13T08:50:46Z</time>
      </trkpt>
      <trkpt lat="43.30695" lon="5.72632">
        <ele>709.2</ele>
        <time>2013-03-13T08:51:02Z</time>
      </trkpt>
      <trkpt lat="43.30694" lon="5.72621">
        <ele>710.9</ele>
        <time>2013-03-13T08:51:10Z</time>
      </trkpt>
      <trkpt lat="43.30695" lon="5.72609">
        <ele>711.2</ele>
        <time>2013-03-13T08:51:19Z</time>
      </trkpt>
      <trkpt lat="43.30696" lon="5.72598">
        <ele>709.5</ele>
        <time>2013-03-13T08:51:28Z</time>
      </trkpt>
      <trkpt lat="43.30696" lon="5.72586">
        <ele>711</ele>
        <time>2013-03-13T08:51:36Z</time>
      </trkpt>
      <trkpt lat="43.30699" lon="5.72576">
        <ele>708.4</ele>
        <time>2013-03-13T08:51:47Z</time>
      </trkpt>
      <trkpt lat="43.307" lon="5.72575">
        <ele>708</ele>
        <time>2013-03-13T08:51:48Z</time>
      </trkpt>
      <trkpt lat="43.30704" lon="5.72554">
        <ele>709.2</ele>
        <time>2013-03-13T08:52:06Z</time>
      </trkpt>
      <trkpt lat="43.30706" lon="5.72542">
        <ele>710.5</ele>
        <time>2013-03-13T08:52:15Z</time>
      </trkpt>
      <trkpt lat="43.3071" lon="5.72532">
        <ele>712</ele>
        <time>2013-03-13T08:52:31Z</time>
      </trkpt>
      <trkpt lat="43.3071" lon="5.7252">
        <ele>712.7</ele>
        <time>2013-03-13T08:52:40Z</time>
      </trkpt>
      <trkpt lat="43.30712" lon="5.72508">
        <ele>710.7</ele>
        <time>2013-03-13T08:52:49Z</time>
      </trkpt>
      <trkpt lat="43.30713" lon="5.72507">
        <ele>710.7</ele>
        <time>2013-03-13T08:52:50Z</time>
      </trkpt>
      <trkpt lat="43.3072" lon="5.72488">
        <ele>713.5</ele>
        <time>2013-03-13T08:53:05Z</time>
      </trkpt>
      <trkpt lat="43.3072" lon="5.72476">
        <ele>713.2</ele>
        <time>2013-03-13T08:53:13Z</time>
      </trkpt>
      <trkpt lat="43.30721" lon="5.72464">
        <ele>713</ele>
        <time>2013-03-13T08:53:22Z</time>
      </trkpt>
      <trkpt lat="43.30723" lon="5.72452">
        <ele>715</ele>
        <time>2013-03-13T08:53:30Z</time>
      </trkpt>
      <trkpt lat="43.30723" lon="5.72441">
        <ele>716.5</ele>
        <time>2013-03-13T08:53:37Z</time>
      </trkpt>
      <trkpt lat="43.30726" lon="5.7243">
        <ele>718</ele>
        <time>2013-03-13T08:53:45Z</time>
      </trkpt>
      <trkpt lat="43.30727" lon="5.72419">
        <ele>719.2</ele>
        <time>2013-03-13T08:53:52Z</time>
      </trkpt>
      <trkpt lat="43.30727" lon="5.72417">
        <ele>719.5</ele>
        <time>2013-03-13T08:53:53Z</time>
      </trkpt>
      <trkpt lat="43.30729" lon="5.72396">
        <ele>717.2</ele>
        <time>2013-03-13T08:54:10Z</time>
      </trkpt>
      <trkpt lat="43.3073" lon="5.72383">
        <ele>718</ele>
        <time>2013-03-13T08:54:18Z</time>
      </trkpt>
      <trkpt lat="43.30734" lon="5.72372">
        <ele>720.4</ele>
        <time>2013-03-13T08:54:25Z</time>
      </trkpt>
      <trkpt lat="43.30738" lon="5.72362">
        <ele>720.5</ele>
        <time>2013-03-13T08:54:33Z</time>
      </trkpt>
      <trkpt lat="43.30743" lon="5.72352">
        <ele>722.7</ele>
        <time>2013-03-13T08:54:41Z</time>
      </trkpt>
      <trkpt lat="43.30749" lon="5.72343">
        <ele>720</ele>
        <time>2013-03-13T08:54:50Z</time>
      </trkpt>
      <trkpt lat="43.30755" lon="5.72336">
        <ele>721.2</ele>
        <time>2013-03-13T08:54:58Z</time>
      </trkpt>
      <trkpt lat="43.30756" lon="5.72335">
        <ele>721.4</ele>
        <time>2013-03-13T08:54:59Z</time>
      </trkpt>
      <trkpt lat="43.30768" lon="5.72321">
        <ele>718.7</ele>
        <time>2013-03-13T08:55:16Z</time>
      </trkpt>
      <trkpt lat="43.30773" lon="5.72313">
        <ele>720.4</ele>
        <time>2013-03-13T08:55:24Z</time>
      </trkpt>
      <trkpt lat="43.30781" lon="5.72308">
        <ele>720.7</ele>
        <time>2013-03-13T08:55:33Z</time>
      </trkpt>
      <trkpt lat="43.30787" lon="5.72301">
        <ele>721.4</ele>
        <time>2013-03-13T08:55:40Z</time>
      </trkpt>
      <trkpt lat="43.30794" lon="5.72294">
        <ele>723</ele>
        <time>2013-03-13T08:55:48Z</time>
      </trkpt>
      <trkpt lat="43.30803" lon="5.7229">
        <ele>725.7</ele>
        <time>2013-03-13T08:55:56Z</time>
      </trkpt>
      <trkpt lat="43.30811" lon="5.72286">
        <ele>723.9</ele>
        <time>2013-03-13T08:56:08Z</time>
      </trkpt>
      <trkpt lat="43.30812" lon="5.72286">
        <ele>724</ele>
        <time>2013-03-13T08:56:09Z</time>
      </trkpt>
      <trkpt lat="43.30827" lon="5.72282">
        <ele>728.2</ele>
        <time>2013-03-13T08:56:25Z</time>
      </trkpt>
      <trkpt lat="43.30835" lon="5.72282">
        <ele>725.2</ele>
        <time>2013-03-13T08:56:33Z</time>
      </trkpt>
      <trkpt lat="43.30843" lon="5.72281">
        <ele>723.5</ele>
        <time>2013-03-13T08:56:42Z</time>
      </trkpt>
      <trkpt lat="43.30852" lon="5.7228">
        <ele>723.9</ele>
        <time>2013-03-13T08:56:49Z</time>
      </trkpt>
      <trkpt lat="43.3086" lon="5.7228">
        <ele>723.7</ele>
        <time>2013-03-13T08:56:58Z</time>
      </trkpt>
      <trkpt lat="43.30868" lon="5.72279">
        <ele>728</ele>
        <time>2013-03-13T08:57:05Z</time>
      </trkpt>
      <trkpt lat="43.30877" lon="5.72279">
        <ele>729.9</ele>
        <time>2013-03-13T08:57:15Z</time>
      </trkpt>
      <trkpt lat="43.30878" lon="5.72279">
        <ele>730</ele>
        <time>2013-03-13T08:57:16Z</time>
      </trkpt>
      <trkpt lat="43.30894" lon="5.7228">
        <ele>728</ele>
        <time>2013-03-13T08:57:33Z</time>
      </trkpt>
      <trkpt lat="43.30902" lon="5.72282">
        <ele>726.7</ele>
        <time>2013-03-13T08:57:41Z</time>
      </trkpt>
      <trkpt lat="43.30911" lon="5.72283">
        <ele>726.2</ele>
        <time>2013-03-13T08:57:50Z</time>
      </trkpt>
      <trkpt lat="43.3092" lon="5.72285">
        <ele>724.2</ele>
        <time>2013-03-13T08:57:58Z</time>
      </trkpt>
      <trkpt lat="43.30928" lon="5.72286">
        <ele>722.2</ele>
        <time>2013-03-13T08:58:06Z</time>
      </trkpt>
      <trkpt lat="43.30935" lon="5.72288">
        <ele>723</ele>
        <time>2013-03-13T08:58:12Z</time>
      </trkpt>
      <trkpt lat="43.30943" lon="5.7229">
        <ele>725</ele>
        <time>2013-03-13T08:58:19Z</time>
      </trkpt>
      <trkpt lat="43.30944" lon="5.7229">
        <ele>725.5</ele>
        <time>2013-03-13T08:58:20Z</time>
      </trkpt>
      <trkpt lat="43.30959" lon="5.723">
        <ele>725.7</ele>
        <time>2013-03-13T08:58:38Z</time>
      </trkpt>
      <trkpt lat="43.30966" lon="5.72303">
        <ele>730.2</ele>
        <time>2013-03-13T08:58:43Z</time>
      </trkpt>
      <trkpt lat="43.30974" lon="5.72305">
        <ele>732.2</ele>
        <time>2013-03-13T08:58:49Z</time>
      </trkpt>
      <trkpt lat="43.30982" lon="5.7231">
        <ele>734</ele>
        <time>2013-03-13T08:58:56Z</time>
      </trkpt>
      <trkpt lat="43.30991" lon="5.72312">
        <ele>731</ele>
        <time>2013-03-13T08:59:06Z</time>
      </trkpt>
      <trkpt lat="43.30999" lon="5.72315">
        <ele>732</ele>
        <time>2013-03-13T08:59:19Z</time>
      </trkpt>
      <trkpt lat="43.31008" lon="5.72315">
        <ele>736.5</ele>
        <time>2013-03-13T09:00:28Z</time>
      </trkpt>
      <trkpt lat="43.31008" lon="5.72315">
        <ele>736.2</ele>
        <time>2013-03-13T09:00:29Z</time>
      </trkpt>
      <trkpt lat="43.31018" lon="5.72335">
        <ele>739.5</ele>
        <time>2013-03-13T09:01:08Z</time>
      </trkpt>
      <trkpt lat="43.31024" lon="5.72344">
        <ele>742.2</ele>
        <time>2013-03-13T09:01:22Z</time>
      </trkpt>
      <trkpt lat="43.31029" lon="5.72354">
        <ele>744</ele>
        <time>2013-03-13T09:01:37Z</time>
      </trkpt>
      <trkpt lat="43.31029" lon="5.72354">
        <ele>744</ele>
        <time>2013-03-13T09:01:38Z</time>
      </trkpt>
      <trkpt lat="43.31042" lon="5.72369">
        <ele>748.7</ele>
        <time>2013-03-13T09:02:14Z</time>
      </trkpt>
      <trkpt lat="43.31049" lon="5.72378">
        <ele>752</ele>
        <time>2013-03-13T09:02:30Z</time>
      </trkpt>
      <trkpt lat="43.31054" lon="5.72387">
        <ele>754.4</ele>
        <time>2013-03-13T09:02:46Z</time>
      </trkpt>
      <trkpt lat="43.31055" lon="5.72387">
        <ele>754.2</ele>
        <time>2013-03-13T09:02:47Z</time>
      </trkpt>
      <trkpt lat="43.31064" lon="5.72406">
        <ele>754.9</ele>
        <time>2013-03-13T09:03:15Z</time>
      </trkpt>
      <trkpt lat="43.31067" lon="5.72417">
        <ele>758.5</ele>
        <time>2013-03-13T09:13:51Z</time>
      </trkpt>
      <trkpt lat="43.31068" lon="5.72418">
        <ele>758.2</ele>
        <time>2013-03-13T09:13:52Z</time>
      </trkpt>
      <trkpt lat="43.31084" lon="5.72426">
        <ele>757.2</ele>
        <time>2013-03-13T09:14:19Z</time>
      </trkpt>
      <trkpt lat="43.31092" lon="5.72431">
        <ele>759.5</ele>
        <time>2013-03-13T09:14:31Z</time>
      </trkpt>
      <trkpt lat="43.311" lon="5.72429">
        <ele>757.5</ele>
        <time>2013-03-13T09:14:41Z</time>
      </trkpt>
      <trkpt lat="43.31109" lon="5.7243">
        <ele>757.4</ele>
        <time>2013-03-13T09:14:53Z</time>
      </trkpt>
      <trkpt lat="43.3111" lon="5.72429">
        <ele>757.7</ele>
        <time>2013-03-13T09:14:54Z</time>
      </trkpt>
      <trkpt lat="43.31125" lon="5.72426">
        <ele>762.5</ele>
        <time>2013-03-13T09:15:21Z</time>
      </trkpt>
      <trkpt lat="43.31133" lon="5.72426">
        <ele>763.2</ele>
        <time>2013-03-13T09:15:30Z</time>
      </trkpt>
      <trkpt lat="43.31142" lon="5.72425">
        <ele>764.4</ele>
        <time>2013-03-13T09:15:38Z</time>
      </trkpt>
      <trkpt lat="43.3115" lon="5.72422">
        <ele>766</ele>
        <time>2013-03-13T09:15:48Z</time>
      </trkpt>
      <trkpt lat="43.31158" lon="5.72423">
        <ele>766.4</ele>
        <time>2013-03-13T09:16:01Z</time>
      </trkpt>
      <trkpt lat="43.3116" lon="5.72423">
        <ele>766</ele>
        <time>2013-03-13T09:16:02Z</time>
      </trkpt>
      <trkpt lat="43.31176" lon="5.72425">
        <ele>769</ele>
        <time>2013-03-13T09:16:28Z</time>
      </trkpt>
      <trkpt lat="43.31184" lon="5.7243">
        <ele>772.5</ele>
        <time>2013-03-13T09:16:40Z</time>
      </trkpt>
      <trkpt lat="43.31192" lon="5.72431">
        <ele>770.7</ele>
        <time>2013-03-13T09:16:51Z</time>
      </trkpt>
      <trkpt lat="43.31201" lon="5.72431">
        <ele>769.9</ele>
        <time>2013-03-13T09:17:02Z</time>
      </trkpt>
      <trkpt lat="43.31201" lon="5.72431">
        <ele>769.7</ele>
        <time>2013-03-13T09:17:03Z</time>
      </trkpt>
      <trkpt lat="43.31218" lon="5.72433">
        <ele>772.2</ele>
        <time>2013-03-13T09:17:29Z</time>
      </trkpt>
      <trkpt lat="43.31226" lon="5.7243">
        <ele>773.7</ele>
        <time>2013-03-13T09:17:44Z</time>
      </trkpt>
      <trkpt lat="43.31234" lon="5.7243">
        <ele>776.4</ele>
        <time>2013-03-13T09:17:57Z</time>
      </trkpt>
      <trkpt lat="43.31243" lon="5.72427">
        <ele>776.5</ele>
        <time>2013-03-13T09:18:15Z</time>
      </trkpt>
      <trkpt lat="43.31244" lon="5.72427">
        <ele>776.7</ele>
        <time>2013-03-13T09:18:16Z</time>
      </trkpt>
      <trkpt lat="43.31259" lon="5.72418">
        <ele>780.9</ele>
        <time>2013-03-13T09:18:45Z</time>
      </trkpt>
      <trkpt lat="43.31267" lon="5.72414">
        <ele>784.7</ele>
        <time>2013-03-13T09:19:00Z</time>
      </trkpt>
      <trkpt lat="43.31275" lon="5.72409">
        <ele>785.2</ele>
        <time>2013-03-13T09:19:18Z</time>
      </trkpt>
      <trkpt lat="43.31276" lon="5.72409">
        <ele>785.5</ele>
        <time>2013-03-13T09:19:19Z</time>
      </trkpt>
      <trkpt lat="43.31292" lon="5.72403">
        <ele>790</ele>
        <time>2013-03-13T09:19:52Z</time>
      </trkpt>
      <trkpt lat="43.313" lon="5.72405">
        <ele>794.9</ele>
        <time>2013-03-13T09:20:07Z</time>
      </trkpt>
      <trkpt lat="43.31309" lon="5.72405">
        <ele>794.7</ele>
        <time>2013-03-13T09:20:29Z</time>
      </trkpt>
      <trkpt lat="43.3131" lon="5.72405">
        <ele>795.4</ele>
        <time>2013-03-13T09:20:30Z</time>
      </trkpt>
      <trkpt lat="43.31325" lon="5.7241">
        <ele>800</ele>
        <time>2013-03-13T09:21:00Z</time>
      </trkpt>
      <trkpt lat="43.31332" lon="5.72418">
        <ele>802.5</ele>
        <time>2013-03-13T09:21:24Z</time>
      </trkpt>
      <trkpt lat="43.3134" lon="5.72418">
        <ele>804.2</ele>
        <time>2013-03-13T09:21:44Z</time>
      </trkpt>
      <trkpt lat="43.31341" lon="5.72418">
        <ele>804.7</ele>
        <time>2013-03-13T09:21:45Z</time>
      </trkpt>
      <trkpt lat="43.31358" lon="5.72414">
        <ele>815</ele>
        <time>2013-03-13T09:23:18Z</time>
      </trkpt>
      <trkpt lat="43.31358" lon="5.72414">
        <ele>815.2</ele>
        <time>2013-03-13T09:23:19Z</time>
      </trkpt>
      <trkpt lat="43.31375" lon="5.72419">
        <ele>820.7</ele>
        <time>2013-03-13T09:24:05Z</time>
      </trkpt>
      <trkpt lat="43.31382" lon="5.72412">
        <ele>821.7</ele>
        <time>2013-03-13T09:24:29Z</time>
      </trkpt>
      <trkpt lat="43.31383" lon="5.72411">
        <ele>821.5</ele>
        <time>2013-03-13T09:24:30Z</time>
      </trkpt>
      <trkpt lat="43.31399" lon="5.72405">
        <ele>828.9</ele>
        <time>2013-03-13T09:25:15Z</time>
      </trkpt>
      <trkpt lat="43.31407" lon="5.724">
        <ele>831.4</ele>
        <time>2013-03-13T09:25:34Z</time>
      </trkpt>
      <trkpt lat="43.31408" lon="5.724">
        <ele>831.4</ele>
        <time>2013-03-13T09:25:35Z</time>
      </trkpt>
      <trkpt lat="43.31424" lon="5.72404">
        <ele>835.5</ele>
        <time>2013-03-13T09:26:10Z</time>
      </trkpt>
      <trkpt lat="43.31431" lon="5.72412">
        <ele>837.7</ele>
        <time>2013-03-13T09:26:26Z</time>
      </trkpt>
      <trkpt lat="43.31435" lon="5.72423">
        <ele>845.2</ele>
        <time>2013-03-13T09:26:45Z</time>
      </trkpt>
      <trkpt lat="43.31435" lon="5.72423">
        <ele>845.5</ele>
        <time>2013-03-13T09:26:46Z</time>
      </trkpt>
      <trkpt lat="43.31444" lon="5.72443">
        <ele>852.5</ele>
        <time>2013-03-13T09:27:37Z</time>
      </trkpt>
      <trkpt lat="43.31451" lon="5.7245">
        <ele>857</ele>
        <time>2013-03-13T09:28:02Z</time>
      </trkpt>
      <trkpt lat="43.31451" lon="5.72451">
        <ele>857.2</ele>
        <time>2013-03-13T09:28:03Z</time>
      </trkpt>
      <trkpt lat="43.31457" lon="5.72473">
        <ele>861.5</ele>
        <time>2013-03-13T09:29:01Z</time>
      </trkpt>
      <trkpt lat="43.3146" lon="5.72484">
        <ele>865.4</ele>
        <time>2013-03-13T09:29:24Z</time>
      </trkpt>
      <trkpt lat="43.3146" lon="5.72485">
        <ele>865.9</ele>
        <time>2013-03-13T09:29:25Z</time>
      </trkpt>
      <trkpt lat="43.3147" lon="5.72502">
        <ele>874.2</ele>
        <time>2013-03-13T09:30:21Z</time>
      </trkpt>
      <trkpt lat="43.31479" lon="5.72506">
        <ele>876.5</ele>
        <time>2013-03-13T09:30:38Z</time>
      </trkpt>
      <trkpt lat="43.31479" lon="5.72506">
        <ele>876.9</ele>
        <time>2013-03-13T09:30:39Z</time>
      </trkpt>
      <trkpt lat="43.31484" lon="5.72521">
        <ele>882</ele>
        <time>2013-03-13T09:31:28Z</time>
      </trkpt>
      <trkpt lat="43.31482" lon="5.72533">
        <ele>886</ele>
        <time>2013-03-13T09:31:50Z</time>
      </trkpt>
      <trkpt lat="43.31482" lon="5.72534">
        <ele>886.2</ele>
        <time>2013-03-13T09:31:51Z</time>
      </trkpt>
      <trkpt lat="43.31485" lon="5.72557">
        <ele>898</ele>
        <time>2013-03-13T09:33:01Z</time>
      </trkpt>
      <trkpt lat="43.31485" lon="5.72557">
        <ele>898.4</ele>
        <time>2013-03-13T09:33:02Z</time>
      </trkpt>
      <trkpt lat="43.31496" lon="5.72575">
        <ele>909.4</ele>
        <time>2013-03-13T09:34:12Z</time>
      </trkpt>
      <trkpt lat="43.31497" lon="5.72575">
        <ele>909.5</ele>
        <time>2013-03-13T09:34:13Z</time>
      </trkpt>
      <trkpt lat="43.31508" lon="5.72592">
        <ele>913.7</ele>
        <time>2013-03-13T09:34:51Z</time>
      </trkpt>
      <trkpt lat="43.31514" lon="5.72602">
        <ele>915.4</ele>
        <time>2013-03-13T09:35:06Z</time>
      </trkpt>
      <trkpt lat="43.31519" lon="5.72611">
        <ele>916.7</ele>
        <time>2013-03-13T09:35:20Z</time>
      </trkpt>
      <trkpt lat="43.31519" lon="5.72611">
        <ele>916.9</ele>
        <time>2013-03-13T09:35:21Z</time>
      </trkpt>
      <trkpt lat="43.31533" lon="5.72614">
        <ele>922.4</ele>
        <time>2013-03-13T09:36:06Z</time>
      </trkpt>
      <trkpt lat="43.31538" lon="5.72603">
        <ele>925</ele>
        <time>2013-03-13T09:36:28Z</time>
      </trkpt>
      <trkpt lat="43.31538" lon="5.72603">
        <ele>925.2</ele>
        <time>2013-03-13T09:36:29Z</time>
      </trkpt>
      <trkpt lat="43.31547" lon="5.72599">
        <ele>933.2</ele>
        <time>2013-03-13T09:37:30Z</time>
      </trkpt>
      <trkpt lat="43.31561" lon="5.72586">
        <ele>939.5</ele>
        <time>2013-03-13T09:38:31Z</time>
      </trkpt>
      <trkpt lat="43.31561" lon="5.72586">
        <ele>939.5</ele>
        <time>2013-03-13T09:38:32Z</time>
      </trkpt>
      <trkpt lat="43.31578" lon="5.72582">
        <ele>946.5</ele>
        <time>2013-03-13T09:39:25Z</time>
      </trkpt>
      <trkpt lat="43.31586" lon="5.72578">
        <ele>948.2</ele>
        <time>2013-03-13T09:39:49Z</time>
      </trkpt>
      <trkpt lat="43.31586" lon="5.72578">
        <ele>948.2</ele>
        <time>2013-03-13T09:39:50Z</time>
      </trkpt>
      <trkpt lat="43.31601" lon="5.7259">
        <ele>957</ele>
        <time>2013-03-13T09:40:36Z</time>
      </trkpt>
      <trkpt lat="43.31609" lon="5.72588">
        <ele>959.5</ele>
        <time>2013-03-13T09:40:56Z</time>
      </trkpt>
      <trkpt lat="43.3161" lon="5.72588">
        <ele>959.7</ele>
        <time>2013-03-13T09:40:57Z</time>
      </trkpt>
      <trkpt lat="43.31623" lon="5.72574">
        <ele>964.2</ele>
        <time>2013-03-13T09:41:38Z</time>
      </trkpt>
      <trkpt lat="43.31631" lon="5.72578">
        <ele>968.7</ele>
        <time>2013-03-13T09:42:01Z</time>
      </trkpt>
      <trkpt lat="43.31632" lon="5.72578">
        <ele>968.9</ele>
        <time>2013-03-13T09:42:02Z</time>
      </trkpt>
      <trkpt lat="43.31646" lon="5.7257">
        <ele>974.9</ele>
        <time>2013-03-13T09:42:45Z</time>
      </trkpt>
      <trkpt lat="43.31653" lon="5.72577">
        <ele>977.5</ele>
        <time>2013-03-13T09:43:04Z</time>
      </trkpt>
      <trkpt lat="43.31654" lon="5.72578">
        <ele>977.7</ele>
        <time>2013-03-13T09:43:05Z</time>
      </trkpt>
      <trkpt lat="43.31666" lon="5.72594">
        <ele>983.5</ele>
        <time>2013-03-13T09:43:38Z</time>
      </trkpt>
      <trkpt lat="43.31671" lon="5.72603">
        <ele>990.7</ele>
        <time>2013-03-13T09:51:51Z</time>
      </trkpt>
      <trkpt lat="43.31672" lon="5.72604">
        <ele>990.9</ele>
        <time>2013-03-13T09:51:52Z</time>
      </trkpt>
      <trkpt lat="43.3168" lon="5.72622">
        <ele>992.2</ele>
        <time>2013-03-13T09:52:13Z</time>
      </trkpt>
      <trkpt lat="43.31685" lon="5.72632">
        <ele>993.4</ele>
        <time>2013-03-13T09:52:25Z</time>
      </trkpt>
      <trkpt lat="43.31688" lon="5.72643">
        <ele>993.4</ele>
        <time>2013-03-13T09:52:34Z</time>
      </trkpt>
      <trkpt lat="43.31691" lon="5.72654">
        <ele>993.2</ele>
        <time>2013-03-13T09:52:43Z</time>
      </trkpt>
      <trkpt lat="43.31694" lon="5.72666">
        <ele>992.9</ele>
        <time>2013-03-13T09:52:53Z</time>
      </trkpt>
      <trkpt lat="43.31694" lon="5.72667">
        <ele>992.7</ele>
        <time>2013-03-13T09:52:54Z</time>
      </trkpt>
      <trkpt lat="43.31699" lon="5.72688">
        <ele>992.9</ele>
        <time>2013-03-13T09:53:10Z</time>
      </trkpt>
      <trkpt lat="43.31702" lon="5.727">
        <ele>992.7</ele>
        <time>2013-03-13T09:53:19Z</time>
      </trkpt>
      <trkpt lat="43.31705" lon="5.72711">
        <ele>992.7</ele>
        <time>2013-03-13T09:53:28Z</time>
      </trkpt>
      <trkpt lat="43.31706" lon="5.72723">
        <ele>991.7</ele>
        <time>2013-03-13T09:53:37Z</time>
      </trkpt>
      <trkpt lat="43.31708" lon="5.72734">
        <ele>990.2</ele>
        <time>2013-03-13T09:53:45Z</time>
      </trkpt>
      <trkpt lat="43.3171" lon="5.72745">
        <ele>989.5</ele>
        <time>2013-03-13T09:53:53Z</time>
      </trkpt>
      <trkpt lat="43.31712" lon="5.72756">
        <ele>989.2</ele>
        <time>2013-03-13T09:54:01Z</time>
      </trkpt>
      <trkpt lat="43.31713" lon="5.72758">
        <ele>989</ele>
        <time>2013-03-13T09:54:02Z</time>
      </trkpt>
      <trkpt lat="43.31719" lon="5.72777">
        <ele>991.5</ele>
        <time>2013-03-13T09:54:20Z</time>
      </trkpt>
      <trkpt lat="43.31723" lon="5.72787">
        <ele>992.7</ele>
        <time>2013-03-13T09:54:29Z</time>
      </trkpt>
      <trkpt lat="43.31726" lon="5.72798">
        <ele>992.4</ele>
        <time>2013-03-13T09:54:38Z</time>
      </trkpt>
      <trkpt lat="43.31729" lon="5.72809">
        <ele>992.2</ele>
        <time>2013-03-13T09:54:47Z</time>
      </trkpt>
      <trkpt lat="43.31731" lon="5.7282">
        <ele>991.7</ele>
        <time>2013-03-13T09:54:57Z</time>
      </trkpt>
      <trkpt lat="43.31734" lon="5.72832">
        <ele>990.7</ele>
        <time>2013-03-13T09:55:09Z</time>
      </trkpt>
      <trkpt lat="43.31735" lon="5.72833">
        <ele>990.7</ele>
        <time>2013-03-13T09:55:10Z</time>
      </trkpt>
      <trkpt lat="43.31746" lon="5.7285">
        <ele>993.5</ele>
        <time>2013-03-13T09:55:41Z</time>
      </trkpt>
      <trkpt lat="43.31753" lon="5.72856">
        <ele>996.4</ele>
        <time>2013-03-13T09:56:05Z</time>
      </trkpt>
      <trkpt lat="43.31761" lon="5.72861">
        <ele>997</ele>
        <time>2013-03-13T09:56:17Z</time>
      </trkpt>
      <trkpt lat="43.31762" lon="5.72861">
        <ele>997</ele>
        <time>2013-03-13T09:56:18Z</time>
      </trkpt>
      <trkpt lat="43.31772" lon="5.72879">
        <ele>994.7</ele>
        <time>2013-03-13T09:56:42Z</time>
      </trkpt>
      <trkpt lat="43.31776" lon="5.72889">
        <ele>994.4</ele>
        <time>2013-03-13T09:56:51Z</time>
      </trkpt>
      <trkpt lat="43.31781" lon="5.729">
        <ele>993.7</ele>
        <time>2013-03-13T09:57:03Z</time>
      </trkpt>
      <trkpt lat="43.31784" lon="5.7291">
        <ele>991.5</ele>
        <time>2013-03-13T09:57:13Z</time>
      </trkpt>
      <trkpt lat="43.31789" lon="5.7292">
        <ele>989.5</ele>
        <time>2013-03-13T09:57:22Z</time>
      </trkpt>
      <trkpt lat="43.31789" lon="5.72921">
        <ele>989.2</ele>
        <time>2013-03-13T09:57:23Z</time>
      </trkpt>
      <trkpt lat="43.31792" lon="5.72942">
        <ele>990.7</ele>
        <time>2013-03-13T09:57:57Z</time>
      </trkpt>
      <trkpt lat="43.31793" lon="5.72953">
        <ele>990.7</ele>
        <time>2013-03-13T09:58:05Z</time>
      </trkpt>
      <trkpt lat="43.31795" lon="5.72964">
        <ele>990.2</ele>
        <time>2013-03-13T09:58:13Z</time>
      </trkpt>
      <trkpt lat="43.31797" lon="5.72975">
        <ele>989.7</ele>
        <time>2013-03-13T09:58:21Z</time>
      </trkpt>
      <trkpt lat="43.31799" lon="5.72987">
        <ele>990.2</ele>
        <time>2013-03-13T09:58:30Z</time>
      </trkpt>
      <trkpt lat="43.31799" lon="5.72988">
        <ele>990.2</ele>
        <time>2013-03-13T09:58:31Z</time>
      </trkpt>
      <trkpt lat="43.31804" lon="5.73009">
        <ele>988.2</ele>
        <time>2013-03-13T09:58:47Z</time>
      </trkpt>
      <trkpt lat="43.31807" lon="5.7302">
        <ele>987.9</ele>
        <time>2013-03-13T09:58:55Z</time>
      </trkpt>
      <trkpt lat="43.31809" lon="5.73032">
        <ele>987.4</ele>
        <time>2013-03-13T09:59:03Z</time>
      </trkpt>
      <trkpt lat="43.31812" lon="5.73043">
        <ele>986</ele>
        <time>2013-03-13T09:59:12Z</time>
      </trkpt>
      <trkpt lat="43.31812" lon="5.73055">
        <ele>985.2</ele>
        <time>2013-03-13T09:59:21Z</time>
      </trkpt>
      <trkpt lat="43.31815" lon="5.73066">
        <ele>984.7</ele>
        <time>2013-03-13T09:59:31Z</time>
      </trkpt>
      <trkpt lat="43.31815" lon="5.73067">
        <ele>984.4</ele>
        <time>2013-03-13T09:59:32Z</time>
      </trkpt>
      <trkpt lat="43.3182" lon="5.73088">
        <ele>982.2</ele>
        <time>2013-03-13T09:59:52Z</time>
      </trkpt>
      <trkpt lat="43.3182" lon="5.731">
        <ele>983.5</ele>
        <time>2013-03-13T10:00:01Z</time>
      </trkpt>
      <trkpt lat="43.31824" lon="5.73111">
        <ele>985.7</ele>
        <time>2013-03-13T10:00:11Z</time>
      </trkpt>
      <trkpt lat="43.31827" lon="5.73121">
        <ele>985</ele>
        <time>2013-03-13T10:00:22Z</time>
      </trkpt>
      <trkpt lat="43.31829" lon="5.73133">
        <ele>984.7</ele>
        <time>2013-03-13T10:00:33Z</time>
      </trkpt>
      <trkpt lat="43.3183" lon="5.73134">
        <ele>984.7</ele>
        <time>2013-03-13T10:00:34Z</time>
      </trkpt>
      <trkpt lat="43.31833" lon="5.73157">
        <ele>985.2</ele>
        <time>2013-03-13T10:00:58Z</time>
      </trkpt>
      <trkpt lat="43.31837" lon="5.73167">
        <ele>984.7</ele>
        <time>2013-03-13T10:01:10Z</time>
      </trkpt>
      <trkpt lat="43.3184" lon="5.73177">
        <ele>985.5</ele>
        <time>2013-03-13T10:01:19Z</time>
      </trkpt>
      <trkpt lat="43.31843" lon="5.73188">
        <ele>984.7</ele>
        <time>2013-03-13T10:01:29Z</time>
      </trkpt>
      <trkpt lat="43.31846" lon="5.73199">
        <ele>982.9</ele>
        <time>2013-03-13T10:01:38Z</time>
      </trkpt>
      <trkpt lat="43.31846" lon="5.732">
        <ele>982.7</ele>
        <time>2013-03-13T10:01:39Z</time>
      </trkpt>
      <trkpt lat="43.3185" lon="5.73222">
        <ele>981.2</ele>
        <time>2013-03-13T10:01:58Z</time>
      </trkpt>
      <trkpt lat="43.31852" lon="5.73233">
        <ele>981</ele>
        <time>2013-03-13T10:02:06Z</time>
      </trkpt>
      <trkpt lat="43.31855" lon="5.73243">
        <ele>981</ele>
        <time>2013-03-13T10:02:14Z</time>
      </trkpt>
      <trkpt lat="43.31859" lon="5.73254">
        <ele>981.2</ele>
        <time>2013-03-13T10:02:22Z</time>
      </trkpt>
      <trkpt lat="43.31862" lon="5.73266">
        <ele>982.2</ele>
        <time>2013-03-13T10:02:31Z</time>
      </trkpt>
      <trkpt lat="43.31865" lon="5.73276">
        <ele>981.7</ele>
        <time>2013-03-13T10:02:42Z</time>
      </trkpt>
      <trkpt lat="43.31866" lon="5.73277">
        <ele>981.5</ele>
        <time>2013-03-13T10:02:43Z</time>
      </trkpt>
      <trkpt lat="43.31865" lon="5.733">
        <ele>982.9</ele>
        <time>2013-03-13T10:03:15Z</time>
      </trkpt>
      <trkpt lat="43.31857" lon="5.73306">
        <ele>985.2</ele>
        <time>2013-03-13T10:04:29Z</time>
      </trkpt>
      <trkpt lat="43.31857" lon="5.73307">
        <ele>985.4</ele>
        <time>2013-03-13T10:04:30Z</time>
      </trkpt>
      <trkpt lat="43.31866" lon="5.73324">
        <ele>980.7</ele>
        <time>2013-03-13T10:05:39Z</time>
      </trkpt>
      <trkpt lat="43.31866" lon="5.73324">
        <ele>981</ele>
        <time>2013-03-13T10:05:40Z</time>
      </trkpt>
      <trkpt lat="43.31877" lon="5.73341">
        <ele>982</ele>
        <time>2013-03-13T10:05:59Z</time>
      </trkpt>
      <trkpt lat="43.31881" lon="5.73351">
        <ele>983</ele>
        <time>2013-03-13T10:06:12Z</time>
      </trkpt>
      <trkpt lat="43.31886" lon="5.73361">
        <ele>980.7</ele>
        <time>2013-03-13T10:06:24Z</time>
      </trkpt>
      <trkpt lat="43.31889" lon="5.73372">
        <ele>979</ele>
        <time>2013-03-13T10:06:35Z</time>
      </trkpt>
      <trkpt lat="43.31891" lon="5.73384">
        <ele>977.2</ele>
        <time>2013-03-13T10:06:48Z</time>
      </trkpt>
      <trkpt lat="43.31891" lon="5.73384">
        <ele>977.2</ele>
        <time>2013-03-13T10:06:49Z</time>
      </trkpt>
      <trkpt lat="43.31897" lon="5.73392">
        <ele>978.7</ele>
        <time>2013-03-13T10:09:28Z</time>
      </trkpt>
      <trkpt lat="43.31899" lon="5.73414">
        <ele>976.2</ele>
        <time>2013-03-13T10:10:35Z</time>
      </trkpt>
      <trkpt lat="43.319" lon="5.73415">
        <ele>976.2</ele>
        <time>2013-03-13T10:10:36Z</time>
      </trkpt>
      <trkpt lat="43.31905" lon="5.73437">
        <ele>975.5</ele>
        <time>2013-03-13T10:11:03Z</time>
      </trkpt>
      <trkpt lat="43.31908" lon="5.73447">
        <ele>975</ele>
        <time>2013-03-13T10:11:12Z</time>
      </trkpt>
      <trkpt lat="43.31911" lon="5.73458">
        <ele>974.4</ele>
        <time>2013-03-13T10:11:23Z</time>
      </trkpt>
      <trkpt lat="43.31916" lon="5.73468">
        <ele>973.5</ele>
        <time>2013-03-13T10:11:39Z</time>
      </trkpt>
      <trkpt lat="43.31917" lon="5.7347">
        <ele>973.5</ele>
        <time>2013-03-13T10:11:40Z</time>
      </trkpt>
      <trkpt lat="43.31927" lon="5.73487">
        <ele>971.9</ele>
        <time>2013-03-13T10:12:00Z</time>
      </trkpt>
      <trkpt lat="43.31929" lon="5.73498">
        <ele>970.5</ele>
        <time>2013-03-13T10:12:11Z</time>
      </trkpt>
      <trkpt lat="43.31932" lon="5.73509">
        <ele>969.7</ele>
        <time>2013-03-13T10:12:19Z</time>
      </trkpt>
      <trkpt lat="43.31935" lon="5.7352">
        <ele>970</ele>
        <time>2013-03-13T10:12:28Z</time>
      </trkpt>
      <trkpt lat="43.31938" lon="5.7353">
        <ele>969.5</ele>
        <time>2013-03-13T10:12:37Z</time>
      </trkpt>
      <trkpt lat="43.3194" lon="5.73541">
        <ele>969.5</ele>
        <time>2013-03-13T10:12:45Z</time>
      </trkpt>
      <trkpt lat="43.3194" lon="5.73542">
        <ele>969.5</ele>
        <time>2013-03-13T10:12:46Z</time>
      </trkpt>
      <trkpt lat="43.31944" lon="5.73564">
        <ele>969.9</ele>
        <time>2013-03-13T10:13:03Z</time>
      </trkpt>
      <trkpt lat="43.31945" lon="5.73576">
        <ele>970.5</ele>
        <time>2013-03-13T10:13:13Z</time>
      </trkpt>
      <trkpt lat="43.31948" lon="5.73588">
        <ele>970.7</ele>
        <time>2013-03-13T10:13:23Z</time>
      </trkpt>
      <trkpt lat="43.31952" lon="5.73599">
        <ele>972.9</ele>
        <time>2013-03-13T10:13:36Z</time>
      </trkpt>
      <trkpt lat="43.31955" lon="5.7361">
        <ele>976</ele>
        <time>2013-03-13T10:13:51Z</time>
      </trkpt>
      <trkpt lat="43.31955" lon="5.73611">
        <ele>976.2</ele>
        <time>2013-03-13T10:13:52Z</time>
      </trkpt>
      <trkpt lat="43.31963" lon="5.7363">
        <ele>977.7</ele>
        <time>2013-03-13T10:14:12Z</time>
      </trkpt>
      <trkpt lat="43.31964" lon="5.73642">
        <ele>977.7</ele>
        <time>2013-03-13T10:14:25Z</time>
      </trkpt>
      <trkpt lat="43.31968" lon="5.73652">
        <ele>980.2</ele>
        <time>2013-03-13T10:15:04Z</time>
      </trkpt>
      <trkpt lat="43.31968" lon="5.73653">
        <ele>980.2</ele>
        <time>2013-03-13T10:15:05Z</time>
      </trkpt>
      <trkpt lat="43.31973" lon="5.73673">
        <ele>980</ele>
        <time>2013-03-13T10:15:22Z</time>
      </trkpt>
      <trkpt lat="43.31975" lon="5.73684">
        <ele>978.7</ele>
        <time>2013-03-13T10:15:30Z</time>
      </trkpt>
      <trkpt lat="43.31978" lon="5.73696">
        <ele>978</ele>
        <time>2013-03-13T10:15:39Z</time>
      </trkpt>
      <trkpt lat="43.31979" lon="5.73707">
        <ele>976.5</ele>
        <time>2013-03-13T10:15:47Z</time>
      </trkpt>
      <trkpt lat="43.31981" lon="5.73719">
        <ele>974.7</ele>
        <time>2013-03-13T10:15:54Z</time>
      </trkpt>
      <trkpt lat="43.31985" lon="5.73729">
        <ele>973.7</ele>
        <time>2013-03-13T10:16:02Z</time>
      </trkpt>
      <trkpt lat="43.31989" lon="5.7374">
        <ele>974</ele>
        <time>2013-03-13T10:16:12Z</time>
      </trkpt>
      <trkpt lat="43.31989" lon="5.73741">
        <ele>974</ele>
        <time>2013-03-13T10:16:13Z</time>
      </trkpt>
      <trkpt lat="43.31996" lon="5.73761">
        <ele>975.7</ele>
        <time>2013-03-13T10:16:31Z</time>
      </trkpt>
      <trkpt lat="43.32001" lon="5.73771">
        <ele>976</ele>
        <time>2013-03-13T10:16:41Z</time>
      </trkpt>
      <trkpt lat="43.32005" lon="5.73781">
        <ele>975.5</ele>
        <time>2013-03-13T10:16:52Z</time>
      </trkpt>
      <trkpt lat="43.32007" lon="5.73791">
        <ele>975</ele>
        <time>2013-03-13T10:17:02Z</time>
      </trkpt>
      <trkpt lat="43.32011" lon="5.73802">
        <ele>974.9</ele>
        <time>2013-03-13T10:17:11Z</time>
      </trkpt>
      <trkpt lat="43.32015" lon="5.73813">
        <ele>974.7</ele>
        <time>2013-03-13T10:17:22Z</time>
      </trkpt>
      <trkpt lat="43.32016" lon="5.73813">
        <ele>974.7</ele>
        <time>2013-03-13T10:17:23Z</time>
      </trkpt>
      <trkpt lat="43.3202" lon="5.73836">
        <ele>973.7</ele>
        <time>2013-03-13T10:17:43Z</time>
      </trkpt>
      <trkpt lat="43.32023" lon="5.73847">
        <ele>974</ele>
        <time>2013-03-13T10:17:54Z</time>
      </trkpt>
      <trkpt lat="43.32025" lon="5.73858">
        <ele>973.7</ele>
        <time>2013-03-13T10:18:02Z</time>
      </trkpt>
      <trkpt lat="43.32028" lon="5.73869">
        <ele>973.7</ele>
        <time>2013-03-13T10:18:10Z</time>
      </trkpt>
      <trkpt lat="43.32032" lon="5.73879">
        <ele>973.5</ele>
        <time>2013-03-13T10:18:20Z</time>
      </trkpt>
      <trkpt lat="43.32034" lon="5.73891">
        <ele>973.7</ele>
        <time>2013-03-13T10:18:33Z</time>
      </trkpt>
      <trkpt lat="43.32035" lon="5.73892">
        <ele>973.7</ele>
        <time>2013-03-13T10:18:34Z</time>
      </trkpt>
      <trkpt lat="43.32038" lon="5.73914">
        <ele>973.9</ele>
        <time>2013-03-13T10:18:58Z</time>
      </trkpt>
      <trkpt lat="43.32042" lon="5.73925">
        <ele>972.7</ele>
        <time>2013-03-13T10:19:11Z</time>
      </trkpt>
      <trkpt lat="43.32047" lon="5.73934">
        <ele>971.9</ele>
        <time>2013-03-13T10:19:22Z</time>
      </trkpt>
      <trkpt lat="43.32053" lon="5.73944">
        <ele>972.2</ele>
        <time>2013-03-13T10:19:31Z</time>
      </trkpt>
      <trkpt lat="43.32058" lon="5.73953">
        <ele>972.4</ele>
        <time>2013-03-13T10:19:39Z</time>
      </trkpt>
      <trkpt lat="43.32058" lon="5.73954">
        <ele>972.4</ele>
        <time>2013-03-13T10:19:40Z</time>
      </trkpt>
      <trkpt lat="43.32065" lon="5.73975">
        <ele>972.4</ele>
        <time>2013-03-13T10:19:58Z</time>
      </trkpt>
      <trkpt lat="43.32068" lon="5.73985">
        <ele>973.2</ele>
        <time>2013-03-13T10:20:07Z</time>
      </trkpt>
      <trkpt lat="43.32073" lon="5.73996">
        <ele>973.7</ele>
        <time>2013-03-13T10:20:18Z</time>
      </trkpt>
      <trkpt lat="43.32076" lon="5.74007">
        <ele>973.2</ele>
        <time>2013-03-13T10:20:28Z</time>
      </trkpt>
      <trkpt lat="43.32079" lon="5.74018">
        <ele>972.7</ele>
        <time>2013-03-13T10:20:38Z</time>
      </trkpt>
      <trkpt lat="43.32081" lon="5.74029">
        <ele>972.2</ele>
        <time>2013-03-13T10:20:47Z</time>
      </trkpt>
      <trkpt lat="43.32082" lon="5.7403">
        <ele>972.2</ele>
        <time>2013-03-13T10:20:48Z</time>
      </trkpt>
      <trkpt lat="43.32086" lon="5.74051">
        <ele>973.5</ele>
        <time>2013-03-13T10:21:04Z</time>
      </trkpt>
      <trkpt lat="43.32089" lon="5.74062">
        <ele>974.2</ele>
        <time>2013-03-13T10:21:13Z</time>
      </trkpt>
      <trkpt lat="43.32092" lon="5.74073">
        <ele>975</ele>
        <time>2013-03-13T10:21:22Z</time>
      </trkpt>
      <trkpt lat="43.32095" lon="5.74085">
        <ele>976.5</ele>
        <time>2013-03-13T10:21:33Z</time>
      </trkpt>
      <trkpt lat="43.32101" lon="5.74093">
        <ele>978</ele>
        <time>2013-03-13T10:21:47Z</time>
      </trkpt>
      <trkpt lat="43.32105" lon="5.74104">
        <ele>978.2</ele>
        <time>2013-03-13T10:22:00Z</time>
      </trkpt>
      <trkpt lat="43.32105" lon="5.74105">
        <ele>978.2</ele>
        <time>2013-03-13T10:22:01Z</time>
      </trkpt>
      <trkpt lat="43.32115" lon="5.74121">
        <ele>973.4</ele>
        <time>2013-03-13T10:22:28Z</time>
      </trkpt>
      <trkpt lat="43.32118" lon="5.74131">
        <ele>972.7</ele>
        <time>2013-03-13T10:22:36Z</time>
      </trkpt>
      <trkpt lat="43.32122" lon="5.74143">
        <ele>972.5</ele>
        <time>2013-03-13T10:22:45Z</time>
      </trkpt>
      <trkpt lat="43.32124" lon="5.74154">
        <ele>973.2</ele>
        <time>2013-03-13T10:22:55Z</time>
      </trkpt>
      <trkpt lat="43.32126" lon="5.74166">
        <ele>972.9</ele>
        <time>2013-03-13T10:23:05Z</time>
      </trkpt>
      <trkpt lat="43.32126" lon="5.74167">
        <ele>972.7</ele>
        <time>2013-03-13T10:23:06Z</time>
      </trkpt>
      <trkpt lat="43.32137" lon="5.74184">
        <ele>971.9</ele>
        <time>2013-03-13T10:23:26Z</time>
      </trkpt>
      <trkpt lat="43.32139" lon="5.74196">
        <ele>971.7</ele>
        <time>2013-03-13T10:23:35Z</time>
      </trkpt>
      <trkpt lat="43.32141" lon="5.74208">
        <ele>971.2</ele>
        <time>2013-03-13T10:23:44Z</time>
      </trkpt>
      <trkpt lat="43.32144" lon="5.74219">
        <ele>971.4</ele>
        <time>2013-03-13T10:23:53Z</time>
      </trkpt>
      <trkpt lat="43.3215" lon="5.74227">
        <ele>972.5</ele>
        <time>2013-03-13T10:24:02Z</time>
      </trkpt>
      <trkpt lat="43.32154" lon="5.74237">
        <ele>972.7</ele>
        <time>2013-03-13T10:24:12Z</time>
      </trkpt>
      <trkpt lat="43.32155" lon="5.74238">
        <ele>972.7</ele>
        <time>2013-03-13T10:24:13Z</time>
      </trkpt>
      <trkpt lat="43.32157" lon="5.74261">
        <ele>972.5</ele>
        <time>2013-03-13T10:24:35Z</time>
      </trkpt>
      <trkpt lat="43.32161" lon="5.74272">
        <ele>972.2</ele>
        <time>2013-03-13T10:24:43Z</time>
      </trkpt>
      <trkpt lat="43.32164" lon="5.74282">
        <ele>972.7</ele>
        <time>2013-03-13T10:24:53Z</time>
      </trkpt>
      <trkpt lat="43.32166" lon="5.74294">
        <ele>971.7</ele>
        <time>2013-03-13T10:25:02Z</time>
      </trkpt>
      <trkpt lat="43.32168" lon="5.74305">
        <ele>971</ele>
        <time>2013-03-13T10:25:12Z</time>
      </trkpt>
      <trkpt lat="43.3217" lon="5.74317">
        <ele>969.5</ele>
        <time>2013-03-13T10:25:21Z</time>
      </trkpt>
      <trkpt lat="43.32171" lon="5.74319">
        <ele>969.5</ele>
        <time>2013-03-13T10:25:22Z</time>
      </trkpt>
      <trkpt lat="43.32175" lon="5.74339">
        <ele>967.7</ele>
        <time>2013-03-13T10:25:38Z</time>
      </trkpt>
      <trkpt lat="43.32177" lon="5.74351">
        <ele>967.2</ele>
        <time>2013-03-13T10:25:46Z</time>
      </trkpt>
      <trkpt lat="43.32181" lon="5.74361">
        <ele>967.5</ele>
        <time>2013-03-13T10:25:56Z</time>
      </trkpt>
      <trkpt lat="43.32185" lon="5.74372">
        <ele>969.2</ele>
        <time>2013-03-13T10:26:06Z</time>
      </trkpt>
      <trkpt lat="43.32188" lon="5.74383">
        <ele>969.2</ele>
        <time>2013-03-13T10:26:17Z</time>
      </trkpt>
      <trkpt lat="43.32192" lon="5.74392">
        <ele>970</ele>
        <time>2013-03-13T10:26:27Z</time>
      </trkpt>
      <trkpt lat="43.32193" lon="5.74394">
        <ele>970.2</ele>
        <time>2013-03-13T10:26:28Z</time>
      </trkpt>
      <trkpt lat="43.32202" lon="5.74413">
        <ele>968.7</ele>
        <time>2013-03-13T10:26:49Z</time>
      </trkpt>
      <trkpt lat="43.32206" lon="5.74424">
        <ele>969.5</ele>
        <time>2013-03-13T10:27:05Z</time>
      </trkpt>
      <trkpt lat="43.3221" lon="5.74434">
        <ele>970.7</ele>
        <time>2013-03-13T10:27:25Z</time>
      </trkpt>
      <trkpt lat="43.32214" lon="5.74445">
        <ele>971</ele>
        <time>2013-03-13T10:27:46Z</time>
      </trkpt>
      <trkpt lat="43.32214" lon="5.74446">
        <ele>970.7</ele>
        <time>2013-03-13T10:27:47Z</time>
      </trkpt>
      <trkpt lat="43.32217" lon="5.74468">
        <ele>967.2</ele>
        <time>2013-03-13T10:28:11Z</time>
      </trkpt>
      <trkpt lat="43.32217" lon="5.7448">
        <ele>966.7</ele>
        <time>2013-03-13T10:28:23Z</time>
      </trkpt>
      <trkpt lat="43.32218" lon="5.74491">
        <ele>966.7</ele>
        <time>2013-03-13T10:28:35Z</time>
      </trkpt>
      <trkpt lat="43.32223" lon="5.74502">
        <ele>969</ele>
        <time>2013-03-13T10:28:45Z</time>
      </trkpt>
      <trkpt lat="43.32227" lon="5.74512">
        <ele>968.4</ele>
        <time>2013-03-13T10:28:55Z</time>
      </trkpt>
      <trkpt lat="43.32228" lon="5.74513">
        <ele>968.5</ele>
        <time>2013-03-13T10:28:56Z</time>
      </trkpt>
      <trkpt lat="43.32235" lon="5.74532">
        <ele>967.2</ele>
        <time>2013-03-13T10:29:13Z</time>
      </trkpt>
      <trkpt lat="43.32241" lon="5.74541">
        <ele>967.9</ele>
        <time>2013-03-13T10:29:22Z</time>
      </trkpt>
      <trkpt lat="43.32246" lon="5.74549">
        <ele>968.2</ele>
        <time>2013-03-13T10:29:31Z</time>
      </trkpt>
      <trkpt lat="43.32252" lon="5.74557">
        <ele>969.2</ele>
        <time>2013-03-13T10:29:39Z</time>
      </trkpt>
      <trkpt lat="43.32257" lon="5.74567">
        <ele>969.9</ele>
        <time>2013-03-13T10:29:49Z</time>
      </trkpt>
      <trkpt lat="43.32262" lon="5.74577">
        <ele>969.5</ele>
        <time>2013-03-13T10:29:59Z</time>
      </trkpt>
      <trkpt lat="43.32262" lon="5.74578">
        <ele>969.5</ele>
        <time>2013-03-13T10:30:00Z</time>
      </trkpt>
      <trkpt lat="43.32267" lon="5.746">
        <ele>968.4</ele>
        <time>2013-03-13T10:30:17Z</time>
      </trkpt>
      <trkpt lat="43.32268" lon="5.74612">
        <ele>968.4</ele>
        <time>2013-03-13T10:30:28Z</time>
      </trkpt>
      <trkpt lat="43.32272" lon="5.74623">
        <ele>967.7</ele>
        <time>2013-03-13T10:30:39Z</time>
      </trkpt>
      <trkpt lat="43.32275" lon="5.74634">
        <ele>970.2</ele>
        <time>2013-03-13T10:30:51Z</time>
      </trkpt>
      <trkpt lat="43.32277" lon="5.74646">
        <ele>970.2</ele>
        <time>2013-03-13T10:31:00Z</time>
      </trkpt>
      <trkpt lat="43.32277" lon="5.74646">
        <ele>970.2</ele>
        <time>2013-03-13T10:31:01Z</time>
      </trkpt>
      <trkpt lat="43.32283" lon="5.74667">
        <ele>971.5</ele>
        <time>2013-03-13T10:31:24Z</time>
      </trkpt>
      <trkpt lat="43.32285" lon="5.74679">
        <ele>972</ele>
        <time>2013-03-13T10:31:35Z</time>
      </trkpt>
      <trkpt lat="43.32287" lon="5.7469">
        <ele>970.7</ele>
        <time>2013-03-13T10:31:44Z</time>
      </trkpt>
      <trkpt lat="43.3229" lon="5.74701">
        <ele>969.5</ele>
        <time>2013-03-13T10:31:53Z</time>
      </trkpt>
      <trkpt lat="43.32294" lon="5.74711">
        <ele>969.2</ele>
        <time>2013-03-13T10:32:01Z</time>
      </trkpt>
      <trkpt lat="43.32294" lon="5.74712">
        <ele>969</ele>
        <time>2013-03-13T10:32:02Z</time>
      </trkpt>
      <trkpt lat="43.32299" lon="5.74734">
        <ele>968.7</ele>
        <time>2013-03-13T10:32:22Z</time>
      </trkpt>
      <trkpt lat="43.32301" lon="5.74746">
        <ele>966.9</ele>
        <time>2013-03-13T10:32:37Z</time>
      </trkpt>
      <trkpt lat="43.32301" lon="5.74757">
        <ele>965.5</ele>
        <time>2013-03-13T10:32:49Z</time>
      </trkpt>
      <trkpt lat="43.32302" lon="5.7477">
        <ele>966.9</ele>
        <time>2013-03-13T10:33:11Z</time>
      </trkpt>
      <trkpt lat="43.32303" lon="5.7477">
        <ele>966.7</ele>
        <time>2013-03-13T10:33:12Z</time>
      </trkpt>
      <trkpt lat="43.3231" lon="5.7479">
        <ele>964.9</ele>
        <time>2013-03-13T10:33:41Z</time>
      </trkpt>
      <trkpt lat="43.32315" lon="5.74801">
        <ele>962.7</ele>
        <time>2013-03-13T10:33:51Z</time>
      </trkpt>
      <trkpt lat="43.32319" lon="5.74812">
        <ele>962.7</ele>
        <time>2013-03-13T10:34:03Z</time>
      </trkpt>
      <trkpt lat="43.32323" lon="5.74822">
        <ele>964.9</ele>
        <time>2013-03-13T10:34:13Z</time>
      </trkpt>
      <trkpt lat="43.32324" lon="5.74823">
        <ele>965.5</ele>
        <time>2013-03-13T10:34:14Z</time>
      </trkpt>
      <trkpt lat="43.32333" lon="5.7484">
        <ele>968.7</ele>
        <time>2013-03-13T10:34:45Z</time>
      </trkpt>
      <trkpt lat="43.32336" lon="5.74851">
        <ele>971.2</ele>
        <time>2013-03-13T10:35:01Z</time>
      </trkpt>
      <trkpt lat="43.3234" lon="5.74862">
        <ele>971.9</ele>
        <time>2013-03-13T10:35:21Z</time>
      </trkpt>
      <trkpt lat="43.3234" lon="5.74863">
        <ele>972</ele>
        <time>2013-03-13T10:35:22Z</time>
      </trkpt>
      <trkpt lat="43.32344" lon="5.74886">
        <ele>967.2</ele>
        <time>2013-03-13T10:35:54Z</time>
      </trkpt>
      <trkpt lat="43.32344" lon="5.74898">
        <ele>967.2</ele>
        <time>2013-03-13T10:36:16Z</time>
      </trkpt>
      <trkpt lat="43.32347" lon="5.74909">
        <ele>969.5</ele>
        <time>2013-03-13T10:36:44Z</time>
      </trkpt>
      <trkpt lat="43.32347" lon="5.7491">
        <ele>969.7</ele>
        <time>2013-03-13T10:36:45Z</time>
      </trkpt>
      <trkpt lat="43.3235" lon="5.74933">
        <ele>968.5</ele>
        <time>2013-03-13T10:37:28Z</time>
      </trkpt>
      <trkpt lat="43.32351" lon="5.74945">
        <ele>973</ele>
        <time>2013-03-13T10:37:47Z</time>
      </trkpt>
      <trkpt lat="43.32351" lon="5.74945">
        <ele>972.9</ele>
        <time>2013-03-13T10:37:48Z</time>
      </trkpt>
      <trkpt lat="43.3236" lon="5.74965">
        <ele>975</ele>
        <time>2013-03-13T10:38:38Z</time>
      </trkpt>
      <trkpt lat="43.32359" lon="5.74977">
        <ele>974.5</ele>
        <time>2013-03-13T10:39:12Z</time>
      </trkpt>
      <trkpt lat="43.32359" lon="5.74978">
        <ele>974.5</ele>
        <time>2013-03-13T10:39:13Z</time>
      </trkpt>
      <trkpt lat="43.32359" lon="5.75002">
        <ele>973.5</ele>
        <time>2013-03-13T10:40:22Z</time>
      </trkpt>
      <trkpt lat="43.32359" lon="5.75002">
        <ele>973.7</ele>
        <time>2013-03-13T10:40:23Z</time>
      </trkpt>
      <trkpt lat="43.32359" lon="5.75026">
        <ele>970.2</ele>
        <time>2013-03-13T10:41:26Z</time>
      </trkpt>
      <trkpt lat="43.32359" lon="5.75027">
        <ele>970.2</ele>
        <time>2013-03-13T10:41:27Z</time>
      </trkpt>
      <trkpt lat="43.32365" lon="5.75049">
        <ele>969.2</ele>
        <time>2013-03-13T10:42:08Z</time>
      </trkpt>
      <trkpt lat="43.32368" lon="5.7506">
        <ele>970</ele>
        <time>2013-03-13T10:42:25Z</time>
      </trkpt>
      <trkpt lat="43.32367" lon="5.75072">
        <ele>968</ele>
        <time>2013-03-13T10:42:54Z</time>
      </trkpt>
      <trkpt lat="43.32367" lon="5.75073">
        <ele>967.9</ele>
        <time>2013-03-13T10:42:55Z</time>
      </trkpt>
      <trkpt lat="43.32373" lon="5.75095">
        <ele>966.5</ele>
        <time>2013-03-13T10:44:23Z</time>
      </trkpt>
      <trkpt lat="43.32373" lon="5.75096">
        <ele>966.2</ele>
        <time>2013-03-13T10:44:24Z</time>
      </trkpt>
      <trkpt lat="43.32377" lon="5.75117">
        <ele>963</ele>
        <time>2013-03-13T10:44:47Z</time>
      </trkpt>
      <trkpt lat="43.32379" lon="5.75129">
        <ele>961.2</ele>
        <time>2013-03-13T10:45:01Z</time>
      </trkpt>
      <trkpt lat="43.3238" lon="5.75141">
        <ele>960</ele>
        <time>2013-03-13T10:45:11Z</time>
      </trkpt>
      <trkpt lat="43.32381" lon="5.75153">
        <ele>959.4</ele>
        <time>2013-03-13T10:45:23Z</time>
      </trkpt>
      <trkpt lat="43.3238" lon="5.75164">
        <ele>958.4</ele>
        <time>2013-03-13T10:45:34Z</time>
      </trkpt>
      <trkpt lat="43.32381" lon="5.75166">
        <ele>958.2</ele>
        <time>2013-03-13T10:45:35Z</time>
      </trkpt>
      <trkpt lat="43.32391" lon="5.75182">
        <ele>958</ele>
        <time>2013-03-13T10:46:03Z</time>
      </trkpt>
      <trkpt lat="43.32395" lon="5.75193">
        <ele>958.2</ele>
        <time>2013-03-13T10:46:34Z</time>
      </trkpt>
      <trkpt lat="43.32389" lon="5.75201">
        <ele>957.2</ele>
        <time>2013-03-13T10:50:49Z</time>
      </trkpt>
      <trkpt lat="43.32389" lon="5.75202">
        <ele>957</ele>
        <time>2013-03-13T10:50:50Z</time>
      </trkpt>
      <trkpt lat="43.32392" lon="5.75225">
        <ele>959.2</ele>
        <time>2013-03-13T10:51:16Z</time>
      </trkpt>
      <trkpt lat="43.32392" lon="5.75237">
        <ele>959.5</ele>
        <time>2013-03-13T10:51:27Z</time>
      </trkpt>
      <trkpt lat="43.32396" lon="5.75247">
        <ele>958.7</ele>
        <time>2013-03-13T10:51:43Z</time>
      </trkpt>
      <trkpt lat="43.32397" lon="5.75258">
        <ele>957</ele>
        <time>2013-03-13T10:52:00Z</time>
      </trkpt>
      <trkpt lat="43.32397" lon="5.7526">
        <ele>956.9</ele>
        <time>2013-03-13T10:52:01Z</time>
      </trkpt>
      <trkpt lat="43.324" lon="5.75281">
        <ele>957.5</ele>
        <time>2013-03-13T10:52:22Z</time>
      </trkpt>
      <trkpt lat="43.32401" lon="5.75293">
        <ele>956.9</ele>
        <time>2013-03-13T10:52:32Z</time>
      </trkpt>
      <trkpt lat="43.32404" lon="5.75304">
        <ele>957.2</ele>
        <time>2013-03-13T10:52:42Z</time>
      </trkpt>
      <trkpt lat="43.32407" lon="5.75307">
        <ele>913.2</ele>
        <time>2013-03-13T12:09:32Z</time>
      </trkpt>
      <trkpt lat="43.32401" lon="5.75319">
        <ele>964</ele>
        <time>2013-03-13T12:09:33Z</time>
      </trkpt>
      <trkpt lat="43.32408" lon="5.75326">
        <ele>951.7</ele>
        <time>2013-03-13T12:14:15Z</time>
      </trkpt>
      <trkpt lat="43.32408" lon="5.75326">
        <ele>952</ele>
        <time>2013-03-13T12:14:16Z</time>
      </trkpt>
      <trkpt lat="43.32416" lon="5.75347">
        <ele>955.2</ele>
        <time>2013-03-13T12:15:18Z</time>
      </trkpt>
      <trkpt lat="43.32416" lon="5.75348">
        <ele>955.2</ele>
        <time>2013-03-13T12:15:19Z</time>
      </trkpt>
      <trkpt lat="43.32422" lon="5.75369">
        <ele>953.5</ele>
        <time>2013-03-13T12:15:44Z</time>
      </trkpt>
      <trkpt lat="43.32422" lon="5.75382">
        <ele>953</ele>
        <time>2013-03-13T12:15:57Z</time>
      </trkpt>
      <trkpt lat="43.32423" lon="5.75393">
        <ele>951.9</ele>
        <time>2013-03-13T12:16:07Z</time>
      </trkpt>
      <trkpt lat="43.32426" lon="5.75403">
        <ele>950.7</ele>
        <time>2013-03-13T12:16:16Z</time>
      </trkpt>
      <trkpt lat="43.32428" lon="5.75414">
        <ele>951.2</ele>
        <time>2013-03-13T12:16:27Z</time>
      </trkpt>
      <trkpt lat="43.32428" lon="5.75415">
        <ele>951.5</ele>
        <time>2013-03-13T12:16:28Z</time>
      </trkpt>
      <trkpt lat="43.32431" lon="5.75436">
        <ele>951.9</ele>
        <time>2013-03-13T12:16:49Z</time>
      </trkpt>
      <trkpt lat="43.3243" lon="5.75448">
        <ele>950.5</ele>
        <time>2013-03-13T12:17:01Z</time>
      </trkpt>
      <trkpt lat="43.32431" lon="5.7546">
        <ele>947.7</ele>
        <time>2013-03-13T12:17:15Z</time>
      </trkpt>
      <trkpt lat="43.32432" lon="5.75472">
        <ele>945.2</ele>
        <time>2013-03-13T12:17:26Z</time>
      </trkpt>
      <trkpt lat="43.3243" lon="5.75484">
        <ele>944.2</ele>
        <time>2013-03-13T12:17:37Z</time>
      </trkpt>
      <trkpt lat="43.32431" lon="5.75485">
        <ele>944.2</ele>
        <time>2013-03-13T12:17:38Z</time>
      </trkpt>
      <trkpt lat="43.32438" lon="5.75505">
        <ele>945.2</ele>
        <time>2013-03-13T12:17:54Z</time>
      </trkpt>
      <trkpt lat="43.32443" lon="5.75514">
        <ele>945.7</ele>
        <time>2013-03-13T12:18:04Z</time>
      </trkpt>
      <trkpt lat="43.32446" lon="5.75525">
        <ele>946.7</ele>
        <time>2013-03-13T12:18:13Z</time>
      </trkpt>
      <trkpt lat="43.32451" lon="5.75534">
        <ele>948.7</ele>
        <time>2013-03-13T12:18:22Z</time>
      </trkpt>
      <trkpt lat="43.32457" lon="5.75543">
        <ele>949.5</ele>
        <time>2013-03-13T12:18:30Z</time>
      </trkpt>
      <trkpt lat="43.32461" lon="5.75553">
        <ele>951.5</ele>
        <time>2013-03-13T12:18:41Z</time>
      </trkpt>
      <trkpt lat="43.32462" lon="5.75554">
        <ele>951.5</ele>
        <time>2013-03-13T12:18:42Z</time>
      </trkpt>
      <trkpt lat="43.3247" lon="5.75573">
        <ele>949.5</ele>
        <time>2013-03-13T12:18:58Z</time>
      </trkpt>
      <trkpt lat="43.32474" lon="5.75583">
        <ele>949</ele>
        <time>2013-03-13T12:19:06Z</time>
      </trkpt>
      <trkpt lat="43.32476" lon="5.75594">
        <ele>949.5</ele>
        <time>2013-03-13T12:19:14Z</time>
      </trkpt>
      <trkpt lat="43.32479" lon="5.75606">
        <ele>947.9</ele>
        <time>2013-03-13T12:19:24Z</time>
      </trkpt>
      <trkpt lat="43.32479" lon="5.75617">
        <ele>947</ele>
        <time>2013-03-13T12:19:34Z</time>
      </trkpt>
      <trkpt lat="43.3248" lon="5.75629">
        <ele>945.9</ele>
        <time>2013-03-13T12:19:44Z</time>
      </trkpt>
      <trkpt lat="43.32481" lon="5.75631">
        <ele>945.5</ele>
        <time>2013-03-13T12:19:45Z</time>
      </trkpt>
      <trkpt lat="43.32482" lon="5.75651">
        <ele>944.9</ele>
        <time>2013-03-13T12:20:03Z</time>
      </trkpt>
      <trkpt lat="43.32484" lon="5.75663">
        <ele>942.7</ele>
        <time>2013-03-13T12:20:13Z</time>
      </trkpt>
      <trkpt lat="43.32487" lon="5.75674">
        <ele>942</ele>
        <time>2013-03-13T12:20:22Z</time>
      </trkpt>
      <trkpt lat="43.32491" lon="5.75686">
        <ele>943</ele>
        <time>2013-03-13T12:20:30Z</time>
      </trkpt>
      <trkpt lat="43.32494" lon="5.75696">
        <ele>944</ele>
        <time>2013-03-13T12:20:39Z</time>
      </trkpt>
      <trkpt lat="43.32497" lon="5.75708">
        <ele>944.9</ele>
        <time>2013-03-13T12:20:48Z</time>
      </trkpt>
      <trkpt lat="43.32497" lon="5.75709">
        <ele>945</ele>
        <time>2013-03-13T12:20:49Z</time>
      </trkpt>
      <trkpt lat="43.32502" lon="5.75729">
        <ele>944.7</ele>
        <time>2013-03-13T12:21:09Z</time>
      </trkpt>
      <trkpt lat="43.32505" lon="5.7574">
        <ele>942.7</ele>
        <time>2013-03-13T12:21:18Z</time>
      </trkpt>
      <trkpt lat="43.32507" lon="5.75751">
        <ele>942.5</ele>
        <time>2013-03-13T12:21:28Z</time>
      </trkpt>
      <trkpt lat="43.32508" lon="5.75763">
        <ele>942</ele>
        <time>2013-03-13T12:21:39Z</time>
      </trkpt>
      <trkpt lat="43.32511" lon="5.75774">
        <ele>941.7</ele>
        <time>2013-03-13T12:21:50Z</time>
      </trkpt>
      <trkpt lat="43.32511" lon="5.75776">
        <ele>941.9</ele>
        <time>2013-03-13T12:21:51Z</time>
      </trkpt>
      <trkpt lat="43.32512" lon="5.75797">
        <ele>940.9</ele>
        <time>2013-03-13T12:22:11Z</time>
      </trkpt>
      <trkpt lat="43.32511" lon="5.75809">
        <ele>940.2</ele>
        <time>2013-03-13T12:22:21Z</time>
      </trkpt>
      <trkpt lat="43.32511" lon="5.75821">
        <ele>940.9</ele>
        <time>2013-03-13T12:22:30Z</time>
      </trkpt>
      <trkpt lat="43.32516" lon="5.7583">
        <ele>942.9</ele>
        <time>2013-03-13T12:22:41Z</time>
      </trkpt>
      <trkpt lat="43.32523" lon="5.75838">
        <ele>944.5</ele>
        <time>2013-03-13T12:22:52Z</time>
      </trkpt>
      <trkpt lat="43.32523" lon="5.75839">
        <ele>944.5</ele>
        <time>2013-03-13T12:22:53Z</time>
      </trkpt>
      <trkpt lat="43.32526" lon="5.7586">
        <ele>943</ele>
        <time>2013-03-13T12:23:12Z</time>
      </trkpt>
      <trkpt lat="43.32529" lon="5.75872">
        <ele>944.2</ele>
        <time>2013-03-13T12:23:26Z</time>
      </trkpt>
      <trkpt lat="43.32532" lon="5.75883">
        <ele>942.5</ele>
        <time>2013-03-13T12:23:42Z</time>
      </trkpt>
      <trkpt lat="43.32536" lon="5.75893">
        <ele>943.9</ele>
        <time>2013-03-13T12:23:52Z</time>
      </trkpt>
      <trkpt lat="43.32539" lon="5.75905">
        <ele>945</ele>
        <time>2013-03-13T12:24:03Z</time>
      </trkpt>
      <trkpt lat="43.32539" lon="5.75906">
        <ele>945</ele>
        <time>2013-03-13T12:24:04Z</time>
      </trkpt>
      <trkpt lat="43.32541" lon="5.75928">
        <ele>943.5</ele>
        <time>2013-03-13T12:24:26Z</time>
      </trkpt>
      <trkpt lat="43.32541" lon="5.7594">
        <ele>943</ele>
        <time>2013-03-13T12:24:35Z</time>
      </trkpt>
      <trkpt lat="43.32543" lon="5.75951">
        <ele>942.5</ele>
        <time>2013-03-13T12:24:45Z</time>
      </trkpt>
      <trkpt lat="43.32545" lon="5.75963">
        <ele>942.5</ele>
        <time>2013-03-13T12:24:55Z</time>
      </trkpt>
      <trkpt lat="43.32547" lon="5.75975">
        <ele>942.2</ele>
        <time>2013-03-13T12:25:05Z</time>
      </trkpt>
      <trkpt lat="43.32547" lon="5.75976">
        <ele>942</ele>
        <time>2013-03-13T12:25:06Z</time>
      </trkpt>
      <trkpt lat="43.32549" lon="5.75998">
        <ele>940.7</ele>
        <time>2013-03-13T12:25:25Z</time>
      </trkpt>
      <trkpt lat="43.32551" lon="5.76009">
        <ele>940.7</ele>
        <time>2013-03-13T12:25:34Z</time>
      </trkpt>
      <trkpt lat="43.32554" lon="5.7602">
        <ele>941.9</ele>
        <time>2013-03-13T12:25:45Z</time>
      </trkpt>
      <trkpt lat="43.32557" lon="5.7603">
        <ele>941.5</ele>
        <time>2013-03-13T12:25:55Z</time>
      </trkpt>
      <trkpt lat="43.3256" lon="5.76041">
        <ele>941.2</ele>
        <time>2013-03-13T12:26:05Z</time>
      </trkpt>
      <trkpt lat="43.32564" lon="5.76051">
        <ele>942</ele>
        <time>2013-03-13T12:26:14Z</time>
      </trkpt>
      <trkpt lat="43.32564" lon="5.76053">
        <ele>942</ele>
        <time>2013-03-13T12:26:15Z</time>
      </trkpt>
      <trkpt lat="43.32572" lon="5.76072">
        <ele>942.7</ele>
        <time>2013-03-13T12:26:35Z</time>
      </trkpt>
      <trkpt lat="43.32574" lon="5.76084">
        <ele>943.9</ele>
        <time>2013-03-13T12:26:44Z</time>
      </trkpt>
      <trkpt lat="43.32576" lon="5.76095">
        <ele>944</ele>
        <time>2013-03-13T12:26:56Z</time>
      </trkpt>
      <trkpt lat="43.32582" lon="5.76105">
        <ele>944.9</ele>
        <time>2013-03-13T12:27:07Z</time>
      </trkpt>
      <trkpt lat="43.32588" lon="5.76113">
        <ele>945.9</ele>
        <time>2013-03-13T12:27:18Z</time>
      </trkpt>
      <trkpt lat="43.32588" lon="5.76114">
        <ele>946</ele>
        <time>2013-03-13T12:27:19Z</time>
      </trkpt>
      <trkpt lat="43.32599" lon="5.76131">
        <ele>947</ele>
        <time>2013-03-13T12:27:38Z</time>
      </trkpt>
      <trkpt lat="43.32604" lon="5.76141">
        <ele>947.2</ele>
        <time>2013-03-13T12:27:49Z</time>
      </trkpt>
      <trkpt lat="43.32607" lon="5.76152">
        <ele>948.5</ele>
        <time>2013-03-13T12:28:07Z</time>
      </trkpt>
      <trkpt lat="43.32607" lon="5.76164">
        <ele>949.2</ele>
        <time>2013-03-13T12:28:19Z</time>
      </trkpt>
      <trkpt lat="43.32607" lon="5.76165">
        <ele>949.4</ele>
        <time>2013-03-13T12:28:20Z</time>
      </trkpt>
      <trkpt lat="43.32607" lon="5.76185">
        <ele>950.7</ele>
        <time>2013-03-13T12:28:37Z</time>
      </trkpt>
      <trkpt lat="43.32601" lon="5.76193">
        <ele>950.5</ele>
        <time>2013-03-13T12:28:47Z</time>
      </trkpt>
      <trkpt lat="43.32598" lon="5.76205">
        <ele>949.9</ele>
        <time>2013-03-13T12:28:56Z</time>
      </trkpt>
      <trkpt lat="43.32595" lon="5.76216">
        <ele>949.2</ele>
        <time>2013-03-13T12:29:04Z</time>
      </trkpt>
      <trkpt lat="43.32595" lon="5.76228">
        <ele>947.9</ele>
        <time>2013-03-13T12:29:12Z</time>
      </trkpt>
      <trkpt lat="43.32592" lon="5.76239">
        <ele>948.5</ele>
        <time>2013-03-13T12:29:21Z</time>
      </trkpt>
      <trkpt lat="43.32592" lon="5.7624">
        <ele>948.5</ele>
        <time>2013-03-13T12:29:22Z</time>
      </trkpt>
      <trkpt lat="43.32597" lon="5.7626">
        <ele>951.5</ele>
        <time>2013-03-13T12:29:48Z</time>
      </trkpt>
      <trkpt lat="43.326" lon="5.76271">
        <ele>953.5</ele>
        <time>2013-03-13T12:30:01Z</time>
      </trkpt>
      <trkpt lat="43.32601" lon="5.76283">
        <ele>956.5</ele>
        <time>2013-03-13T12:30:14Z</time>
      </trkpt>
      <trkpt lat="43.32603" lon="5.76295">
        <ele>956.2</ele>
        <time>2013-03-13T12:30:27Z</time>
      </trkpt>
      <trkpt lat="43.32603" lon="5.76296">
        <ele>956</ele>
        <time>2013-03-13T12:30:28Z</time>
      </trkpt>
      <trkpt lat="43.32607" lon="5.76318">
        <ele>959.5</ele>
        <time>2013-03-13T12:30:47Z</time>
      </trkpt>
      <trkpt lat="43.3261" lon="5.76329">
        <ele>960.7</ele>
        <time>2013-03-13T12:30:59Z</time>
      </trkpt>
      <trkpt lat="43.32611" lon="5.76341">
        <ele>962.5</ele>
        <time>2013-03-13T12:31:12Z</time>
      </trkpt>
      <trkpt lat="43.32615" lon="5.76352">
        <ele>964.5</ele>
        <time>2013-03-13T12:31:22Z</time>
      </trkpt>
      <trkpt lat="43.32619" lon="5.76363">
        <ele>966</ele>
        <time>2013-03-13T12:31:34Z</time>
      </trkpt>
      <trkpt lat="43.32619" lon="5.76364">
        <ele>966</ele>
        <time>2013-03-13T12:31:35Z</time>
      </trkpt>
      <trkpt lat="43.32629" lon="5.76382">
        <ele>969.2</ele>
        <time>2013-03-13T12:31:56Z</time>
      </trkpt>
      <trkpt lat="43.32633" lon="5.76393">
        <ele>970.7</ele>
        <time>2013-03-13T12:32:06Z</time>
      </trkpt>
      <trkpt lat="43.32638" lon="5.76402">
        <ele>972.5</ele>
        <time>2013-03-13T12:32:17Z</time>
      </trkpt>
      <trkpt lat="43.32646" lon="5.76407">
        <ele>975.2</ele>
        <time>2013-03-13T12:32:29Z</time>
      </trkpt>
      <trkpt lat="43.32653" lon="5.76415">
        <ele>976</ele>
        <time>2013-03-13T12:32:59Z</time>
      </trkpt>
      <trkpt lat="43.32653" lon="5.76416">
        <ele>976</ele>
        <time>2013-03-13T12:33:00Z</time>
      </trkpt>
      <trkpt lat="43.32662" lon="5.76435">
        <ele>979.4</ele>
        <time>2013-03-13T12:33:39Z</time>
      </trkpt>
      <trkpt lat="43.32664" lon="5.76447">
        <ele>978</ele>
        <time>2013-03-13T12:34:40Z</time>
      </trkpt>
      <trkpt lat="43.32664" lon="5.76448">
        <ele>978</ele>
        <time>2013-03-13T12:34:41Z</time>
      </trkpt>
      <trkpt lat="43.3267" lon="5.76469">
        <ele>981</ele>
        <time>2013-03-13T12:35:17Z</time>
      </trkpt>
      <trkpt lat="43.32678" lon="5.76474">
        <ele>983</ele>
        <time>2013-03-13T12:36:11Z</time>
      </trkpt>
      <trkpt lat="43.32678" lon="5.76474">
        <ele>983</ele>
        <time>2013-03-13T12:36:12Z</time>
      </trkpt>
      <trkpt lat="43.32689" lon="5.76491">
        <ele>984.5</ele>
        <time>2013-03-13T12:36:30Z</time>
      </trkpt>
      <trkpt lat="43.32696" lon="5.76496">
        <ele>987.5</ele>
        <time>2013-03-13T12:36:45Z</time>
      </trkpt>
      <trkpt lat="43.32705" lon="5.76499">
        <ele>988.7</ele>
        <time>2013-03-13T12:37:04Z</time>
      </trkpt>
      <trkpt lat="43.32713" lon="5.76505">
        <ele>989.2</ele>
        <time>2013-03-13T12:37:17Z</time>
      </trkpt>
      <trkpt lat="43.32713" lon="5.76506">
        <ele>989.2</ele>
        <time>2013-03-13T12:37:18Z</time>
      </trkpt>
      <trkpt lat="43.32722" lon="5.76524">
        <ele>993.5</ele>
        <time>2013-03-13T12:44:25Z</time>
      </trkpt>
      <trkpt lat="43.32722" lon="5.76525">
        <ele>994</ele>
        <time>2013-03-13T12:44:26Z</time>
      </trkpt>
      <trkpt lat="43.32714" lon="5.76546">
        <ele>990</ele>
        <time>2013-03-13T12:45:23Z</time>
      </trkpt>
      <trkpt lat="43.32713" lon="5.76558">
        <ele>988.9</ele>
        <time>2013-03-13T12:45:42Z</time>
      </trkpt>
      <trkpt lat="43.32713" lon="5.76559">
        <ele>988.7</ele>
        <time>2013-03-13T12:45:43Z</time>
      </trkpt>
      <trkpt lat="43.32696" lon="5.7656">
        <ele>984</ele>
        <time>2013-03-13T12:46:13Z</time>
      </trkpt>
      <trkpt lat="43.32694" lon="5.76571">
        <ele>979.9</ele>
        <time>2013-03-13T12:46:37Z</time>
      </trkpt>
      <trkpt lat="43.32695" lon="5.76582">
        <ele>978</ele>
        <time>2013-03-13T12:46:48Z</time>
      </trkpt>
      <trkpt lat="43.32695" lon="5.76584">
        <ele>978.2</ele>
        <time>2013-03-13T12:46:49Z</time>
      </trkpt>
      <trkpt lat="43.32698" lon="5.76605">
        <ele>975.7</ele>
        <time>2013-03-13T12:47:07Z</time>
      </trkpt>
      <trkpt lat="43.327" lon="5.76617">
        <ele>975.2</ele>
        <time>2013-03-13T12:47:16Z</time>
      </trkpt>
      <trkpt lat="43.32704" lon="5.76628">
        <ele>972</ele>
        <time>2013-03-13T12:47:27Z</time>
      </trkpt>
      <trkpt lat="43.32706" lon="5.76639">
        <ele>970</ele>
        <time>2013-03-13T12:47:36Z</time>
      </trkpt>
      <trkpt lat="43.32705" lon="5.76649">
        <ele>971.7</ele>
        <time>2013-03-13T12:47:41Z</time>
      </trkpt>
      <trkpt lat="43.32708" lon="5.76661">
        <ele>969.9</ele>
        <time>2013-03-13T12:47:51Z</time>
      </trkpt>
      <trkpt lat="43.32707" lon="5.76663">
        <ele>970.4</ele>
        <time>2013-03-13T12:47:52Z</time>
      </trkpt>
      <trkpt lat="43.32713" lon="5.76682">
        <ele>964.7</ele>
        <time>2013-03-13T12:48:14Z</time>
      </trkpt>
      <trkpt lat="43.32716" lon="5.76692">
        <ele>962.2</ele>
        <time>2013-03-13T12:48:24Z</time>
      </trkpt>
      <trkpt lat="43.32717" lon="5.76704">
        <ele>960.2</ele>
        <time>2013-03-13T12:48:34Z</time>
      </trkpt>
      <trkpt lat="43.32719" lon="5.76715">
        <ele>958.4</ele>
        <time>2013-03-13T12:48:44Z</time>
      </trkpt>
      <trkpt lat="43.32724" lon="5.76725">
        <ele>956.5</ele>
        <time>2013-03-13T12:48:54Z</time>
      </trkpt>
      <trkpt lat="43.32724" lon="5.76726">
        <ele>956.2</ele>
        <time>2013-03-13T12:48:55Z</time>
      </trkpt>
      <trkpt lat="43.32727" lon="5.76748">
        <ele>954</ele>
        <time>2013-03-13T12:49:14Z</time>
      </trkpt>
      <trkpt lat="43.32727" lon="5.7676">
        <ele>953.5</ele>
        <time>2013-03-13T12:49:24Z</time>
      </trkpt>
      <trkpt lat="43.32726" lon="5.76772">
        <ele>953.7</ele>
        <time>2013-03-13T12:49:31Z</time>
      </trkpt>
      <trkpt lat="43.32725" lon="5.76781">
        <ele>953.2</ele>
        <time>2013-03-13T12:49:37Z</time>
      </trkpt>
      <trkpt lat="43.32724" lon="5.7679">
        <ele>957</ele>
        <time>2013-03-13T12:49:40Z</time>
      </trkpt>
      <trkpt lat="43.32721" lon="5.76799">
        <ele>961.2</ele>
        <time>2013-03-13T12:49:43Z</time>
      </trkpt>
      <trkpt lat="43.32722" lon="5.76811">
        <ele>960.7</ele>
        <time>2013-03-13T12:49:51Z</time>
      </trkpt>
      <trkpt lat="43.32723" lon="5.76823">
        <ele>962.9</ele>
        <time>2013-03-13T12:49:59Z</time>
      </trkpt>
      <trkpt lat="43.32723" lon="5.76824">
        <ele>963</ele>
        <time>2013-03-13T12:50:00Z</time>
      </trkpt>
      <trkpt lat="43.32731" lon="5.76843">
        <ele>961.7</ele>
        <time>2013-03-13T12:50:15Z</time>
      </trkpt>
      <trkpt lat="43.32735" lon="5.76853">
        <ele>961.4</ele>
        <time>2013-03-13T12:50:23Z</time>
      </trkpt>
      <trkpt lat="43.32737" lon="5.76865">
        <ele>957.7</ele>
        <time>2013-03-13T12:50:35Z</time>
      </trkpt>
      <trkpt lat="43.32737" lon="5.76877">
        <ele>957.4</ele>
        <time>2013-03-13T12:50:43Z</time>
      </trkpt>
      <trkpt lat="43.32739" lon="5.76889">
        <ele>955.2</ele>
        <time>2013-03-13T12:50:52Z</time>
      </trkpt>
      <trkpt lat="43.32742" lon="5.76898">
        <ele>953.4</ele>
        <time>2013-03-13T12:51:00Z</time>
      </trkpt>
      <trkpt lat="43.32741" lon="5.769">
        <ele>953.9</ele>
        <time>2013-03-13T12:51:01Z</time>
      </trkpt>
      <trkpt lat="43.32746" lon="5.7692">
        <ele>954.7</ele>
        <time>2013-03-13T12:51:14Z</time>
      </trkpt>
      <trkpt lat="43.32748" lon="5.76932">
        <ele>955.9</ele>
        <time>2013-03-13T12:51:21Z</time>
      </trkpt>
      <trkpt lat="43.3275" lon="5.76943">
        <ele>954.7</ele>
        <time>2013-03-13T12:51:30Z</time>
      </trkpt>
      <trkpt lat="43.32751" lon="5.76954">
        <ele>951.7</ele>
        <time>2013-03-13T12:51:42Z</time>
      </trkpt>
      <trkpt lat="43.32748" lon="5.76966">
        <ele>951.7</ele>
        <time>2013-03-13T12:51:50Z</time>
      </trkpt>
      <trkpt lat="43.32749" lon="5.76978">
        <ele>949.7</ele>
        <time>2013-03-13T12:52:00Z</time>
      </trkpt>
      <trkpt lat="43.3274" lon="5.7698">
        <ele>953.2</ele>
        <time>2013-03-13T12:52:17Z</time>
      </trkpt>
      <trkpt lat="43.3274" lon="5.7698">
        <ele>953.5</ele>
        <time>2013-03-13T12:52:18Z</time>
      </trkpt>
      <trkpt lat="43.32725" lon="5.76968">
        <ele>951.5</ele>
        <time>2013-03-13T12:58:56Z</time>
      </trkpt>
      <trkpt lat="43.32725" lon="5.76967">
        <ele>951.7</ele>
        <time>2013-03-13T12:58:57Z</time>
      </trkpt>
      <trkpt lat="43.32711" lon="5.7696">
        <ele>947.7</ele>
        <time>2013-03-13T12:59:31Z</time>
      </trkpt>
      <trkpt lat="43.32702" lon="5.76958">
        <ele>944.7</ele>
        <time>2013-03-13T12:59:46Z</time>
      </trkpt>
      <trkpt lat="43.32694" lon="5.76963">
        <ele>940.2</ele>
        <time>2013-03-13T13:00:04Z</time>
      </trkpt>
      <trkpt lat="43.32694" lon="5.76963">
        <ele>940</ele>
        <time>2013-03-13T13:00:05Z</time>
      </trkpt>
      <trkpt lat="43.32677" lon="5.76964">
        <ele>935</ele>
        <time>2013-03-13T13:00:36Z</time>
      </trkpt>
      <trkpt lat="43.3267" lon="5.76959">
        <ele>933.9</ele>
        <time>2013-03-13T13:00:46Z</time>
      </trkpt>
      <trkpt lat="43.32661" lon="5.76961">
        <ele>930.7</ele>
        <time>2013-03-13T13:00:58Z</time>
      </trkpt>
      <trkpt lat="43.32653" lon="5.76961">
        <ele>927.9</ele>
        <time>2013-03-13T13:01:12Z</time>
      </trkpt>
      <trkpt lat="43.32652" lon="5.7696">
        <ele>927.9</ele>
        <time>2013-03-13T13:01:13Z</time>
      </trkpt>
      <trkpt lat="43.32636" lon="5.76961">
        <ele>920</ele>
        <time>2013-03-13T13:01:57Z</time>
      </trkpt>
      <trkpt lat="43.32627" lon="5.76963">
        <ele>915.7</ele>
        <time>2013-03-13T13:02:16Z</time>
      </trkpt>
      <trkpt lat="43.32627" lon="5.76964">
        <ele>915.4</ele>
        <time>2013-03-13T13:02:17Z</time>
      </trkpt>
      <trkpt lat="43.32626" lon="5.76985">
        <ele>906.4</ele>
        <time>2013-03-13T13:02:41Z</time>
      </trkpt>
      <trkpt lat="43.32628" lon="5.76997">
        <ele>901.7</ele>
        <time>2013-03-13T13:02:56Z</time>
      </trkpt>
      <trkpt lat="43.32625" lon="5.77008">
        <ele>900.7</ele>
        <time>2013-03-13T13:03:05Z</time>
      </trkpt>
      <trkpt lat="43.32624" lon="5.77019">
        <ele>898.9</ele>
        <time>2013-03-13T13:03:14Z</time>
      </trkpt>
      <trkpt lat="43.32623" lon="5.7703">
        <ele>897.9</ele>
        <time>2013-03-13T13:03:23Z</time>
      </trkpt>
      <trkpt lat="43.32623" lon="5.77031">
        <ele>897.7</ele>
        <time>2013-03-13T13:03:24Z</time>
      </trkpt>
      <trkpt lat="43.32625" lon="5.77052">
        <ele>895.5</ele>
        <time>2013-03-13T13:03:41Z</time>
      </trkpt>
      <trkpt lat="43.3262" lon="5.77061">
        <ele>897</ele>
        <time>2013-03-13T13:03:47Z</time>
      </trkpt>
      <trkpt lat="43.32615" lon="5.77071">
        <ele>897</ele>
        <time>2013-03-13T13:03:57Z</time>
      </trkpt>
      <trkpt lat="43.3261" lon="5.77081">
        <ele>896.5</ele>
        <time>2013-03-13T13:04:06Z</time>
      </trkpt>
      <trkpt lat="43.32606" lon="5.77092">
        <ele>896.2</ele>
        <time>2013-03-13T13:04:16Z</time>
      </trkpt>
      <trkpt lat="43.32599" lon="5.77099">
        <ele>894.9</ele>
        <time>2013-03-13T13:04:25Z</time>
      </trkpt>
      <trkpt lat="43.32598" lon="5.771">
        <ele>894.7</ele>
        <time>2013-03-13T13:04:26Z</time>
      </trkpt>
      <trkpt lat="43.32587" lon="5.77116">
        <ele>893.5</ele>
        <time>2013-03-13T13:04:45Z</time>
      </trkpt>
      <trkpt lat="43.32581" lon="5.77124">
        <ele>892.5</ele>
        <time>2013-03-13T13:04:57Z</time>
      </trkpt>
      <trkpt lat="43.32576" lon="5.77135">
        <ele>891.2</ele>
        <time>2013-03-13T13:05:07Z</time>
      </trkpt>
      <trkpt lat="43.32573" lon="5.77146">
        <ele>891.2</ele>
        <time>2013-03-13T13:05:18Z</time>
      </trkpt>
      <trkpt lat="43.32567" lon="5.77154">
        <ele>894.2</ele>
        <time>2013-03-13T13:05:37Z</time>
      </trkpt>
      <trkpt lat="43.32567" lon="5.77155">
        <ele>894.4</ele>
        <time>2013-03-13T13:05:38Z</time>
      </trkpt>
      <trkpt lat="43.32568" lon="5.77178">
        <ele>892.7</ele>
        <time>2013-03-13T13:06:05Z</time>
      </trkpt>
      <trkpt lat="43.32569" lon="5.7719">
        <ele>890.4</ele>
        <time>2013-03-13T13:06:16Z</time>
      </trkpt>
      <trkpt lat="43.32568" lon="5.77201">
        <ele>890</ele>
        <time>2013-03-13T13:06:25Z</time>
      </trkpt>
      <trkpt lat="43.32563" lon="5.7721">
        <ele>891.2</ele>
        <time>2013-03-13T13:06:38Z</time>
      </trkpt>
      <trkpt lat="43.32563" lon="5.77212">
        <ele>891.2</ele>
        <time>2013-03-13T13:06:39Z</time>
      </trkpt>
      <trkpt lat="43.3256" lon="5.77234">
        <ele>889.9</ele>
        <time>2013-03-13T13:07:02Z</time>
      </trkpt>
      <trkpt lat="43.32558" lon="5.77246">
        <ele>889.7</ele>
        <time>2013-03-13T13:07:13Z</time>
      </trkpt>
      <trkpt lat="43.32554" lon="5.77257">
        <ele>888.9</ele>
        <time>2013-03-13T13:07:26Z</time>
      </trkpt>
      <trkpt lat="43.32546" lon="5.77262">
        <ele>889.2</ele>
        <time>2013-03-13T13:07:39Z</time>
      </trkpt>
      <trkpt lat="43.32546" lon="5.77262">
        <ele>889.2</ele>
        <time>2013-03-13T13:07:40Z</time>
      </trkpt>
      <trkpt lat="43.32535" lon="5.7728">
        <ele>885.7</ele>
        <time>2013-03-13T13:08:01Z</time>
      </trkpt>
      <trkpt lat="43.32531" lon="5.77291">
        <ele>884.2</ele>
        <time>2013-03-13T13:08:15Z</time>
      </trkpt>
      <trkpt lat="43.32527" lon="5.77301">
        <ele>882</ele>
        <time>2013-03-13T13:08:26Z</time>
      </trkpt>
      <trkpt lat="43.32527" lon="5.77313">
        <ele>879</ele>
        <time>2013-03-13T13:08:36Z</time>
      </trkpt>
      <trkpt lat="43.3252" lon="5.77319">
        <ele>877.5</ele>
        <time>2013-03-13T13:08:46Z</time>
      </trkpt>
      <trkpt lat="43.32519" lon="5.77319">
        <ele>877.5</ele>
        <time>2013-03-13T13:08:47Z</time>
      </trkpt>
      <trkpt lat="43.32503" lon="5.77317">
        <ele>874.5</ele>
        <time>2013-03-13T13:09:10Z</time>
      </trkpt>
      <trkpt lat="43.32495" lon="5.77317">
        <ele>872.5</ele>
        <time>2013-03-13T13:09:21Z</time>
      </trkpt>
      <trkpt lat="43.32486" lon="5.77316">
        <ele>869.5</ele>
        <time>2013-03-13T13:09:34Z</time>
      </trkpt>
      <trkpt lat="43.32478" lon="5.77322">
        <ele>866.9</ele>
        <time>2013-03-13T13:09:52Z</time>
      </trkpt>
      <trkpt lat="43.32477" lon="5.77322">
        <ele>866.7</ele>
        <time>2013-03-13T13:09:53Z</time>
      </trkpt>
      <trkpt lat="43.32462" lon="5.77311">
        <ele>863</ele>
        <time>2013-03-13T13:10:14Z</time>
      </trkpt>
      <trkpt lat="43.32454" lon="5.77313">
        <ele>859.7</ele>
        <time>2013-03-13T13:10:26Z</time>
      </trkpt>
      <trkpt lat="43.32445" lon="5.77311">
        <ele>858</ele>
        <time>2013-03-13T13:10:36Z</time>
      </trkpt>
      <trkpt lat="43.32437" lon="5.77309">
        <ele>858.2</ele>
        <time>2013-03-13T13:10:50Z</time>
      </trkpt>
      <trkpt lat="43.32428" lon="5.77307">
        <ele>857.7</ele>
        <time>2013-03-13T13:10:59Z</time>
      </trkpt>
      <trkpt lat="43.32427" lon="5.77307">
        <ele>857.5</ele>
        <time>2013-03-13T13:11:00Z</time>
      </trkpt>
      <trkpt lat="43.32412" lon="5.77306">
        <ele>854.9</ele>
        <time>2013-03-13T13:11:17Z</time>
      </trkpt>
      <trkpt lat="43.32403" lon="5.77308">
        <ele>851.9</ele>
        <time>2013-03-13T13:11:29Z</time>
      </trkpt>
      <trkpt lat="43.32394" lon="5.77307">
        <ele>850.9</ele>
        <time>2013-03-13T13:11:37Z</time>
      </trkpt>
      <trkpt lat="43.32386" lon="5.77309">
        <ele>850.2</ele>
        <time>2013-03-13T13:11:45Z</time>
      </trkpt>
      <trkpt lat="43.32378" lon="5.77311">
        <ele>849</ele>
        <time>2013-03-13T13:11:56Z</time>
      </trkpt>
      <trkpt lat="43.32369" lon="5.77312">
        <ele>846.7</ele>
        <time>2013-03-13T13:12:13Z</time>
      </trkpt>
      <trkpt lat="43.32368" lon="5.77312">
        <ele>846.5</ele>
        <time>2013-03-13T13:12:14Z</time>
      </trkpt>
      <trkpt lat="43.32352" lon="5.77314">
        <ele>842.7</ele>
        <time>2013-03-13T13:12:36Z</time>
      </trkpt>
      <trkpt lat="43.32343" lon="5.77315">
        <ele>839.9</ele>
        <time>2013-03-13T13:12:50Z</time>
      </trkpt>
      <trkpt lat="43.32335" lon="5.77317">
        <ele>838.5</ele>
        <time>2013-03-13T13:13:01Z</time>
      </trkpt>
      <trkpt lat="43.32326" lon="5.77317">
        <ele>834.9</ele>
        <time>2013-03-13T13:13:14Z</time>
      </trkpt>
      <trkpt lat="43.32326" lon="5.77318">
        <ele>834.7</ele>
        <time>2013-03-13T13:13:15Z</time>
      </trkpt>
      <trkpt lat="43.32309" lon="5.7732">
        <ele>831.4</ele>
        <time>2013-03-13T13:13:38Z</time>
      </trkpt>
      <trkpt lat="43.32301" lon="5.7732">
        <ele>828.4</ele>
        <time>2013-03-13T13:13:53Z</time>
      </trkpt>
      <trkpt lat="43.32292" lon="5.7732">
        <ele>820.2</ele>
        <time>2013-03-13T13:14:12Z</time>
      </trkpt>
      <trkpt lat="43.32283" lon="5.77317">
        <ele>816</ele>
        <time>2013-03-13T13:14:24Z</time>
      </trkpt>
      <trkpt lat="43.32283" lon="5.77317">
        <ele>815.5</ele>
        <time>2013-03-13T13:14:25Z</time>
      </trkpt>
      <trkpt lat="43.32266" lon="5.77314">
        <ele>812.2</ele>
        <time>2013-03-13T13:14:49Z</time>
      </trkpt>
      <trkpt lat="43.32258" lon="5.77314">
        <ele>810.7</ele>
        <time>2013-03-13T13:15:01Z</time>
      </trkpt>
      <trkpt lat="43.3225" lon="5.77309">
        <ele>808.7</ele>
        <time>2013-03-13T13:15:12Z</time>
      </trkpt>
      <trkpt lat="43.32241" lon="5.77312">
        <ele>807.5</ele>
        <time>2013-03-13T13:15:28Z</time>
      </trkpt>
      <trkpt lat="43.32241" lon="5.77312">
        <ele>807.4</ele>
        <time>2013-03-13T13:15:29Z</time>
      </trkpt>
      <trkpt lat="43.32233" lon="5.77322">
        <ele>802.2</ele>
        <time>2013-03-13T13:20:37Z</time>
      </trkpt>
      <trkpt lat="43.32233" lon="5.77323">
        <ele>802</ele>
        <time>2013-03-13T13:20:38Z</time>
      </trkpt>
      <trkpt lat="43.32217" lon="5.77318">
        <ele>797.4</ele>
        <time>2013-03-13T13:20:59Z</time>
      </trkpt>
      <trkpt lat="43.32209" lon="5.77314">
        <ele>791.4</ele>
        <time>2013-03-13T13:21:16Z</time>
      </trkpt>
      <trkpt lat="43.32201" lon="5.7731">
        <ele>787</ele>
        <time>2013-03-13T13:21:31Z</time>
      </trkpt>
      <trkpt lat="43.32192" lon="5.77308">
        <ele>782.5</ele>
        <time>2013-03-13T13:21:44Z</time>
      </trkpt>
      <trkpt lat="43.32192" lon="5.77308">
        <ele>782.2</ele>
        <time>2013-03-13T13:21:45Z</time>
      </trkpt>
      <trkpt lat="43.32175" lon="5.77304">
        <ele>784.2</ele>
        <time>2013-03-13T13:22:09Z</time>
      </trkpt>
      <trkpt lat="43.32166" lon="5.77304">
        <ele>781.5</ele>
        <time>2013-03-13T13:22:23Z</time>
      </trkpt>
      <trkpt lat="43.32158" lon="5.77303">
        <ele>781</ele>
        <time>2013-03-13T13:22:37Z</time>
      </trkpt>
      <trkpt lat="43.3215" lon="5.77301">
        <ele>777.5</ele>
        <time>2013-03-13T13:22:53Z</time>
      </trkpt>
      <trkpt lat="43.32149" lon="5.773">
        <ele>777.9</ele>
        <time>2013-03-13T13:22:54Z</time>
      </trkpt>
      <trkpt lat="43.32132" lon="5.77305">
        <ele>770.7</ele>
        <time>2013-03-13T13:23:23Z</time>
      </trkpt>
      <trkpt lat="43.32124" lon="5.77304">
        <ele>772.5</ele>
        <time>2013-03-13T13:23:35Z</time>
      </trkpt>
      <trkpt lat="43.32117" lon="5.7731">
        <ele>770.7</ele>
        <time>2013-03-13T13:23:44Z</time>
      </trkpt>
      <trkpt lat="43.32109" lon="5.77313">
        <ele>769.5</ele>
        <time>2013-03-13T13:23:57Z</time>
      </trkpt>
      <trkpt lat="43.32108" lon="5.77314">
        <ele>769.4</ele>
        <time>2013-03-13T13:23:58Z</time>
      </trkpt>
      <trkpt lat="43.32093" lon="5.77321">
        <ele>767</ele>
        <time>2013-03-13T13:24:26Z</time>
      </trkpt>
      <trkpt lat="43.32085" lon="5.77324">
        <ele>765.2</ele>
        <time>2013-03-13T13:24:39Z</time>
      </trkpt>
      <trkpt lat="43.32077" lon="5.77327">
        <ele>763.5</ele>
        <time>2013-03-13T13:24:50Z</time>
      </trkpt>
      <trkpt lat="43.32069" lon="5.7733">
        <ele>761.7</ele>
        <time>2013-03-13T13:25:00Z</time>
      </trkpt>
      <trkpt lat="43.32068" lon="5.7733">
        <ele>761.5</ele>
        <time>2013-03-13T13:25:01Z</time>
      </trkpt>
      <trkpt lat="43.32052" lon="5.77335">
        <ele>757.5</ele>
        <time>2013-03-13T13:25:24Z</time>
      </trkpt>
      <trkpt lat="43.32044" lon="5.77339">
        <ele>756.5</ele>
        <time>2013-03-13T13:25:33Z</time>
      </trkpt>
      <trkpt lat="43.32036" lon="5.77345">
        <ele>753.2</ele>
        <time>2013-03-13T13:25:45Z</time>
      </trkpt>
      <trkpt lat="43.32031" lon="5.77355">
        <ele>747.4</ele>
        <time>2013-03-13T13:25:59Z</time>
      </trkpt>
      <trkpt lat="43.32026" lon="5.77364">
        <ele>748.2</ele>
        <time>2013-03-13T13:26:09Z</time>
      </trkpt>
      <trkpt lat="43.32026" lon="5.77365">
        <ele>748.2</ele>
        <time>2013-03-13T13:26:10Z</time>
      </trkpt>
      <trkpt lat="43.32015" lon="5.77381">
        <ele>746</ele>
        <time>2013-03-13T13:26:38Z</time>
      </trkpt>
      <trkpt lat="43.32008" lon="5.77387">
        <ele>740.5</ele>
        <time>2013-03-13T13:27:03Z</time>
      </trkpt>
      <trkpt lat="43.32" lon="5.77393">
        <ele>740</ele>
        <time>2013-03-13T13:27:13Z</time>
      </trkpt>
      <trkpt lat="43.32" lon="5.77394">
        <ele>740.4</ele>
        <time>2013-03-13T13:27:14Z</time>
      </trkpt>
      <trkpt lat="43.31987" lon="5.77407">
        <ele>738.4</ele>
        <time>2013-03-13T13:27:31Z</time>
      </trkpt>
      <trkpt lat="43.31979" lon="5.7741">
        <ele>736</ele>
        <time>2013-03-13T13:27:41Z</time>
      </trkpt>
      <trkpt lat="43.31972" lon="5.77414">
        <ele>733</ele>
        <time>2013-03-13T13:27:52Z</time>
      </trkpt>
      <trkpt lat="43.31965" lon="5.77423">
        <ele>731.5</ele>
        <time>2013-03-13T13:28:01Z</time>
      </trkpt>
      <trkpt lat="43.31958" lon="5.77428">
        <ele>726</ele>
        <time>2013-03-13T13:28:13Z</time>
      </trkpt>
      <trkpt lat="43.31954" lon="5.77438">
        <ele>718.9</ele>
        <time>2013-03-13T13:28:24Z</time>
      </trkpt>
      <trkpt lat="43.31953" lon="5.77439">
        <ele>718.4</ele>
        <time>2013-03-13T13:28:25Z</time>
      </trkpt>
      <trkpt lat="43.31951" lon="5.77461">
        <ele>716</ele>
        <time>2013-03-13T13:28:43Z</time>
      </trkpt>
      <trkpt lat="43.31955" lon="5.77471">
        <ele>711.5</ele>
        <time>2013-03-13T13:28:54Z</time>
      </trkpt>
      <trkpt lat="43.31958" lon="5.77482">
        <ele>710</ele>
        <time>2013-03-13T13:29:04Z</time>
      </trkpt>
      <trkpt lat="43.31956" lon="5.77493">
        <ele>710.5</ele>
        <time>2013-03-13T13:29:14Z</time>
      </trkpt>
      <trkpt lat="43.31948" lon="5.77498">
        <ele>710.4</ele>
        <time>2013-03-13T13:29:23Z</time>
      </trkpt>
      <trkpt lat="43.31939" lon="5.775">
        <ele>707.2</ele>
        <time>2013-03-13T13:29:32Z</time>
      </trkpt>
      <trkpt lat="43.31938" lon="5.775">
        <ele>707</ele>
        <time>2013-03-13T13:29:33Z</time>
      </trkpt>
      <trkpt lat="43.31922" lon="5.77503">
        <ele>706.7</ele>
        <time>2013-03-13T13:29:50Z</time>
      </trkpt>
      <trkpt lat="43.31913" lon="5.77504">
        <ele>705.2</ele>
        <time>2013-03-13T13:29:58Z</time>
      </trkpt>
      <trkpt lat="43.31905" lon="5.77507">
        <ele>702.5</ele>
        <time>2013-03-13T13:30:09Z</time>
      </trkpt>
      <trkpt lat="43.31896" lon="5.77508">
        <ele>701</ele>
        <time>2013-03-13T13:30:19Z</time>
      </trkpt>
      <trkpt lat="43.31889" lon="5.77508">
        <ele>700</ele>
        <time>2013-03-13T13:30:28Z</time>
      </trkpt>
      <trkpt lat="43.3188" lon="5.77508">
        <ele>699.5</ele>
        <time>2013-03-13T13:30:38Z</time>
      </trkpt>
      <trkpt lat="43.31879" lon="5.77508">
        <ele>699.2</ele>
        <time>2013-03-13T13:30:39Z</time>
      </trkpt>
      <trkpt lat="43.31863" lon="5.77508">
        <ele>696.4</ele>
        <time>2013-03-13T13:30:57Z</time>
      </trkpt>
      <trkpt lat="43.31855" lon="5.77507">
        <ele>695</ele>
        <time>2013-03-13T13:31:07Z</time>
      </trkpt>
      <trkpt lat="43.31847" lon="5.77514">
        <ele>688.5</ele>
        <time>2013-03-13T13:31:54Z</time>
      </trkpt>
      <trkpt lat="43.31847" lon="5.77514">
        <ele>688.7</ele>
        <time>2013-03-13T13:31:55Z</time>
      </trkpt>
      <trkpt lat="43.31831" lon="5.77522">
        <ele>687</ele>
        <time>2013-03-13T13:32:27Z</time>
      </trkpt>
      <trkpt lat="43.31823" lon="5.77528">
        <ele>683.7</ele>
        <time>2013-03-13T13:32:48Z</time>
      </trkpt>
      <trkpt lat="43.31816" lon="5.77534">
        <ele>684.2</ele>
        <time>2013-03-13T13:33:15Z</time>
      </trkpt>
      <trkpt lat="43.31815" lon="5.77534">
        <ele>684.2</ele>
        <time>2013-03-13T13:33:16Z</time>
      </trkpt>
      <trkpt lat="43.31799" lon="5.77534">
        <ele>674.7</ele>
        <time>2013-03-13T13:34:11Z</time>
      </trkpt>
      <trkpt lat="43.3179" lon="5.77537">
        <ele>673.4</ele>
        <time>2013-03-13T13:34:23Z</time>
      </trkpt>
      <trkpt lat="43.31789" lon="5.77537">
        <ele>672.7</ele>
        <time>2013-03-13T13:34:24Z</time>
      </trkpt>
      <trkpt lat="43.31775" lon="5.77547">
        <ele>666.5</ele>
        <time>2013-03-13T13:34:54Z</time>
      </trkpt>
      <trkpt lat="43.31767" lon="5.77552">
        <ele>662.9</ele>
        <time>2013-03-13T13:35:10Z</time>
      </trkpt>
      <trkpt lat="43.31758" lon="5.77554">
        <ele>661.7</ele>
        <time>2013-03-13T13:35:24Z</time>
      </trkpt>
      <trkpt lat="43.31758" lon="5.77554">
        <ele>661.9</ele>
        <time>2013-03-13T13:35:25Z</time>
      </trkpt>
      <trkpt lat="43.31742" lon="5.77558">
        <ele>654.2</ele>
        <time>2013-03-13T13:35:50Z</time>
      </trkpt>
      <trkpt lat="43.31733" lon="5.77558">
        <ele>653.2</ele>
        <time>2013-03-13T13:36:00Z</time>
      </trkpt>
      <trkpt lat="43.31725" lon="5.77554">
        <ele>651.5</ele>
        <time>2013-03-13T13:36:12Z</time>
      </trkpt>
      <trkpt lat="43.31717" lon="5.77548">
        <ele>647.2</ele>
        <time>2013-03-13T13:36:24Z</time>
      </trkpt>
      <trkpt lat="43.3171" lon="5.77543">
        <ele>639</ele>
        <time>2013-03-13T13:36:37Z</time>
      </trkpt>
      <trkpt lat="43.31709" lon="5.77542">
        <ele>639</ele>
        <time>2013-03-13T13:36:38Z</time>
      </trkpt>
      <trkpt lat="43.31695" lon="5.77535">
        <ele>633.5</ele>
        <time>2013-03-13T13:37:04Z</time>
      </trkpt>
      <trkpt lat="43.31687" lon="5.7754">
        <ele>638.4</ele>
        <time>2013-03-13T13:37:19Z</time>
      </trkpt>
      <trkpt lat="43.31682" lon="5.7755">
        <ele>636.9</ele>
        <time>2013-03-13T13:37:31Z</time>
      </trkpt>
      <trkpt lat="43.31677" lon="5.77559">
        <ele>636</ele>
        <time>2013-03-13T13:37:50Z</time>
      </trkpt>
      <trkpt lat="43.31677" lon="5.7756">
        <ele>635.7</ele>
        <time>2013-03-13T13:37:51Z</time>
      </trkpt>
      <trkpt lat="43.31672" lon="5.77582">
        <ele>626.2</ele>
        <time>2013-03-13T13:38:16Z</time>
      </trkpt>
      <trkpt lat="43.31675" lon="5.77593">
        <ele>618.7</ele>
        <time>2013-03-13T13:38:25Z</time>
      </trkpt>
      <trkpt lat="43.31678" lon="5.77604">
        <ele>618.9</ele>
        <time>2013-03-13T13:38:33Z</time>
      </trkpt>
      <trkpt lat="43.3168" lon="5.77615">
        <ele>622.5</ele>
        <time>2013-03-13T13:38:40Z</time>
      </trkpt>
      <trkpt lat="43.31684" lon="5.77625">
        <ele>625.9</ele>
        <time>2013-03-13T13:38:48Z</time>
      </trkpt>
      <trkpt lat="43.31688" lon="5.77635">
        <ele>626.2</ele>
        <time>2013-03-13T13:38:58Z</time>
      </trkpt>
      <trkpt lat="43.31689" lon="5.77636">
        <ele>626.2</ele>
        <time>2013-03-13T13:38:59Z</time>
      </trkpt>
      <trkpt lat="43.31683" lon="5.77656">
        <ele>625.2</ele>
        <time>2013-03-13T13:39:20Z</time>
      </trkpt>
      <trkpt lat="43.31676" lon="5.77662">
        <ele>625.2</ele>
        <time>2013-03-13T13:39:31Z</time>
      </trkpt>
      <trkpt lat="43.31668" lon="5.77667">
        <ele>622.2</ele>
        <time>2013-03-13T13:39:43Z</time>
      </trkpt>
      <trkpt lat="43.31661" lon="5.77675">
        <ele>616.7</ele>
        <time>2013-03-13T13:39:57Z</time>
      </trkpt>
      <trkpt lat="43.31654" lon="5.77682">
        <ele>616.7</ele>
        <time>2013-03-13T13:40:09Z</time>
      </trkpt>
      <trkpt lat="43.31654" lon="5.77683">
        <ele>617.4</ele>
        <time>2013-03-13T13:40:10Z</time>
      </trkpt>
      <trkpt lat="43.3164" lon="5.77696">
        <ele>612</ele>
        <time>2013-03-13T13:40:36Z</time>
      </trkpt>
      <trkpt lat="43.31632" lon="5.77695">
        <ele>612.2</ele>
        <time>2013-03-13T13:40:44Z</time>
      </trkpt>
      <trkpt lat="43.31623" lon="5.77695">
        <ele>610.7</ele>
        <time>2013-03-13T13:40:53Z</time>
      </trkpt>
      <trkpt lat="43.31615" lon="5.77692">
        <ele>612.7</ele>
        <time>2013-03-13T13:41:02Z</time>
      </trkpt>
      <trkpt lat="43.31606" lon="5.77694">
        <ele>606.7</ele>
        <time>2013-03-13T13:41:14Z</time>
      </trkpt>
      <trkpt lat="43.31606" lon="5.77695">
        <ele>606.5</ele>
        <time>2013-03-13T13:41:15Z</time>
      </trkpt>
      <trkpt lat="43.31589" lon="5.77699">
        <ele>599.9</ele>
        <time>2013-03-13T13:41:32Z</time>
      </trkpt>
      <trkpt lat="43.31581" lon="5.77696">
        <ele>600.2</ele>
        <time>2013-03-13T13:41:42Z</time>
      </trkpt>
      <trkpt lat="43.31572" lon="5.77696">
        <ele>605.5</ele>
        <time>2013-03-13T13:41:48Z</time>
      </trkpt>
      <trkpt lat="43.31565" lon="5.77695">
        <ele>609.2</ele>
        <time>2013-03-13T13:41:55Z</time>
      </trkpt>
      <trkpt lat="43.31557" lon="5.77696">
        <ele>609.2</ele>
        <time>2013-03-13T13:42:03Z</time>
      </trkpt>
      <trkpt lat="43.31548" lon="5.77697">
        <ele>610.9</ele>
        <time>2013-03-13T13:42:11Z</time>
      </trkpt>
      <trkpt lat="43.3154" lon="5.77701">
        <ele>610</ele>
        <time>2013-03-13T13:42:26Z</time>
      </trkpt>
      <trkpt lat="43.31539" lon="5.77701">
        <ele>611.5</ele>
        <time>2013-03-13T13:42:27Z</time>
      </trkpt>
      <trkpt lat="43.31524" lon="5.77696">
        <ele>614.5</ele>
        <time>2013-03-13T13:43:53Z</time>
      </trkpt>
      <trkpt lat="43.31523" lon="5.77696">
        <ele>614.4</ele>
        <time>2013-03-13T13:43:54Z</time>
      </trkpt>
      <trkpt lat="43.31519" lon="5.77686">
        <ele>615.7</ele>
        <time>2013-03-13T13:46:49Z</time>
      </trkpt>
      <trkpt lat="43.31518" lon="5.77664">
        <ele>615.5</ele>
        <time>2013-03-13T13:47:08Z</time>
      </trkpt>
      <trkpt lat="43.31522" lon="5.77654">
        <ele>618</ele>
        <time>2013-03-13T13:47:18Z</time>
      </trkpt>
      <trkpt lat="43.31528" lon="5.77645">
        <ele>617.4</ele>
        <time>2013-03-13T13:47:28Z</time>
      </trkpt>
      <trkpt lat="43.31531" lon="5.77635">
        <ele>618.2</ele>
        <time>2013-03-13T13:47:37Z</time>
      </trkpt>
      <trkpt lat="43.31537" lon="5.77626">
        <ele>615</ele>
        <time>2013-03-13T13:47:44Z</time>
      </trkpt>
      <trkpt lat="43.31541" lon="5.77616">
        <ele>615.5</ele>
        <time>2013-03-13T13:47:51Z</time>
      </trkpt>
      <trkpt lat="43.31541" lon="5.77614">
        <ele>616.2</ele>
        <time>2013-03-13T13:47:52Z</time>
      </trkpt>
      <trkpt lat="43.31548" lon="5.77595">
        <ele>617.7</ele>
        <time>2013-03-13T13:48:06Z</time>
      </trkpt>
      <trkpt lat="43.31551" lon="5.77584">
        <ele>616.2</ele>
        <time>2013-03-13T13:48:14Z</time>
      </trkpt>
      <trkpt lat="43.31552" lon="5.77572">
        <ele>615.2</ele>
        <time>2013-03-13T13:48:22Z</time>
      </trkpt>
      <trkpt lat="43.31555" lon="5.7756">
        <ele>613.7</ele>
        <time>2013-03-13T13:48:30Z</time>
      </trkpt>
      <trkpt lat="43.31558" lon="5.7755">
        <ele>610.4</ele>
        <time>2013-03-13T13:48:38Z</time>
      </trkpt>
      <trkpt lat="43.3156" lon="5.77538">
        <ele>608.5</ele>
        <time>2013-03-13T13:48:46Z</time>
      </trkpt>
      <trkpt lat="43.31561" lon="5.77526">
        <ele>608.7</ele>
        <time>2013-03-13T13:48:53Z</time>
      </trkpt>
      <trkpt lat="43.31561" lon="5.77525">
        <ele>608.7</ele>
        <time>2013-03-13T13:48:54Z</time>
      </trkpt>
      <trkpt lat="43.31564" lon="5.77504">
        <ele>607.5</ele>
        <time>2013-03-13T13:49:08Z</time>
      </trkpt>
      <trkpt lat="43.31564" lon="5.77492">
        <ele>608.2</ele>
        <time>2013-03-13T13:49:17Z</time>
      </trkpt>
      <trkpt lat="43.31565" lon="5.7748">
        <ele>610.2</ele>
        <time>2013-03-13T13:49:26Z</time>
      </trkpt>
      <trkpt lat="43.31567" lon="5.77469">
        <ele>609</ele>
        <time>2013-03-13T13:49:34Z</time>
      </trkpt>
      <trkpt lat="43.3157" lon="5.77458">
        <ele>606.7</ele>
        <time>2013-03-13T13:49:42Z</time>
      </trkpt>
      <trkpt lat="43.31572" lon="5.77447">
        <ele>606.4</ele>
        <time>2013-03-13T13:49:50Z</time>
      </trkpt>
      <trkpt lat="43.31573" lon="5.77436">
        <ele>609</ele>
        <time>2013-03-13T13:49:57Z</time>
      </trkpt>
      <trkpt lat="43.31573" lon="5.77434">
        <ele>610.9</ele>
        <time>2013-03-13T13:49:58Z</time>
      </trkpt>
      <trkpt lat="43.31574" lon="5.77413">
        <ele>611.2</ele>
        <time>2013-03-13T13:50:12Z</time>
      </trkpt>
      <trkpt lat="43.31572" lon="5.77402">
        <ele>613.7</ele>
        <time>2013-03-13T13:50:23Z</time>
      </trkpt>
      <trkpt lat="43.3157" lon="5.7739">
        <ele>611.2</ele>
        <time>2013-03-13T13:50:32Z</time>
      </trkpt>
      <trkpt lat="43.31568" lon="5.77379">
        <ele>609.5</ele>
        <time>2013-03-13T13:50:40Z</time>
      </trkpt>
      <trkpt lat="43.31567" lon="5.77367">
        <ele>607</ele>
        <time>2013-03-13T13:50:48Z</time>
      </trkpt>
      <trkpt lat="43.31567" lon="5.77356">
        <ele>605</ele>
        <time>2013-03-13T13:50:56Z</time>
      </trkpt>
      <trkpt lat="43.31566" lon="5.77344">
        <ele>602.9</ele>
        <time>2013-03-13T13:51:04Z</time>
      </trkpt>
      <trkpt lat="43.31566" lon="5.77342">
        <ele>602.9</ele>
        <time>2013-03-13T13:51:05Z</time>
      </trkpt>
      <trkpt lat="43.31565" lon="5.77324">
        <ele>604.7</ele>
        <time>2013-03-13T13:51:15Z</time>
      </trkpt>
      <trkpt lat="43.31563" lon="5.77313">
        <ele>609.2</ele>
        <time>2013-03-13T13:51:20Z</time>
      </trkpt>
      <trkpt lat="43.31563" lon="5.77301">
        <ele>608.5</ele>
        <time>2013-03-13T13:51:27Z</time>
      </trkpt>
      <trkpt lat="43.31565" lon="5.7729">
        <ele>606.5</ele>
        <time>2013-03-13T13:51:35Z</time>
      </trkpt>
      <trkpt lat="43.31565" lon="5.77278">
        <ele>605.2</ele>
        <time>2013-03-13T13:51:42Z</time>
      </trkpt>
      <trkpt lat="43.31565" lon="5.77267">
        <ele>603.9</ele>
        <time>2013-03-13T13:51:49Z</time>
      </trkpt>
      <trkpt lat="43.31565" lon="5.77255">
        <ele>602.7</ele>
        <time>2013-03-13T13:51:56Z</time>
      </trkpt>
      <trkpt lat="43.31565" lon="5.77244">
        <ele>603</ele>
        <time>2013-03-13T13:52:04Z</time>
      </trkpt>
      <trkpt lat="43.31565" lon="5.77232">
        <ele>602</ele>
        <time>2013-03-13T13:52:12Z</time>
      </trkpt>
      <trkpt lat="43.31565" lon="5.7723">
        <ele>601.7</ele>
        <time>2013-03-13T13:52:13Z</time>
      </trkpt>
      <trkpt lat="43.31564" lon="5.77207">
        <ele>602.4</ele>
        <time>2013-03-13T13:52:26Z</time>
      </trkpt>
      <trkpt lat="43.31564" lon="5.77196">
        <ele>601.2</ele>
        <time>2013-03-13T13:52:33Z</time>
      </trkpt>
      <trkpt lat="43.31565" lon="5.77184">
        <ele>601.7</ele>
        <time>2013-03-13T13:52:40Z</time>
      </trkpt>
      <trkpt lat="43.31568" lon="5.77172">
        <ele>603.9</ele>
        <time>2013-03-13T13:52:48Z</time>
      </trkpt>
      <trkpt lat="43.31575" lon="5.77166">
        <ele>606.2</ele>
        <time>2013-03-13T13:52:57Z</time>
      </trkpt>
      <trkpt lat="43.31583" lon="5.77161">
        <ele>604.2</ele>
        <time>2013-03-13T13:53:06Z</time>
      </trkpt>
      <trkpt lat="43.31589" lon="5.77154">
        <ele>603.2</ele>
        <time>2013-03-13T13:53:14Z</time>
      </trkpt>
      <trkpt lat="43.3159" lon="5.77153">
        <ele>603.5</ele>
        <time>2013-03-13T13:53:15Z</time>
      </trkpt>
      <trkpt lat="43.31603" lon="5.77141">
        <ele>601.7</ele>
        <time>2013-03-13T13:53:29Z</time>
      </trkpt>
      <trkpt lat="43.31607" lon="5.7713">
        <ele>602</ele>
        <time>2013-03-13T13:53:38Z</time>
      </trkpt>
      <trkpt lat="43.31604" lon="5.77119">
        <ele>600.2</ele>
        <time>2013-03-13T13:53:46Z</time>
      </trkpt>
      <trkpt lat="43.31597" lon="5.77114">
        <ele>602.2</ele>
        <time>2013-03-13T13:53:53Z</time>
      </trkpt>
      <trkpt lat="43.31589" lon="5.77112">
        <ele>602.2</ele>
        <time>2013-03-13T13:54:00Z</time>
      </trkpt>
      <trkpt lat="43.3158" lon="5.77111">
        <ele>601</ele>
        <time>2013-03-13T13:54:08Z</time>
      </trkpt>
      <trkpt lat="43.31572" lon="5.7711">
        <ele>596.4</ele>
        <time>2013-03-13T13:54:17Z</time>
      </trkpt>
      <trkpt lat="43.31571" lon="5.7711">
        <ele>596.2</ele>
        <time>2013-03-13T13:54:18Z</time>
      </trkpt>
      <trkpt lat="43.31555" lon="5.77109">
        <ele>592.2</ele>
        <time>2013-03-13T13:54:34Z</time>
      </trkpt>
      <trkpt lat="43.31547" lon="5.77108">
        <ele>592.5</ele>
        <time>2013-03-13T13:54:41Z</time>
      </trkpt>
      <trkpt lat="43.31538" lon="5.77108">
        <ele>590.7</ele>
        <time>2013-03-13T13:54:49Z</time>
      </trkpt>
      <trkpt lat="43.31529" lon="5.77107">
        <ele>589</ele>
        <time>2013-03-13T13:54:57Z</time>
      </trkpt>
      <trkpt lat="43.31521" lon="5.77105">
        <ele>587.7</ele>
        <time>2013-03-13T13:55:06Z</time>
      </trkpt>
      <trkpt lat="43.31512" lon="5.77104">
        <ele>587.5</ele>
        <time>2013-03-13T13:55:13Z</time>
      </trkpt>
      <trkpt lat="43.31504" lon="5.77103">
        <ele>587</ele>
        <time>2013-03-13T13:55:20Z</time>
      </trkpt>
      <trkpt lat="43.31502" lon="5.77103">
        <ele>586.9</ele>
        <time>2013-03-13T13:55:21Z</time>
      </trkpt>
      <trkpt lat="43.3149" lon="5.77094">
        <ele>589</ele>
        <time>2013-03-13T13:55:31Z</time>
      </trkpt>
      <trkpt lat="43.31485" lon="5.77084">
        <ele>589</ele>
        <time>2013-03-13T13:55:37Z</time>
      </trkpt>
      <trkpt lat="43.31481" lon="5.77074">
        <ele>588.4</ele>
        <time>2013-03-13T13:55:44Z</time>
      </trkpt>
      <trkpt lat="43.31477" lon="5.77064">
        <ele>589.7</ele>
        <time>2013-03-13T13:55:50Z</time>
      </trkpt>
      <trkpt lat="43.31473" lon="5.77054">
        <ele>592.7</ele>
        <time>2013-03-13T13:55:55Z</time>
      </trkpt>
      <trkpt lat="43.31471" lon="5.77042">
        <ele>591</ele>
        <time>2013-03-13T13:56:02Z</time>
      </trkpt>
      <trkpt lat="43.31468" lon="5.7703">
        <ele>589.5</ele>
        <time>2013-03-13T13:56:09Z</time>
      </trkpt>
      <trkpt lat="43.31466" lon="5.7702">
        <ele>587.7</ele>
        <time>2013-03-13T13:56:16Z</time>
      </trkpt>
      <trkpt lat="43.31463" lon="5.7701">
        <ele>587.5</ele>
        <time>2013-03-13T13:56:22Z</time>
      </trkpt>
      <trkpt lat="43.31463" lon="5.77008">
        <ele>587.2</ele>
        <time>2013-03-13T13:56:23Z</time>
      </trkpt>
      <trkpt lat="43.31456" lon="5.76989">
        <ele>585.9</ele>
        <time>2013-03-13T13:56:36Z</time>
      </trkpt>
      <trkpt lat="43.31451" lon="5.76978">
        <ele>582.4</ele>
        <time>2013-03-13T13:56:45Z</time>
      </trkpt>
      <trkpt lat="43.31447" lon="5.76968">
        <ele>581.4</ele>
        <time>2013-03-13T13:56:53Z</time>
      </trkpt>
      <trkpt lat="43.31441" lon="5.7696">
        <ele>586.5</ele>
        <time>2013-03-13T13:56:57Z</time>
      </trkpt>
      <trkpt lat="43.31437" lon="5.76949">
        <ele>585.7</ele>
        <time>2013-03-13T13:57:04Z</time>
      </trkpt>
      <trkpt lat="43.31433" lon="5.7694">
        <ele>586.2</ele>
        <time>2013-03-13T13:57:09Z</time>
      </trkpt>
      <trkpt lat="43.3143" lon="5.7693">
        <ele>585.5</ele>
        <time>2013-03-13T13:57:15Z</time>
      </trkpt>
      <trkpt lat="43.31426" lon="5.7692">
        <ele>583.5</ele>
        <time>2013-03-13T13:57:22Z</time>
      </trkpt>
      <trkpt lat="43.31423" lon="5.76911">
        <ele>583.4</ele>
        <time>2013-03-13T13:57:28Z</time>
      </trkpt>
      <trkpt lat="43.31422" lon="5.76909">
        <ele>583.7</ele>
        <time>2013-03-13T13:57:29Z</time>
      </trkpt>
      <trkpt lat="43.31414" lon="5.7689">
        <ele>581</ele>
        <time>2013-03-13T13:57:42Z</time>
      </trkpt>
      <trkpt lat="43.31408" lon="5.76881">
        <ele>582.2</ele>
        <time>2013-03-13T13:57:47Z</time>
      </trkpt>
      <trkpt lat="43.31404" lon="5.76871">
        <ele>583.5</ele>
        <time>2013-03-13T13:57:53Z</time>
      </trkpt>
      <trkpt lat="43.31401" lon="5.76861">
        <ele>588.2</ele>
        <time>2013-03-13T13:57:58Z</time>
      </trkpt>
      <trkpt lat="43.31398" lon="5.7685">
        <ele>586.9</ele>
        <time>2013-03-13T13:58:06Z</time>
      </trkpt>
      <trkpt lat="43.31397" lon="5.76839">
        <ele>584.4</ele>
        <time>2013-03-13T13:58:13Z</time>
      </trkpt>
      <trkpt lat="43.31393" lon="5.76829">
        <ele>584.4</ele>
        <time>2013-03-13T13:58:19Z</time>
      </trkpt>
      <trkpt lat="43.3139" lon="5.76819">
        <ele>583.4</ele>
        <time>2013-03-13T13:58:25Z</time>
      </trkpt>
      <trkpt lat="43.31386" lon="5.76809">
        <ele>581.5</ele>
        <time>2013-03-13T13:58:32Z</time>
      </trkpt>
      <trkpt lat="43.31385" lon="5.76808">
        <ele>581.4</ele>
        <time>2013-03-13T13:58:33Z</time>
      </trkpt>
      <trkpt lat="43.31376" lon="5.76791">
        <ele>582</ele>
        <time>2013-03-13T13:58:45Z</time>
      </trkpt>
      <trkpt lat="43.31371" lon="5.76781">
        <ele>583.5</ele>
        <time>2013-03-13T13:58:51Z</time>
      </trkpt>
      <trkpt lat="43.31368" lon="5.76769">
        <ele>581.5</ele>
        <time>2013-03-13T13:58:59Z</time>
      </trkpt>
      <trkpt lat="43.31366" lon="5.76759">
        <ele>581.4</ele>
        <time>2013-03-13T13:59:05Z</time>
      </trkpt>
      <trkpt lat="43.31364" lon="5.76747">
        <ele>580.7</ele>
        <time>2013-03-13T13:59:12Z</time>
      </trkpt>
      <trkpt lat="43.31362" lon="5.76735">
        <ele>579</ele>
        <time>2013-03-13T13:59:21Z</time>
      </trkpt>
      <trkpt lat="43.3136" lon="5.76725">
        <ele>578.9</ele>
        <time>2013-03-13T13:59:27Z</time>
      </trkpt>
      <trkpt lat="43.31357" lon="5.76715">
        <ele>579.2</ele>
        <time>2013-03-13T13:59:33Z</time>
      </trkpt>
      <trkpt lat="43.31356" lon="5.76713">
        <ele>579.2</ele>
        <time>2013-03-13T13:59:34Z</time>
      </trkpt>
      <trkpt lat="43.31351" lon="5.76694">
        <ele>578.7</ele>
        <time>2013-03-13T13:59:46Z</time>
      </trkpt>
      <trkpt lat="43.3135" lon="5.76684">
        <ele>578.4</ele>
        <time>2013-03-13T13:59:52Z</time>
      </trkpt>
      <trkpt lat="43.31348" lon="5.76673">
        <ele>580.9</ele>
        <time>2013-03-13T13:59:57Z</time>
      </trkpt>
      <trkpt lat="43.3135" lon="5.76663">
        <ele>580</ele>
        <time>2013-03-13T14:00:04Z</time>
      </trkpt>
      <trkpt lat="43.31351" lon="5.7665">
        <ele>578.7</ele>
        <time>2013-03-13T14:00:12Z</time>
      </trkpt>
      <trkpt lat="43.31353" lon="5.76639">
        <ele>578</ele>
        <time>2013-03-13T14:00:19Z</time>
      </trkpt>
      <trkpt lat="43.31355" lon="5.76629">
        <ele>577.7</ele>
        <time>2013-03-13T14:00:25Z</time>
      </trkpt>
      <trkpt lat="43.31356" lon="5.76618">
        <ele>578.4</ele>
        <time>2013-03-13T14:00:31Z</time>
      </trkpt>
      <trkpt lat="43.31352" lon="5.76608">
        <ele>578.7</ele>
        <time>2013-03-13T14:00:38Z</time>
      </trkpt>
      <trkpt lat="43.31351" lon="5.76607">
        <ele>578.7</ele>
        <time>2013-03-13T14:00:39Z</time>
      </trkpt>
      <trkpt lat="43.31336" lon="5.76607">
        <ele>578.5</ele>
        <time>2013-03-13T14:00:52Z</time>
      </trkpt>
      <trkpt lat="43.31328" lon="5.76609">
        <ele>577.7</ele>
        <time>2013-03-13T14:00:59Z</time>
      </trkpt>
      <trkpt lat="43.3132" lon="5.76613">
        <ele>574.5</ele>
        <time>2013-03-13T14:01:07Z</time>
      </trkpt>
      <trkpt lat="43.31312" lon="5.76616">
        <ele>573.4</ele>
        <time>2013-03-13T14:01:14Z</time>
      </trkpt>
      <trkpt lat="43.31303" lon="5.76618">
        <ele>575</ele>
        <time>2013-03-13T14:01:22Z</time>
      </trkpt>
      <trkpt lat="43.31295" lon="5.76616">
        <ele>576</ele>
        <time>2013-03-13T14:01:32Z</time>
      </trkpt>
      <trkpt lat="43.31288" lon="5.76609">
        <ele>575.9</ele>
        <time>2013-03-13T14:01:41Z</time>
      </trkpt>
      <trkpt lat="43.31287" lon="5.76607">
        <ele>576</ele>
        <time>2013-03-13T14:01:42Z</time>
      </trkpt>
      <trkpt lat="43.31282" lon="5.76588">
        <ele>577.5</ele>
        <time>2013-03-13T14:01:56Z</time>
      </trkpt>
      <trkpt lat="43.31282" lon="5.76576">
        <ele>578.4</ele>
        <time>2013-03-13T14:02:04Z</time>
      </trkpt>
      <trkpt lat="43.31279" lon="5.76565">
        <ele>579.4</ele>
        <time>2013-03-13T14:02:11Z</time>
      </trkpt>
      <trkpt lat="43.31277" lon="5.76553">
        <ele>580.2</ele>
        <time>2013-03-13T14:02:19Z</time>
      </trkpt>
      <trkpt lat="43.31275" lon="5.76543">
        <ele>580.5</ele>
        <time>2013-03-13T14:02:26Z</time>
      </trkpt>
      <trkpt lat="43.31272" lon="5.76531">
        <ele>580</ele>
        <time>2013-03-13T14:02:33Z</time>
      </trkpt>
      <trkpt lat="43.31271" lon="5.76521">
        <ele>579.7</ele>
        <time>2013-03-13T14:02:40Z</time>
      </trkpt>
      <trkpt lat="43.31269" lon="5.7651">
        <ele>580</ele>
        <time>2013-03-13T14:02:46Z</time>
      </trkpt>
      <trkpt lat="43.31269" lon="5.76509">
        <ele>580.7</ele>
        <time>2013-03-13T14:02:47Z</time>
      </trkpt>
      <trkpt lat="43.31265" lon="5.76489">
        <ele>582.4</ele>
        <time>2013-03-13T14:03:00Z</time>
      </trkpt>
      <trkpt lat="43.31263" lon="5.76478">
        <ele>582.5</ele>
        <time>2013-03-13T14:03:07Z</time>
      </trkpt>
      <trkpt lat="43.3126" lon="5.76467">
        <ele>581.5</ele>
        <time>2013-03-13T14:03:15Z</time>
      </trkpt>
      <trkpt lat="43.31257" lon="5.76455">
        <ele>580.5</ele>
        <time>2013-03-13T14:03:23Z</time>
      </trkpt>
      <trkpt lat="43.31253" lon="5.76446">
        <ele>580.9</ele>
        <time>2013-03-13T14:03:29Z</time>
      </trkpt>
      <trkpt lat="43.31249" lon="5.76436">
        <ele>581.2</ele>
        <time>2013-03-13T14:03:35Z</time>
      </trkpt>
      <trkpt lat="43.31244" lon="5.76426">
        <ele>581.4</ele>
        <time>2013-03-13T14:03:42Z</time>
      </trkpt>
      <trkpt lat="43.31239" lon="5.76417">
        <ele>585.2</ele>
        <time>2013-03-13T14:03:46Z</time>
      </trkpt>
      <trkpt lat="43.31234" lon="5.76407">
        <ele>588.4</ele>
        <time>2013-03-13T14:03:51Z</time>
      </trkpt>
      <trkpt lat="43.31233" lon="5.76406">
        <ele>588.5</ele>
        <time>2013-03-13T14:03:52Z</time>
      </trkpt>
      <trkpt lat="43.31221" lon="5.76393">
        <ele>589</ele>
        <time>2013-03-13T14:04:04Z</time>
      </trkpt>
      <trkpt lat="43.31213" lon="5.76392">
        <ele>586.7</ele>
        <time>2013-03-13T14:04:12Z</time>
      </trkpt>
      <trkpt lat="43.31205" lon="5.76389">
        <ele>583.7</ele>
        <time>2013-03-13T14:04:19Z</time>
      </trkpt>
      <trkpt lat="43.31197" lon="5.76387">
        <ele>578.7</ele>
        <time>2013-03-13T14:04:28Z</time>
      </trkpt>
      <trkpt lat="43.31189" lon="5.76381">
        <ele>577</ele>
        <time>2013-03-13T14:04:35Z</time>
      </trkpt>
      <trkpt lat="43.31182" lon="5.76375">
        <ele>576</ele>
        <time>2013-03-13T14:04:42Z</time>
      </trkpt>
      <trkpt lat="43.31176" lon="5.76367">
        <ele>575.2</ele>
        <time>2013-03-13T14:04:49Z</time>
      </trkpt>
      <trkpt lat="43.31168" lon="5.76362">
        <ele>573.5</ele>
        <time>2013-03-13T14:04:57Z</time>
      </trkpt>
      <trkpt lat="43.31167" lon="5.76361">
        <ele>573</ele>
        <time>2013-03-13T14:04:58Z</time>
      </trkpt>
      <trkpt lat="43.31154" lon="5.76349">
        <ele>574</ele>
        <time>2013-03-13T14:05:10Z</time>
      </trkpt>
      <trkpt lat="43.31151" lon="5.76338">
        <ele>573</ele>
        <time>2013-03-13T14:05:17Z</time>
      </trkpt>
      <trkpt lat="43.31148" lon="5.76328">
        <ele>571.2</ele>
        <time>2013-03-13T14:05:24Z</time>
      </trkpt>
      <trkpt lat="43.31145" lon="5.76317">
        <ele>569.7</ele>
        <time>2013-03-13T14:05:32Z</time>
      </trkpt>
      <trkpt lat="43.31141" lon="5.76306">
        <ele>569.2</ele>
        <time>2013-03-13T14:05:39Z</time>
      </trkpt>
      <trkpt lat="43.31136" lon="5.76296">
        <ele>568</ele>
        <time>2013-03-13T14:05:46Z</time>
      </trkpt>
      <trkpt lat="43.31131" lon="5.76287">
        <ele>568</ele>
        <time>2013-03-13T14:05:53Z</time>
      </trkpt>
      <trkpt lat="43.31126" lon="5.76278">
        <ele>567.7</ele>
        <time>2013-03-13T14:06:00Z</time>
      </trkpt>
      <trkpt lat="43.31125" lon="5.76276">
        <ele>567.7</ele>
        <time>2013-03-13T14:06:01Z</time>
      </trkpt>
      <trkpt lat="43.31116" lon="5.7626">
        <ele>566.2</ele>
        <time>2013-03-13T14:06:14Z</time>
      </trkpt>
      <trkpt lat="43.31111" lon="5.7625">
        <ele>565.2</ele>
        <time>2013-03-13T14:06:21Z</time>
      </trkpt>
      <trkpt lat="43.31107" lon="5.76241">
        <ele>564.5</ele>
        <time>2013-03-13T14:06:28Z</time>
      </trkpt>
      <trkpt lat="43.31104" lon="5.76231">
        <ele>564.5</ele>
        <time>2013-03-13T14:06:34Z</time>
      </trkpt>
      <trkpt lat="43.31101" lon="5.76219">
        <ele>564.9</ele>
        <time>2013-03-13T14:06:41Z</time>
      </trkpt>
      <trkpt lat="43.31099" lon="5.76209">
        <ele>565</ele>
        <time>2013-03-13T14:06:47Z</time>
      </trkpt>
      <trkpt lat="43.31097" lon="5.76197">
        <ele>564.7</ele>
        <time>2013-03-13T14:06:54Z</time>
      </trkpt>
      <trkpt lat="43.31095" lon="5.76187">
        <ele>564.7</ele>
        <time>2013-03-13T14:07:00Z</time>
      </trkpt>
      <trkpt lat="43.31093" lon="5.76176">
        <ele>564</ele>
        <time>2013-03-13T14:07:06Z</time>
      </trkpt>
      <trkpt lat="43.31092" lon="5.76175">
        <ele>564</ele>
        <time>2013-03-13T14:07:07Z</time>
      </trkpt>
      <trkpt lat="43.31088" lon="5.76155">
        <ele>561.2</ele>
        <time>2013-03-13T14:07:20Z</time>
      </trkpt>
      <trkpt lat="43.31086" lon="5.76145">
        <ele>560.4</ele>
        <time>2013-03-13T14:07:26Z</time>
      </trkpt>
      <trkpt lat="43.31082" lon="5.76136">
        <ele>560.7</ele>
        <time>2013-03-13T14:07:32Z</time>
      </trkpt>
      <trkpt lat="43.31078" lon="5.76125">
        <ele>561.5</ele>
        <time>2013-03-13T14:07:38Z</time>
      </trkpt>
      <trkpt lat="43.31074" lon="5.76116">
        <ele>561.7</ele>
        <time>2013-03-13T14:07:44Z</time>
      </trkpt>
      <trkpt lat="43.3107" lon="5.76105">
        <ele>561.5</ele>
        <time>2013-03-13T14:07:51Z</time>
      </trkpt>
      <trkpt lat="43.31067" lon="5.76094">
        <ele>561.4</ele>
        <time>2013-03-13T14:07:58Z</time>
      </trkpt>
      <trkpt lat="43.31065" lon="5.76082">
        <ele>561</ele>
        <time>2013-03-13T14:08:05Z</time>
      </trkpt>
      <trkpt lat="43.31063" lon="5.76071">
        <ele>561.4</ele>
        <time>2013-03-13T14:08:11Z</time>
      </trkpt>
      <trkpt lat="43.31063" lon="5.76069">
        <ele>561.5</ele>
        <time>2013-03-13T14:08:12Z</time>
      </trkpt>
      <trkpt lat="43.31063" lon="5.76048">
        <ele>561</ele>
        <time>2013-03-13T14:08:24Z</time>
      </trkpt>
      <trkpt lat="43.31064" lon="5.76036">
        <ele>560.5</ele>
        <time>2013-03-13T14:08:31Z</time>
      </trkpt>
      <trkpt lat="43.31064" lon="5.76025">
        <ele>560.9</ele>
        <time>2013-03-13T14:08:37Z</time>
      </trkpt>
      <trkpt lat="43.31065" lon="5.76014">
        <ele>561.5</ele>
        <time>2013-03-13T14:08:43Z</time>
      </trkpt>
      <trkpt lat="43.31065" lon="5.76003">
        <ele>562</ele>
        <time>2013-03-13T14:08:49Z</time>
      </trkpt>
      <trkpt lat="43.31066" lon="5.75991">
        <ele>561.5</ele>
        <time>2013-03-13T14:08:56Z</time>
      </trkpt>
      <trkpt lat="43.31066" lon="5.75979">
        <ele>560.9</ele>
        <time>2013-03-13T14:09:03Z</time>
      </trkpt>
      <trkpt lat="43.31066" lon="5.75968">
        <ele>560.2</ele>
        <time>2013-03-13T14:09:10Z</time>
      </trkpt>
      <trkpt lat="43.31065" lon="5.75956">
        <ele>558.7</ele>
        <time>2013-03-13T14:09:18Z</time>
      </trkpt>
      <trkpt lat="43.31065" lon="5.75955">
        <ele>558.5</ele>
        <time>2013-03-13T14:09:19Z</time>
      </trkpt>
      <trkpt lat="43.31063" lon="5.75933">
        <ele>558.2</ele>
        <time>2013-03-13T14:09:32Z</time>
      </trkpt>
      <trkpt lat="43.31063" lon="5.75921">
        <ele>558</ele>
        <time>2013-03-13T14:09:39Z</time>
      </trkpt>
      <trkpt lat="43.31062" lon="5.75909">
        <ele>558.5</ele>
        <time>2013-03-13T14:09:45Z</time>
      </trkpt>
      <trkpt lat="43.31059" lon="5.75899">
        <ele>558.7</ele>
        <time>2013-03-13T14:09:51Z</time>
      </trkpt>
      <trkpt lat="43.31054" lon="5.7589">
        <ele>558.9</ele>
        <time>2013-03-13T14:09:57Z</time>
      </trkpt>
      <trkpt lat="43.31046" lon="5.75884">
        <ele>558.2</ele>
        <time>2013-03-13T14:10:05Z</time>
      </trkpt>
      <trkpt lat="43.31039" lon="5.75886">
        <ele>559</ele>
        <time>2013-03-13T14:10:11Z</time>
      </trkpt>
      <trkpt lat="43.3103" lon="5.75889">
        <ele>558.7</ele>
        <time>2013-03-13T14:10:18Z</time>
      </trkpt>
      <trkpt lat="43.31023" lon="5.75896">
        <ele>556.4</ele>
        <time>2013-03-13T14:10:26Z</time>
      </trkpt>
      <trkpt lat="43.31022" lon="5.75897">
        <ele>556.4</ele>
        <time>2013-03-13T14:10:27Z</time>
      </trkpt>
      <trkpt lat="43.31007" lon="5.75906">
        <ele>552.2</ele>
        <time>2013-03-13T14:10:42Z</time>
      </trkpt>
      <trkpt lat="43.31001" lon="5.759">
        <ele>553</ele>
        <time>2013-03-13T14:10:50Z</time>
      </trkpt>
      <trkpt lat="43.30994" lon="5.75892">
        <ele>551.5</ele>
        <time>2013-03-13T14:10:58Z</time>
      </trkpt>
      <trkpt lat="43.30987" lon="5.75886">
        <ele>551.7</ele>
        <time>2013-03-13T14:11:04Z</time>
      </trkpt>
      <trkpt lat="43.30981" lon="5.75881">
        <ele>550.4</ele>
        <time>2013-03-13T14:11:11Z</time>
      </trkpt>
      <trkpt lat="43.30974" lon="5.75874">
        <ele>550.5</ele>
        <time>2013-03-13T14:11:18Z</time>
      </trkpt>
      <trkpt lat="43.30966" lon="5.75868">
        <ele>551.2</ele>
        <time>2013-03-13T14:11:25Z</time>
      </trkpt>
      <trkpt lat="43.30958" lon="5.75868">
        <ele>551</ele>
        <time>2013-03-13T14:11:31Z</time>
      </trkpt>
      <trkpt lat="43.30956" lon="5.75868">
        <ele>550.9</ele>
        <time>2013-03-13T14:11:32Z</time>
      </trkpt>
      <trkpt lat="43.30942" lon="5.75858">
        <ele>550</ele>
        <time>2013-03-13T14:11:45Z</time>
      </trkpt>
      <trkpt lat="43.30935" lon="5.75852">
        <ele>549.9</ele>
        <time>2013-03-13T14:11:52Z</time>
      </trkpt>
      <trkpt lat="43.30927" lon="5.75853">
        <ele>549.2</ele>
        <time>2013-03-13T14:11:59Z</time>
      </trkpt>
      <trkpt lat="43.3092" lon="5.75856">
        <ele>547.7</ele>
        <time>2013-03-13T14:12:06Z</time>
      </trkpt>
      <trkpt lat="43.30912" lon="5.7586">
        <ele>547</ele>
        <time>2013-03-13T14:12:13Z</time>
      </trkpt>
      <trkpt lat="43.30904" lon="5.75863">
        <ele>547.7</ele>
        <time>2013-03-13T14:12:20Z</time>
      </trkpt>
      <trkpt lat="43.30896" lon="5.75868">
        <ele>540.4</ele>
        <time>2013-03-13T14:12:29Z</time>
      </trkpt>
      <trkpt lat="43.30888" lon="5.75869">
        <ele>541.7</ele>
        <time>2013-03-13T14:12:38Z</time>
      </trkpt>
      <trkpt lat="43.30887" lon="5.7587">
        <ele>541</ele>
        <time>2013-03-13T14:12:39Z</time>
      </trkpt>
      <trkpt lat="43.30871" lon="5.75874">
        <ele>536</ele>
        <time>2013-03-13T14:12:58Z</time>
      </trkpt>
      <trkpt lat="43.30863" lon="5.75873">
        <ele>533</ele>
        <time>2013-03-13T14:13:07Z</time>
      </trkpt>
      <trkpt lat="43.30854" lon="5.75871">
        <ele>525.9</ele>
        <time>2013-03-13T14:13:18Z</time>
      </trkpt>
      <trkpt lat="43.30846" lon="5.75868">
        <ele>523.7</ele>
        <time>2013-03-13T14:13:26Z</time>
      </trkpt>
      <trkpt lat="43.30838" lon="5.75864">
        <ele>524</ele>
        <time>2013-03-13T14:13:33Z</time>
      </trkpt>
      <trkpt lat="43.30831" lon="5.75858">
        <ele>529</ele>
        <time>2013-03-13T14:13:38Z</time>
      </trkpt>
      <trkpt lat="43.30824" lon="5.75853">
        <ele>532.5</ele>
        <time>2013-03-13T14:13:43Z</time>
      </trkpt>
      <trkpt lat="43.30823" lon="5.75852">
        <ele>533.2</ele>
        <time>2013-03-13T14:13:44Z</time>
      </trkpt>
      <trkpt lat="43.30813" lon="5.75839">
        <ele>536.4</ele>
        <time>2013-03-13T14:13:51Z</time>
      </trkpt>
      <trkpt lat="43.30807" lon="5.75831">
        <ele>537.9</ele>
        <time>2013-03-13T14:13:57Z</time>
      </trkpt>
      <trkpt lat="43.308" lon="5.75825">
        <ele>538.5</ele>
        <time>2013-03-13T14:14:04Z</time>
      </trkpt>
      <trkpt lat="43.30791" lon="5.75828">
        <ele>534.4</ele>
        <time>2013-03-13T14:14:14Z</time>
      </trkpt>
      <trkpt lat="43.30783" lon="5.75829">
        <ele>538.5</ele>
        <time>2013-03-13T14:14:21Z</time>
      </trkpt>
      <trkpt lat="43.30776" lon="5.75836">
        <ele>538.7</ele>
        <time>2013-03-13T14:14:30Z</time>
      </trkpt>
      <trkpt lat="43.30772" lon="5.75846">
        <ele>538.7</ele>
        <time>2013-03-13T14:14:40Z</time>
      </trkpt>
      <trkpt lat="43.30763" lon="5.75849">
        <ele>539.4</ele>
        <time>2013-03-13T14:14:58Z</time>
      </trkpt>
      <trkpt lat="43.30763" lon="5.75849">
        <ele>539.2</ele>
        <time>2013-03-13T14:14:59Z</time>
      </trkpt>
      <trkpt lat="43.30747" lon="5.75845">
        <ele>536</ele>
        <time>2013-03-13T14:15:39Z</time>
      </trkpt>
      <trkpt lat="43.30747" lon="5.75833">
        <ele>532.9</ele>
        <time>2013-03-13T14:16:38Z</time>
      </trkpt>
      <trkpt lat="43.30747" lon="5.75832">
        <ele>532.9</ele>
        <time>2013-03-13T14:16:39Z</time>
      </trkpt>
      <trkpt lat="43.30745" lon="5.75809">
        <ele>532.5</ele>
        <time>2013-03-13T14:17:08Z</time>
      </trkpt>
      <trkpt lat="43.30742" lon="5.75797">
        <ele>538.7</ele>
        <time>2013-03-13T14:17:22Z</time>
      </trkpt>
      <trkpt lat="43.30739" lon="5.75786">
        <ele>541.7</ele>
        <time>2013-03-13T14:17:34Z</time>
      </trkpt>
      <trkpt lat="43.30736" lon="5.75775">
        <ele>546</ele>
        <time>2013-03-13T14:17:51Z</time>
      </trkpt>
      <trkpt lat="43.30736" lon="5.75774">
        <ele>546.5</ele>
        <time>2013-03-13T14:17:52Z</time>
      </trkpt>
      <trkpt lat="43.30732" lon="5.75752">
        <ele>543</ele>
        <time>2013-03-13T14:18:14Z</time>
      </trkpt>
      <trkpt lat="43.30732" lon="5.7574">
        <ele>544</ele>
        <time>2013-03-13T14:18:26Z</time>
      </trkpt>
      <trkpt lat="43.30732" lon="5.75729">
        <ele>543</ele>
        <time>2013-03-13T14:18:38Z</time>
      </trkpt>
      <trkpt lat="43.30729" lon="5.75718">
        <ele>541.4</ele>
        <time>2013-03-13T14:18:46Z</time>
      </trkpt>
      <trkpt lat="43.30726" lon="5.75707">
        <ele>542.7</ele>
        <time>2013-03-13T14:18:59Z</time>
      </trkpt>
      <trkpt lat="43.30726" lon="5.75706">
        <ele>542.7</ele>
        <time>2013-03-13T14:19:00Z</time>
      </trkpt>
      <trkpt lat="43.3072" lon="5.75685">
        <ele>544.2</ele>
        <time>2013-03-13T14:19:18Z</time>
      </trkpt>
      <trkpt lat="43.30717" lon="5.75674">
        <ele>545.7</ele>
        <time>2013-03-13T14:19:28Z</time>
      </trkpt>
      <trkpt lat="43.30714" lon="5.75663">
        <ele>546.5</ele>
        <time>2013-03-13T14:19:38Z</time>
      </trkpt>
      <trkpt lat="43.30708" lon="5.75653">
        <ele>547.2</ele>
        <time>2013-03-13T14:19:47Z</time>
      </trkpt>
      <trkpt lat="43.30705" lon="5.75643">
        <ele>548.7</ele>
        <time>2013-03-13T14:19:57Z</time>
      </trkpt>
      <trkpt lat="43.307" lon="5.75633">
        <ele>549</ele>
        <time>2013-03-13T14:20:08Z</time>
      </trkpt>
      <trkpt lat="43.30699" lon="5.75631">
        <ele>548.9</ele>
        <time>2013-03-13T14:20:09Z</time>
      </trkpt>
      <trkpt lat="43.30689" lon="5.75615">
        <ele>546.7</ele>
        <time>2013-03-13T14:20:27Z</time>
      </trkpt>
      <trkpt lat="43.30686" lon="5.75605">
        <ele>546.9</ele>
        <time>2013-03-13T14:20:35Z</time>
      </trkpt>
      <trkpt lat="43.30683" lon="5.75595">
        <ele>547.5</ele>
        <time>2013-03-13T14:20:42Z</time>
      </trkpt>
      <trkpt lat="43.30678" lon="5.75587">
        <ele>548.7</ele>
        <time>2013-03-13T14:20:49Z</time>
      </trkpt>
      <trkpt lat="43.30675" lon="5.75578">
        <ele>549.9</ele>
        <time>2013-03-13T14:20:56Z</time>
      </trkpt>
      <trkpt lat="43.30671" lon="5.75567">
        <ele>553.7</ele>
        <time>2013-03-13T14:21:02Z</time>
      </trkpt>
      <trkpt lat="43.30666" lon="5.75557">
        <ele>550.5</ele>
        <time>2013-03-13T14:21:20Z</time>
      </trkpt>
      <trkpt lat="43.30666" lon="5.75555">
        <ele>550.2</ele>
        <time>2013-03-13T14:21:21Z</time>
      </trkpt>
      <trkpt lat="43.30653" lon="5.7554">
        <ele>544.2</ele>
        <time>2013-03-13T14:21:40Z</time>
      </trkpt>
      <trkpt lat="43.30648" lon="5.75529">
        <ele>543.7</ele>
        <time>2013-03-13T14:21:48Z</time>
      </trkpt>
      <trkpt lat="43.30644" lon="5.7552">
        <ele>544</ele>
        <time>2013-03-13T14:21:55Z</time>
      </trkpt>
      <trkpt lat="43.30642" lon="5.75509">
        <ele>545</ele>
        <time>2013-03-13T14:22:03Z</time>
      </trkpt>
      <trkpt lat="43.30639" lon="5.75498">
        <ele>546</ele>
        <time>2013-03-13T14:22:11Z</time>
      </trkpt>
      <trkpt lat="43.30636" lon="5.75487">
        <ele>547</ele>
        <time>2013-03-13T14:22:20Z</time>
      </trkpt>
      <trkpt lat="43.30633" lon="5.75476">
        <ele>546.9</ele>
        <time>2013-03-13T14:22:30Z</time>
      </trkpt>
      <trkpt lat="43.30633" lon="5.75475">
        <ele>546.9</ele>
        <time>2013-03-13T14:22:31Z</time>
      </trkpt>
      <trkpt lat="43.30625" lon="5.75456">
        <ele>548.2</ele>
        <time>2013-03-13T14:22:47Z</time>
      </trkpt>
      <trkpt lat="43.30622" lon="5.75445">
        <ele>552.9</ele>
        <time>2013-03-13T14:23:00Z</time>
      </trkpt>
      <trkpt lat="43.30629" lon="5.75439">
        <ele>548</ele>
        <time>2013-03-13T14:23:16Z</time>
      </trkpt>
      <trkpt lat="43.30637" lon="5.75434">
        <ele>549.7</ele>
        <time>2013-03-13T14:23:53Z</time>
      </trkpt>
      <trkpt lat="43.30638" lon="5.75433">
        <ele>549.7</ele>
        <time>2013-03-13T14:23:54Z</time>
      </trkpt>
      <trkpt lat="43.30621" lon="5.75431">
        <ele>545.2</ele>
        <time>2013-03-13T14:24:25Z</time>
      </trkpt>
      <trkpt lat="43.30612" lon="5.75434">
        <ele>543.2</ele>
        <time>2013-03-13T14:24:42Z</time>
      </trkpt>
      <trkpt lat="43.30607" lon="5.75424">
        <ele>540.7</ele>
        <time>2013-03-13T14:24:55Z</time>
      </trkpt>
      <trkpt lat="43.30607" lon="5.75423">
        <ele>540.9</ele>
        <time>2013-03-13T14:24:56Z</time>
      </trkpt>
      <trkpt lat="43.306" lon="5.75405">
        <ele>540.7</ele>
        <time>2013-03-13T14:25:09Z</time>
      </trkpt>
      <trkpt lat="43.30595" lon="5.75396">
        <ele>541.4</ele>
        <time>2013-03-13T14:25:16Z</time>
      </trkpt>
      <trkpt lat="43.30591" lon="5.75386">
        <ele>542.4</ele>
        <time>2013-03-13T14:25:24Z</time>
      </trkpt>
      <trkpt lat="43.30587" lon="5.75376">
        <ele>543.2</ele>
        <time>2013-03-13T14:25:32Z</time>
      </trkpt>
      <trkpt lat="43.30583" lon="5.75365">
        <ele>543.2</ele>
        <time>2013-03-13T14:25:40Z</time>
      </trkpt>
      <trkpt lat="43.3058" lon="5.75355">
        <ele>543</ele>
        <time>2013-03-13T14:25:47Z</time>
      </trkpt>
      <trkpt lat="43.30574" lon="5.75346">
        <ele>543.7</ele>
        <time>2013-03-13T14:25:53Z</time>
      </trkpt>
      <trkpt lat="43.30568" lon="5.75336">
        <ele>545.7</ele>
        <time>2013-03-13T14:26:00Z</time>
      </trkpt>
      <trkpt lat="43.30568" lon="5.75335">
        <ele>545.9</ele>
        <time>2013-03-13T14:26:01Z</time>
      </trkpt>
      <trkpt lat="43.30561" lon="5.75318">
        <ele>544.7</ele>
        <time>2013-03-13T14:26:15Z</time>
      </trkpt>
      <trkpt lat="43.30555" lon="5.75309">
        <ele>545.2</ele>
        <time>2013-03-13T14:26:23Z</time>
      </trkpt>
      <trkpt lat="43.30551" lon="5.753">
        <ele>546</ele>
        <time>2013-03-13T14:26:29Z</time>
      </trkpt>
      <trkpt lat="43.30546" lon="5.75291">
        <ele>545.7</ele>
        <time>2013-03-13T14:26:36Z</time>
      </trkpt>
      <trkpt lat="43.30541" lon="5.75281">
        <ele>544.2</ele>
        <time>2013-03-13T14:26:45Z</time>
      </trkpt>
      <trkpt lat="43.30537" lon="5.75272">
        <ele>543</ele>
        <time>2013-03-13T14:26:53Z</time>
      </trkpt>
      <trkpt lat="43.30533" lon="5.75261">
        <ele>541.5</ele>
        <time>2013-03-13T14:27:02Z</time>
      </trkpt>
      <trkpt lat="43.30532" lon="5.7526">
        <ele>541.5</ele>
        <time>2013-03-13T14:27:03Z</time>
      </trkpt>
      <trkpt lat="43.30523" lon="5.75241">
        <ele>539.2</ele>
        <time>2013-03-13T14:27:17Z</time>
      </trkpt>
      <trkpt lat="43.30519" lon="5.75232">
        <ele>538.2</ele>
        <time>2013-03-13T14:27:23Z</time>
      </trkpt>
      <trkpt lat="43.30514" lon="5.75223">
        <ele>538.5</ele>
        <time>2013-03-13T14:27:29Z</time>
      </trkpt>
      <trkpt lat="43.3051" lon="5.75213">
        <ele>539.2</ele>
        <time>2013-03-13T14:27:36Z</time>
      </trkpt>
      <trkpt lat="43.30505" lon="5.75203">
        <ele>538.9</ele>
        <time>2013-03-13T14:27:44Z</time>
      </trkpt>
      <trkpt lat="43.30499" lon="5.75194">
        <ele>537.9</ele>
        <time>2013-03-13T14:27:53Z</time>
      </trkpt>
      <trkpt lat="43.30493" lon="5.75187">
        <ele>535.5</ele>
        <time>2013-03-13T14:28:01Z</time>
      </trkpt>
      <trkpt lat="43.30487" lon="5.75179">
        <ele>535.2</ele>
        <time>2013-03-13T14:28:07Z</time>
      </trkpt>
      <trkpt lat="43.30486" lon="5.75178">
        <ele>535</ele>
        <time>2013-03-13T14:28:08Z</time>
      </trkpt>
      <trkpt lat="43.30476" lon="5.75163">
        <ele>534.7</ele>
        <time>2013-03-13T14:28:22Z</time>
      </trkpt>
      <trkpt lat="43.30469" lon="5.75156">
        <ele>533.4</ele>
        <time>2013-03-13T14:28:30Z</time>
      </trkpt>
      <trkpt lat="43.30461" lon="5.75152">
        <ele>532.7</ele>
        <time>2013-03-13T14:28:38Z</time>
      </trkpt>
      <trkpt lat="43.30454" lon="5.75146">
        <ele>534</ele>
        <time>2013-03-13T14:28:44Z</time>
      </trkpt>
      <trkpt lat="43.30448" lon="5.75138">
        <ele>532.2</ele>
        <time>2013-03-13T14:28:51Z</time>
      </trkpt>
      <trkpt lat="43.30441" lon="5.75131">
        <ele>532</ele>
        <time>2013-03-13T14:28:59Z</time>
      </trkpt>
      <trkpt lat="43.30434" lon="5.75125">
        <ele>531</ele>
        <time>2013-03-13T14:29:06Z</time>
      </trkpt>
      <trkpt lat="43.30427" lon="5.7513">
        <ele>530.2</ele>
        <time>2013-03-13T14:29:16Z</time>
      </trkpt>
      <trkpt lat="43.30426" lon="5.75131">
        <ele>530.2</ele>
        <time>2013-03-13T14:29:17Z</time>
      </trkpt>
      <trkpt lat="43.30412" lon="5.75123">
        <ele>528.4</ele>
        <time>2013-03-13T14:29:35Z</time>
      </trkpt>
      <trkpt lat="43.30404" lon="5.75118">
        <ele>529.5</ele>
        <time>2013-03-13T14:29:43Z</time>
      </trkpt>
      <trkpt lat="43.30396" lon="5.75116">
        <ele>530.2</ele>
        <time>2013-03-13T14:29:52Z</time>
      </trkpt>
      <trkpt lat="43.30393" lon="5.75104">
        <ele>527.2</ele>
        <time>2013-03-13T14:30:01Z</time>
      </trkpt>
      <trkpt lat="43.3039" lon="5.75093">
        <ele>527</ele>
        <time>2013-03-13T14:30:10Z</time>
      </trkpt>
      <trkpt lat="43.30384" lon="5.75084">
        <ele>524.5</ele>
        <time>2013-03-13T14:30:25Z</time>
      </trkpt>
      <trkpt lat="43.30383" lon="5.75083">
        <ele>524.5</ele>
        <time>2013-03-13T14:30:26Z</time>
      </trkpt>
      <trkpt lat="43.30374" lon="5.75064">
        <ele>530.2</ele>
        <time>2013-03-13T14:30:43Z</time>
      </trkpt>
      <trkpt lat="43.3037" lon="5.75055">
        <ele>529.7</ele>
        <time>2013-03-13T14:30:54Z</time>
      </trkpt>
      <trkpt lat="43.3037" lon="5.75043">
        <ele>530.2</ele>
        <time>2013-03-13T14:31:05Z</time>
      </trkpt>
      <trkpt lat="43.30372" lon="5.75032">
        <ele>530.7</ele>
        <time>2013-03-13T14:31:17Z</time>
      </trkpt>
      <trkpt lat="43.30369" lon="5.7502">
        <ele>532.2</ele>
        <time>2013-03-13T14:31:30Z</time>
      </trkpt>
      <trkpt lat="43.30369" lon="5.7502">
        <ele>533</ele>
        <time>2013-03-13T14:31:31Z</time>
      </trkpt>
      <trkpt lat="43.30363" lon="5.74999">
        <ele>539.2</ele>
        <time>2013-03-13T14:31:57Z</time>
      </trkpt>
      <trkpt lat="43.30357" lon="5.7499">
        <ele>542</ele>
        <time>2013-03-13T14:32:13Z</time>
      </trkpt>
      <trkpt lat="43.30348" lon="5.74985">
        <ele>551.7</ele>
        <time>2013-03-13T14:34:08Z</time>
      </trkpt>
      <trkpt lat="43.30347" lon="5.74985">
        <ele>551.5</ele>
        <time>2013-03-13T14:34:09Z</time>
      </trkpt>
      <trkpt lat="43.30331" lon="5.74983">
        <ele>547.5</ele>
        <time>2013-03-13T14:34:26Z</time>
      </trkpt>
      <trkpt lat="43.30325" lon="5.7499">
        <ele>545.2</ele>
        <time>2013-03-13T14:34:35Z</time>
      </trkpt>
      <trkpt lat="43.30321" lon="5.75001">
        <ele>546.2</ele>
        <time>2013-03-13T14:34:44Z</time>
      </trkpt>
      <trkpt lat="43.30319" lon="5.75012">
        <ele>544.9</ele>
        <time>2013-03-13T14:34:50Z</time>
      </trkpt>
      <trkpt lat="43.30315" lon="5.75023">
        <ele>544.2</ele>
        <time>2013-03-13T14:34:59Z</time>
      </trkpt>
      <trkpt lat="43.30311" lon="5.75032">
        <ele>543.2</ele>
        <time>2013-03-13T14:35:07Z</time>
      </trkpt>
      <trkpt lat="43.30307" lon="5.75043">
        <ele>544.7</ele>
        <time>2013-03-13T14:35:14Z</time>
      </trkpt>
      <trkpt lat="43.30307" lon="5.75044">
        <ele>544.9</ele>
        <time>2013-03-13T14:35:15Z</time>
      </trkpt>
      <trkpt lat="43.30303" lon="5.75065">
        <ele>546</ele>
        <time>2013-03-13T14:35:29Z</time>
      </trkpt>
      <trkpt lat="43.30303" lon="5.75076">
        <ele>545</ele>
        <time>2013-03-13T14:35:36Z</time>
      </trkpt>
      <trkpt lat="43.30305" lon="5.75087">
        <ele>544.9</ele>
        <time>2013-03-13T14:35:42Z</time>
      </trkpt>
      <trkpt lat="43.30305" lon="5.75099">
        <ele>541.7</ele>
        <time>2013-03-13T14:35:50Z</time>
      </trkpt>
      <trkpt lat="43.30308" lon="5.7511">
        <ele>539</ele>
        <time>2013-03-13T14:35:58Z</time>
      </trkpt>
      <trkpt lat="43.30309" lon="5.75121">
        <ele>539.2</ele>
        <time>2013-03-13T14:36:05Z</time>
      </trkpt>
      <trkpt lat="43.30308" lon="5.75133">
        <ele>541.2</ele>
        <time>2013-03-13T14:36:12Z</time>
      </trkpt>
      <trkpt lat="43.30309" lon="5.75143">
        <ele>542.4</ele>
        <time>2013-03-13T14:36:18Z</time>
      </trkpt>
      <trkpt lat="43.30309" lon="5.75145">
        <ele>542.2</ele>
        <time>2013-03-13T14:36:19Z</time>
      </trkpt>
      <trkpt lat="43.30309" lon="5.75167">
        <ele>542.5</ele>
        <time>2013-03-13T14:36:35Z</time>
      </trkpt>
      <trkpt lat="43.3031" lon="5.75179">
        <ele>541.4</ele>
        <time>2013-03-13T14:36:44Z</time>
      </trkpt>
      <trkpt lat="43.30312" lon="5.75191">
        <ele>543.7</ele>
        <time>2013-03-13T14:36:50Z</time>
      </trkpt>
      <trkpt lat="43.30315" lon="5.75202">
        <ele>544</ele>
        <time>2013-03-13T14:36:57Z</time>
      </trkpt>
      <trkpt lat="43.30317" lon="5.75213">
        <ele>541.2</ele>
        <time>2013-03-13T14:37:06Z</time>
      </trkpt>
      <trkpt lat="43.30316" lon="5.75225">
        <ele>538.7</ele>
        <time>2013-03-13T14:37:14Z</time>
      </trkpt>
      <trkpt lat="43.3031" lon="5.75233">
        <ele>536.9</ele>
        <time>2013-03-13T14:37:22Z</time>
      </trkpt>
      <trkpt lat="43.30309" lon="5.75234">
        <ele>537.2</ele>
        <time>2013-03-13T14:37:23Z</time>
      </trkpt>
      <trkpt lat="43.30294" lon="5.7524">
        <ele>533</ele>
        <time>2013-03-13T14:37:45Z</time>
      </trkpt>
      <trkpt lat="43.30286" lon="5.75238">
        <ele>527.4</ele>
        <time>2013-03-13T14:37:56Z</time>
      </trkpt>
      <trkpt lat="43.30278" lon="5.75236">
        <ele>521</ele>
        <time>2013-03-13T14:38:07Z</time>
      </trkpt>
      <trkpt lat="43.30271" lon="5.7523">
        <ele>516.4</ele>
        <time>2013-03-13T14:38:18Z</time>
      </trkpt>
      <trkpt lat="43.30263" lon="5.75227">
        <ele>515.7</ele>
        <time>2013-03-13T14:38:27Z</time>
      </trkpt>
      <trkpt lat="43.30262" lon="5.75227">
        <ele>515.9</ele>
        <time>2013-03-13T14:38:28Z</time>
      </trkpt>
      <trkpt lat="43.3025" lon="5.75214">
        <ele>517.5</ele>
        <time>2013-03-13T14:38:39Z</time>
      </trkpt>
      <trkpt lat="43.30244" lon="5.75205">
        <ele>518.9</ele>
        <time>2013-03-13T14:38:47Z</time>
      </trkpt>
      <trkpt lat="43.30239" lon="5.75197">
        <ele>518.2</ele>
        <time>2013-03-13T14:38:56Z</time>
      </trkpt>
      <trkpt lat="43.30232" lon="5.75189">
        <ele>518.7</ele>
        <time>2013-03-13T14:39:05Z</time>
      </trkpt>
      <trkpt lat="43.30223" lon="5.75185">
        <ele>519.2</ele>
        <time>2013-03-13T14:39:16Z</time>
      </trkpt>
      <trkpt lat="43.30223" lon="5.75196">
        <ele>517.7</ele>
        <time>2013-03-13T14:39:29Z</time>
      </trkpt>
      <trkpt lat="43.30223" lon="5.75198">
        <ele>517.5</ele>
        <time>2013-03-13T14:39:30Z</time>
      </trkpt>
      <trkpt lat="43.30226" lon="5.7522">
        <ele>516.5</ele>
        <time>2013-03-13T14:39:45Z</time>
      </trkpt>
      <trkpt lat="43.30227" lon="5.75231">
        <ele>515.5</ele>
        <time>2013-03-13T14:39:53Z</time>
      </trkpt>
      <trkpt lat="43.30231" lon="5.75242">
        <ele>513.2</ele>
        <time>2013-03-13T14:40:02Z</time>
      </trkpt>
      <trkpt lat="43.30235" lon="5.75252">
        <ele>511.2</ele>
        <time>2013-03-13T14:40:10Z</time>
      </trkpt>
      <trkpt lat="43.3024" lon="5.75261">
        <ele>511.2</ele>
        <time>2013-03-13T14:40:18Z</time>
      </trkpt>
      <trkpt lat="43.30245" lon="5.7527">
        <ele>511.8</ele>
        <time>2013-03-13T14:40:26Z</time>
      </trkpt>
      <trkpt lat="43.3025" lon="5.7528">
        <ele>513</ele>
        <time>2013-03-13T14:40:34Z</time>
      </trkpt>
      <trkpt lat="43.3025" lon="5.75281">
        <ele>513.2</ele>
        <time>2013-03-13T14:40:35Z</time>
      </trkpt>
      <trkpt lat="43.30255" lon="5.75301">
        <ele>512.7</ele>
        <time>2013-03-13T14:40:49Z</time>
      </trkpt>
      <trkpt lat="43.30252" lon="5.75312">
        <ele>510.1</ele>
        <time>2013-03-13T14:40:58Z</time>
      </trkpt>
      <trkpt lat="43.30246" lon="5.75321">
        <ele>510.7</ele>
        <time>2013-03-13T14:41:04Z</time>
      </trkpt>
      <trkpt lat="43.30239" lon="5.75326">
        <ele>511.2</ele>
        <time>2013-03-13T14:41:10Z</time>
      </trkpt>
      <trkpt lat="43.30233" lon="5.75332">
        <ele>511.8</ele>
        <time>2013-03-13T14:41:16Z</time>
      </trkpt>
      <trkpt lat="43.30226" lon="5.75339">
        <ele>511.8</ele>
        <time>2013-03-13T14:41:23Z</time>
      </trkpt>
      <trkpt lat="43.3022" lon="5.75345">
        <ele>513.5</ele>
        <time>2013-03-13T14:41:29Z</time>
      </trkpt>
      <trkpt lat="43.30213" lon="5.75351">
        <ele>512.7</ele>
        <time>2013-03-13T14:41:36Z</time>
      </trkpt>
      <trkpt lat="43.30212" lon="5.75352">
        <ele>512.5</ele>
        <time>2013-03-13T14:41:37Z</time>
      </trkpt>
      <trkpt lat="43.30197" lon="5.75362">
        <ele>512.2</ele>
        <time>2013-03-13T14:41:50Z</time>
      </trkpt>
      <trkpt lat="43.30192" lon="5.7537">
        <ele>512.9</ele>
        <time>2013-03-13T14:41:57Z</time>
      </trkpt>
      <trkpt lat="43.30187" lon="5.75379">
        <ele>513</ele>
        <time>2013-03-13T14:42:08Z</time>
      </trkpt>
      <trkpt lat="43.30187" lon="5.7539">
        <ele>513.2</ele>
        <time>2013-03-13T14:42:23Z</time>
      </trkpt>
      <trkpt lat="43.30191" lon="5.75401">
        <ele>512.9</ele>
        <time>2013-03-13T14:42:31Z</time>
      </trkpt>
      <trkpt lat="43.30195" lon="5.75411">
        <ele>513</ele>
        <time>2013-03-13T14:42:38Z</time>
      </trkpt>
      <trkpt lat="43.30196" lon="5.75413">
        <ele>512.9</ele>
        <time>2013-03-13T14:42:39Z</time>
      </trkpt>
      <trkpt lat="43.30204" lon="5.75431">
        <ele>513.2</ele>
        <time>2013-03-13T14:42:51Z</time>
      </trkpt>
      <trkpt lat="43.30208" lon="5.75441">
        <ele>513.2</ele>
        <time>2013-03-13T14:42:57Z</time>
      </trkpt>
      <trkpt lat="43.30213" lon="5.75452">
        <ele>513.2</ele>
        <time>2013-03-13T14:43:03Z</time>
      </trkpt>
      <trkpt lat="43.30217" lon="5.75462">
        <ele>512.5</ele>
        <time>2013-03-13T14:43:09Z</time>
      </trkpt>
      <trkpt lat="43.3022" lon="5.75473">
        <ele>512.7</ele>
        <time>2013-03-13T14:43:16Z</time>
      </trkpt>
      <trkpt lat="43.30224" lon="5.75484">
        <ele>512.5</ele>
        <time>2013-03-13T14:43:24Z</time>
      </trkpt>
      <trkpt lat="43.30228" lon="5.75495">
        <ele>511.7</ele>
        <time>2013-03-13T14:43:32Z</time>
      </trkpt>
      <trkpt lat="43.30231" lon="5.75505">
        <ele>511.7</ele>
        <time>2013-03-13T14:43:40Z</time>
      </trkpt>
      <trkpt lat="43.30231" lon="5.75507">
        <ele>511.7</ele>
        <time>2013-03-13T14:43:41Z</time>
      </trkpt>
      <trkpt lat="43.30233" lon="5.75527">
        <ele>512.5</ele>
        <time>2013-03-13T14:43:58Z</time>
      </trkpt>
      <trkpt lat="43.30232" lon="5.75532">
        <ele>511.2</ele>
        <time>2013-03-13T14:44:04Z</time>
      </trkpt>
      <trkpt lat="43.30232" lon="5.75532">
        <ele>511.2</ele>
        <time>2013-03-13T14:44:04Z</time>
      </trkpt>
    </trkseg>
  </trk>
</gpx>